<?xml version="1.0" encoding="UTF-8" standalone="no" ?>
<gpx xmlns="http://www.topografix.com/GPX/1/1" xmlns:xsi="http://www.w3.org/2001/XMLSchema-instance" xsi:schemaLocation="http://www.topografix.com/GPX/1/1 http://www.topografix.com/GPX/1/1/gpx.xsd" version="1.1" creator="VisuGPX - https://www.visugpx.com">
  <metadata>
    <name>Saint-Germain-Lespinasse-Saint-Jean-Saint-Maurice</name>
    <desc><![CDATA[Chemin de Compostelle 2016 : Saint-Germain-Lespinasse-Saint-Jean-Saint-Maurice]]></desc>
  </metadata>
  <trk>
    <name><![CDATA[29 Saint-Germain-Lespinasse - Saint-Jean-Saint-Maurice]]></name>
    <trkseg>
      <trkpt lat="46.09405" lon="3.93405">
        <ele>340</ele>
        <time>2016-04-20T07:25:48Z</time>
      </trkpt>
      <trkpt lat="46.094" lon="3.93409">
        <ele>339</ele>
        <time>2016-04-20T07:26:14Z</time>
      </trkpt>
      <trkpt lat="46.09394" lon="3.93409">
        <ele>339</ele>
        <time>2016-04-20T07:26:18Z</time>
      </trkpt>
      <trkpt lat="46.09393" lon="3.93405">
        <ele>338</ele>
        <time>2016-04-20T07:26:25Z</time>
      </trkpt>
      <trkpt lat="46.09392" lon="3.93399">
        <ele>337</ele>
        <time>2016-04-20T07:26:53Z</time>
      </trkpt>
      <trkpt lat="46.09389" lon="3.93386">
        <ele>338</ele>
        <time>2016-04-20T07:27:03Z</time>
      </trkpt>
      <trkpt lat="46.09385" lon="3.9338">
        <ele>338</ele>
        <time>2016-04-20T07:27:08Z</time>
      </trkpt>
      <trkpt lat="46.09381" lon="3.93378">
        <ele>339</ele>
        <time>2016-04-20T07:27:12Z</time>
      </trkpt>
      <trkpt lat="46.09356" lon="3.9337">
        <ele>339</ele>
        <time>2016-04-20T07:27:34Z</time>
      </trkpt>
      <trkpt lat="46.09354" lon="3.93364">
        <ele>339</ele>
        <time>2016-04-20T07:27:38Z</time>
      </trkpt>
      <trkpt lat="46.0935" lon="3.93351">
        <ele>338</ele>
        <time>2016-04-20T07:27:47Z</time>
      </trkpt>
      <trkpt lat="46.09345" lon="3.93348">
        <ele>338</ele>
        <time>2016-04-20T07:27:53Z</time>
      </trkpt>
      <trkpt lat="46.09335" lon="3.93349">
        <ele>338</ele>
        <time>2016-04-20T07:28:03Z</time>
      </trkpt>
      <trkpt lat="46.0933" lon="3.9335">
        <ele>338</ele>
        <time>2016-04-20T07:28:08Z</time>
      </trkpt>
      <trkpt lat="46.09326" lon="3.93351">
        <ele>338</ele>
        <time>2016-04-20T07:28:13Z</time>
      </trkpt>
      <trkpt lat="46.09315" lon="3.93351">
        <ele>338</ele>
        <time>2016-04-20T07:28:24Z</time>
      </trkpt>
      <trkpt lat="46.09281" lon="3.93349">
        <ele>342</ele>
        <time>2016-04-20T07:28:55Z</time>
      </trkpt>
      <trkpt lat="46.09251" lon="3.93348">
        <ele>343</ele>
        <time>2016-04-20T07:29:20Z</time>
      </trkpt>
      <trkpt lat="46.09247" lon="3.93343">
        <ele>343</ele>
        <time>2016-04-20T07:29:24Z</time>
      </trkpt>
      <trkpt lat="46.09242" lon="3.93337">
        <ele>343</ele>
        <time>2016-04-20T07:29:28Z</time>
      </trkpt>
      <trkpt lat="46.09222" lon="3.93287">
        <ele>346</ele>
        <time>2016-04-20T07:30:03Z</time>
      </trkpt>
      <trkpt lat="46.09206" lon="3.93244">
        <ele>348</ele>
        <time>2016-04-20T07:30:35Z</time>
      </trkpt>
      <trkpt lat="46.09194" lon="3.93187">
        <ele>350</ele>
        <time>2016-04-20T07:31:08Z</time>
      </trkpt>
      <trkpt lat="46.09188" lon="3.9313">
        <ele>352</ele>
        <time>2016-04-20T07:31:40Z</time>
      </trkpt>
      <trkpt lat="46.09184" lon="3.93079">
        <ele>352</ele>
        <time>2016-04-20T07:32:14Z</time>
      </trkpt>
      <trkpt lat="46.09182" lon="3.93028">
        <ele>353</ele>
        <time>2016-04-20T07:32:44Z</time>
      </trkpt>
      <trkpt lat="46.09181" lon="3.93013">
        <ele>353</ele>
        <time>2016-04-20T07:32:52Z</time>
      </trkpt>
      <trkpt lat="46.09177" lon="3.92971">
        <ele>353</ele>
        <time>2016-04-20T07:33:17Z</time>
      </trkpt>
      <trkpt lat="46.09176" lon="3.9295">
        <ele>354</ele>
        <time>2016-04-20T07:33:29Z</time>
      </trkpt>
      <trkpt lat="46.09174" lon="3.92899">
        <ele>354</ele>
        <time>2016-04-20T07:33:59Z</time>
      </trkpt>
      <trkpt lat="46.09174" lon="3.92891">
        <ele>356</ele>
        <time>2016-04-20T07:34:04Z</time>
      </trkpt>
      <trkpt lat="46.09174" lon="3.92839">
        <ele>358</ele>
        <time>2016-04-20T07:34:36Z</time>
      </trkpt>
      <trkpt lat="46.09173" lon="3.92826">
        <ele>359</ele>
        <time>2016-04-20T07:34:44Z</time>
      </trkpt>
      <trkpt lat="46.09173" lon="3.92811">
        <ele>356</ele>
        <time>2016-04-20T07:34:54Z</time>
      </trkpt>
      <trkpt lat="46.09169" lon="3.92789">
        <ele>355</ele>
        <time>2016-04-20T07:35:06Z</time>
      </trkpt>
      <trkpt lat="46.09165" lon="3.92733">
        <ele>355</ele>
        <time>2016-04-20T07:35:37Z</time>
      </trkpt>
      <trkpt lat="46.09164" lon="3.92726">
        <ele>355</ele>
        <time>2016-04-20T07:35:41Z</time>
      </trkpt>
      <trkpt lat="46.09165" lon="3.92697">
        <ele>355</ele>
        <time>2016-04-20T07:35:59Z</time>
      </trkpt>
      <trkpt lat="46.09166" lon="3.92682">
        <ele>356</ele>
        <time>2016-04-20T07:36:08Z</time>
      </trkpt>
      <trkpt lat="46.09164" lon="3.92647">
        <ele>356</ele>
        <time>2016-04-20T07:36:28Z</time>
      </trkpt>
      <trkpt lat="46.09159" lon="3.92644">
        <ele>356</ele>
        <time>2016-04-20T07:36:32Z</time>
      </trkpt>
      <trkpt lat="46.09143" lon="3.92647">
        <ele>357</ele>
        <time>2016-04-20T07:36:44Z</time>
      </trkpt>
      <trkpt lat="46.09137" lon="3.92648">
        <ele>356</ele>
        <time>2016-04-20T07:36:48Z</time>
      </trkpt>
      <trkpt lat="46.09132" lon="3.92649">
        <ele>357</ele>
        <time>2016-04-20T07:36:52Z</time>
      </trkpt>
      <trkpt lat="46.09092" lon="3.92658">
        <ele>356</ele>
        <time>2016-04-20T07:37:24Z</time>
      </trkpt>
      <trkpt lat="46.09052" lon="3.92667">
        <ele>354</ele>
        <time>2016-04-20T07:37:56Z</time>
      </trkpt>
      <trkpt lat="46.09017" lon="3.92667">
        <ele>353</ele>
        <time>2016-04-20T07:38:28Z</time>
      </trkpt>
      <trkpt lat="46.08987" lon="3.92673">
        <ele>352</ele>
        <time>2016-04-20T07:38:58Z</time>
      </trkpt>
      <trkpt lat="46.0895" lon="3.9269">
        <ele>351</ele>
        <time>2016-04-20T07:39:31Z</time>
      </trkpt>
      <trkpt lat="46.08915" lon="3.92701">
        <ele>348</ele>
        <time>2016-04-20T07:40:04Z</time>
      </trkpt>
      <trkpt lat="46.08879" lon="3.92715">
        <ele>346</ele>
        <time>2016-04-20T07:40:35Z</time>
      </trkpt>
      <trkpt lat="46.08874" lon="3.92717">
        <ele>345</ele>
        <time>2016-04-20T07:40:39Z</time>
      </trkpt>
      <trkpt lat="46.08869" lon="3.92716">
        <ele>345</ele>
        <time>2016-04-20T07:40:43Z</time>
      </trkpt>
      <trkpt lat="46.08836" lon="3.92729">
        <ele>344</ele>
        <time>2016-04-20T07:41:17Z</time>
      </trkpt>
      <trkpt lat="46.08832" lon="3.92731">
        <ele>344</ele>
        <time>2016-04-20T07:41:21Z</time>
      </trkpt>
      <trkpt lat="46.08827" lon="3.92729">
        <ele>344</ele>
        <time>2016-04-20T07:41:26Z</time>
      </trkpt>
      <trkpt lat="46.08792" lon="3.92726">
        <ele>344</ele>
        <time>2016-04-20T07:41:58Z</time>
      </trkpt>
      <trkpt lat="46.08787" lon="3.92725">
        <ele>344</ele>
        <time>2016-04-20T07:42:04Z</time>
      </trkpt>
      <trkpt lat="46.0876" lon="3.92724">
        <ele>344</ele>
        <time>2016-04-20T07:42:37Z</time>
      </trkpt>
      <trkpt lat="46.08752" lon="3.92728">
        <ele>343</ele>
        <time>2016-04-20T07:42:49Z</time>
      </trkpt>
      <trkpt lat="46.08749" lon="3.92732">
        <ele>344</ele>
        <time>2016-04-20T07:42:58Z</time>
      </trkpt>
      <trkpt lat="46.08746" lon="3.92734">
        <ele>344</ele>
        <time>2016-04-20T07:43:05Z</time>
      </trkpt>
      <trkpt lat="46.0874" lon="3.92728">
        <ele>345</ele>
        <time>2016-04-20T07:43:21Z</time>
      </trkpt>
      <trkpt lat="46.08736" lon="3.92725">
        <ele>345</ele>
        <time>2016-04-20T07:43:26Z</time>
      </trkpt>
      <trkpt lat="46.08726" lon="3.92718">
        <ele>340</ele>
        <time>2016-04-20T07:43:57Z</time>
      </trkpt>
      <trkpt lat="46.08722" lon="3.92715">
        <ele>339</ele>
        <time>2016-04-20T07:44:05Z</time>
      </trkpt>
      <trkpt lat="46.08707" lon="3.92705">
        <ele>346</ele>
        <time>2016-04-20T07:44:34Z</time>
      </trkpt>
      <trkpt lat="46.08702" lon="3.92702">
        <ele>346</ele>
        <time>2016-04-20T07:44:37Z</time>
      </trkpt>
      <trkpt lat="46.08697" lon="3.92699">
        <ele>347</ele>
        <time>2016-04-20T07:44:41Z</time>
      </trkpt>
      <trkpt lat="46.08692" lon="3.92697">
        <ele>347</ele>
        <time>2016-04-20T07:44:45Z</time>
      </trkpt>
      <trkpt lat="46.08672" lon="3.92688">
        <ele>348</ele>
        <time>2016-04-20T07:45:01Z</time>
      </trkpt>
      <trkpt lat="46.08668" lon="3.92686">
        <ele>347</ele>
        <time>2016-04-20T07:45:05Z</time>
      </trkpt>
      <trkpt lat="46.08642" lon="3.92667">
        <ele>342</ele>
        <time>2016-04-20T07:46:20Z</time>
      </trkpt>
      <trkpt lat="46.08638" lon="3.92665">
        <ele>342</ele>
        <time>2016-04-20T07:46:24Z</time>
      </trkpt>
      <trkpt lat="46.08633" lon="3.9266">
        <ele>342</ele>
        <time>2016-04-20T07:46:29Z</time>
      </trkpt>
      <trkpt lat="46.08591" lon="3.92635">
        <ele>343</ele>
        <time>2016-04-20T07:47:04Z</time>
      </trkpt>
      <trkpt lat="46.08573" lon="3.92646">
        <ele>344</ele>
        <time>2016-04-20T07:47:17Z</time>
      </trkpt>
      <trkpt lat="46.08544" lon="3.92689">
        <ele>343</ele>
        <time>2016-04-20T07:47:51Z</time>
      </trkpt>
      <trkpt lat="46.08512" lon="3.92719">
        <ele>343</ele>
        <time>2016-04-20T07:48:17Z</time>
      </trkpt>
      <trkpt lat="46.08492" lon="3.92712">
        <ele>343</ele>
        <time>2016-04-20T07:48:33Z</time>
      </trkpt>
      <trkpt lat="46.08478" lon="3.92692">
        <ele>344</ele>
        <time>2016-04-20T07:48:49Z</time>
      </trkpt>
      <trkpt lat="46.08476" lon="3.92685">
        <ele>344</ele>
        <time>2016-04-20T07:48:53Z</time>
      </trkpt>
      <trkpt lat="46.08472" lon="3.9267">
        <ele>344</ele>
        <time>2016-04-20T07:49:01Z</time>
      </trkpt>
      <trkpt lat="46.08452" lon="3.92619">
        <ele>345</ele>
        <time>2016-04-20T07:49:35Z</time>
      </trkpt>
      <trkpt lat="46.08434" lon="3.92567">
        <ele>347</ele>
        <time>2016-04-20T07:50:09Z</time>
      </trkpt>
      <trkpt lat="46.08419" lon="3.92522">
        <ele>349</ele>
        <time>2016-04-20T07:50:39Z</time>
      </trkpt>
      <trkpt lat="46.08405" lon="3.92483">
        <ele>350</ele>
        <time>2016-04-20T07:51:06Z</time>
      </trkpt>
      <trkpt lat="46.08402" lon="3.9247">
        <ele>349</ele>
        <time>2016-04-20T07:51:15Z</time>
      </trkpt>
      <trkpt lat="46.08401" lon="3.92464">
        <ele>349</ele>
        <time>2016-04-20T07:51:19Z</time>
      </trkpt>
      <trkpt lat="46.08384" lon="3.92413">
        <ele>352</ele>
        <time>2016-04-20T07:51:51Z</time>
      </trkpt>
      <trkpt lat="46.0837" lon="3.92368">
        <ele>353</ele>
        <time>2016-04-20T07:52:21Z</time>
      </trkpt>
      <trkpt lat="46.08368" lon="3.92361">
        <ele>353</ele>
        <time>2016-04-20T07:52:26Z</time>
      </trkpt>
      <trkpt lat="46.08355" lon="3.92322">
        <ele>355</ele>
        <time>2016-04-20T07:53:04Z</time>
      </trkpt>
      <trkpt lat="46.08352" lon="3.92317">
        <ele>354</ele>
        <time>2016-04-20T07:53:10Z</time>
      </trkpt>
      <trkpt lat="46.08348" lon="3.92321">
        <ele>354</ele>
        <time>2016-04-20T07:53:14Z</time>
      </trkpt>
      <trkpt lat="46.08342" lon="3.92334">
        <ele>354</ele>
        <time>2016-04-20T07:53:23Z</time>
      </trkpt>
      <trkpt lat="46.0832" lon="3.92374">
        <ele>353</ele>
        <time>2016-04-20T07:53:57Z</time>
      </trkpt>
      <trkpt lat="46.08299" lon="3.92422">
        <ele>352</ele>
        <time>2016-04-20T07:54:30Z</time>
      </trkpt>
      <trkpt lat="46.08275" lon="3.92469">
        <ele>350</ele>
        <time>2016-04-20T07:55:03Z</time>
      </trkpt>
      <trkpt lat="46.08254" lon="3.92519">
        <ele>348</ele>
        <time>2016-04-20T07:55:36Z</time>
      </trkpt>
      <trkpt lat="46.08231" lon="3.92568">
        <ele>348</ele>
        <time>2016-04-20T07:56:09Z</time>
      </trkpt>
      <trkpt lat="46.08207" lon="3.92616">
        <ele>348</ele>
        <time>2016-04-20T07:56:41Z</time>
      </trkpt>
      <trkpt lat="46.08178" lon="3.92641">
        <ele>348</ele>
        <time>2016-04-20T07:57:13Z</time>
      </trkpt>
      <trkpt lat="46.08159" lon="3.92651">
        <ele>348</ele>
        <time>2016-04-20T07:57:30Z</time>
      </trkpt>
      <trkpt lat="46.08128" lon="3.92636">
        <ele>350</ele>
        <time>2016-04-20T07:58:02Z</time>
      </trkpt>
      <trkpt lat="46.08095" lon="3.92617">
        <ele>352</ele>
        <time>2016-04-20T07:58:36Z</time>
      </trkpt>
      <trkpt lat="46.08062" lon="3.92596">
        <ele>354</ele>
        <time>2016-04-20T07:59:10Z</time>
      </trkpt>
      <trkpt lat="46.08034" lon="3.92581">
        <ele>356</ele>
        <time>2016-04-20T07:59:38Z</time>
      </trkpt>
      <trkpt lat="46.08" lon="3.92566">
        <ele>357</ele>
        <time>2016-04-20T08:00:09Z</time>
      </trkpt>
      <trkpt lat="46.07985" lon="3.92558">
        <ele>357</ele>
        <time>2016-04-20T08:00:23Z</time>
      </trkpt>
      <trkpt lat="46.0798" lon="3.92555">
        <ele>358</ele>
        <time>2016-04-20T08:00:27Z</time>
      </trkpt>
      <trkpt lat="46.07956" lon="3.92521">
        <ele>359</ele>
        <time>2016-04-20T08:00:56Z</time>
      </trkpt>
      <trkpt lat="46.07954" lon="3.92514">
        <ele>359</ele>
        <time>2016-04-20T08:01:01Z</time>
      </trkpt>
      <trkpt lat="46.07928" lon="3.92477">
        <ele>359</ele>
        <time>2016-04-20T08:01:33Z</time>
      </trkpt>
      <trkpt lat="46.07899" lon="3.9245">
        <ele>359</ele>
        <time>2016-04-20T08:02:05Z</time>
      </trkpt>
      <trkpt lat="46.07864" lon="3.92438">
        <ele>360</ele>
        <time>2016-04-20T08:02:38Z</time>
      </trkpt>
      <trkpt lat="46.07853" lon="3.92437">
        <ele>360</ele>
        <time>2016-04-20T08:02:49Z</time>
      </trkpt>
      <trkpt lat="46.07848" lon="3.92436">
        <ele>361</ele>
        <time>2016-04-20T08:02:54Z</time>
      </trkpt>
      <trkpt lat="46.07816" lon="3.92434">
        <ele>362</ele>
        <time>2016-04-20T08:03:24Z</time>
      </trkpt>
      <trkpt lat="46.07802" lon="3.92432">
        <ele>363</ele>
        <time>2016-04-20T08:03:48Z</time>
      </trkpt>
      <trkpt lat="46.07797" lon="3.92432">
        <ele>363</ele>
        <time>2016-04-20T08:03:56Z</time>
      </trkpt>
      <trkpt lat="46.07792" lon="3.92431">
        <ele>364</ele>
        <time>2016-04-20T08:04:03Z</time>
      </trkpt>
      <trkpt lat="46.07787" lon="3.92431">
        <ele>364</ele>
        <time>2016-04-20T08:04:09Z</time>
      </trkpt>
      <trkpt lat="46.07782" lon="3.9243">
        <ele>363</ele>
        <time>2016-04-20T08:04:15Z</time>
      </trkpt>
      <trkpt lat="46.07745" lon="3.92428">
        <ele>364</ele>
        <time>2016-04-20T08:04:46Z</time>
      </trkpt>
      <trkpt lat="46.0774" lon="3.92427">
        <ele>365</ele>
        <time>2016-04-20T08:04:50Z</time>
      </trkpt>
      <trkpt lat="46.07705" lon="3.92419">
        <ele>366</ele>
        <time>2016-04-20T08:05:22Z</time>
      </trkpt>
      <trkpt lat="46.07696" lon="3.92413">
        <ele>366</ele>
        <time>2016-04-20T08:05:31Z</time>
      </trkpt>
      <trkpt lat="46.07686" lon="3.92411">
        <ele>365</ele>
        <time>2016-04-20T08:05:40Z</time>
      </trkpt>
      <trkpt lat="46.07684" lon="3.92403">
        <ele>366</ele>
        <time>2016-04-20T08:05:47Z</time>
      </trkpt>
      <trkpt lat="46.07681" lon="3.9239">
        <ele>366</ele>
        <time>2016-04-20T08:05:55Z</time>
      </trkpt>
      <trkpt lat="46.07675" lon="3.92378">
        <ele>366</ele>
        <time>2016-04-20T08:06:03Z</time>
      </trkpt>
      <trkpt lat="46.07668" lon="3.92321">
        <ele>368</ele>
        <time>2016-04-20T08:06:36Z</time>
      </trkpt>
      <trkpt lat="46.07665" lon="3.92284">
        <ele>369</ele>
        <time>2016-04-20T08:06:58Z</time>
      </trkpt>
      <trkpt lat="46.07662" lon="3.92279">
        <ele>369</ele>
        <time>2016-04-20T08:07:02Z</time>
      </trkpt>
      <trkpt lat="46.07657" lon="3.92276">
        <ele>369</ele>
        <time>2016-04-20T08:07:07Z</time>
      </trkpt>
      <trkpt lat="46.07642" lon="3.92279">
        <ele>369</ele>
        <time>2016-04-20T08:07:20Z</time>
      </trkpt>
      <trkpt lat="46.07634" lon="3.92288">
        <ele>370</ele>
        <time>2016-04-20T08:07:28Z</time>
      </trkpt>
      <trkpt lat="46.07629" lon="3.92289">
        <ele>369</ele>
        <time>2016-04-20T08:07:32Z</time>
      </trkpt>
      <trkpt lat="46.07624" lon="3.92289">
        <ele>370</ele>
        <time>2016-04-20T08:07:36Z</time>
      </trkpt>
      <trkpt lat="46.07586" lon="3.92296">
        <ele>371</ele>
        <time>2016-04-20T08:08:08Z</time>
      </trkpt>
      <trkpt lat="46.07577" lon="3.92298">
        <ele>371</ele>
        <time>2016-04-20T08:08:16Z</time>
      </trkpt>
      <trkpt lat="46.07572" lon="3.92299">
        <ele>371</ele>
        <time>2016-04-20T08:08:21Z</time>
      </trkpt>
      <trkpt lat="46.07538" lon="3.92297">
        <ele>371</ele>
        <time>2016-04-20T08:08:50Z</time>
      </trkpt>
      <trkpt lat="46.07533" lon="3.92296">
        <ele>371</ele>
        <time>2016-04-20T08:08:54Z</time>
      </trkpt>
      <trkpt lat="46.07498" lon="3.92285">
        <ele>369</ele>
        <time>2016-04-20T08:09:25Z</time>
      </trkpt>
      <trkpt lat="46.07459" lon="3.92271">
        <ele>369</ele>
        <time>2016-04-20T08:09:58Z</time>
      </trkpt>
      <trkpt lat="46.07424" lon="3.92265">
        <ele>369</ele>
        <time>2016-04-20T08:10:29Z</time>
      </trkpt>
      <trkpt lat="46.07388" lon="3.92258">
        <ele>368</ele>
        <time>2016-04-20T08:11:00Z</time>
      </trkpt>
      <trkpt lat="46.07353" lon="3.92269">
        <ele>367</ele>
        <time>2016-04-20T08:11:30Z</time>
      </trkpt>
      <trkpt lat="46.07338" lon="3.92273">
        <ele>367</ele>
        <time>2016-04-20T08:11:43Z</time>
      </trkpt>
      <trkpt lat="46.07334" lon="3.92277">
        <ele>367</ele>
        <time>2016-04-20T08:11:52Z</time>
      </trkpt>
      <trkpt lat="46.07309" lon="3.9228">
        <ele>366</ele>
        <time>2016-04-20T08:12:12Z</time>
      </trkpt>
      <trkpt lat="46.07305" lon="3.92284">
        <ele>367</ele>
        <time>2016-04-20T08:12:16Z</time>
      </trkpt>
      <trkpt lat="46.07266" lon="3.9229">
        <ele>367</ele>
        <time>2016-04-20T08:12:49Z</time>
      </trkpt>
      <trkpt lat="46.07261" lon="3.92289">
        <ele>367</ele>
        <time>2016-04-20T08:12:53Z</time>
      </trkpt>
      <trkpt lat="46.07235" lon="3.92285">
        <ele>368</ele>
        <time>2016-04-20T08:13:15Z</time>
      </trkpt>
      <trkpt lat="46.07232" lon="3.9228">
        <ele>368</ele>
        <time>2016-04-20T08:13:19Z</time>
      </trkpt>
      <trkpt lat="46.07226" lon="3.92263">
        <ele>368</ele>
        <time>2016-04-20T08:13:31Z</time>
      </trkpt>
      <trkpt lat="46.0721" lon="3.92218">
        <ele>367</ele>
        <time>2016-04-20T08:14:01Z</time>
      </trkpt>
      <trkpt lat="46.07188" lon="3.92181">
        <ele>367</ele>
        <time>2016-04-20T08:14:31Z</time>
      </trkpt>
      <trkpt lat="46.07158" lon="3.92151">
        <ele>369</ele>
        <time>2016-04-20T08:15:05Z</time>
      </trkpt>
      <trkpt lat="46.07144" lon="3.92138">
        <ele>371</ele>
        <time>2016-04-20T08:15:21Z</time>
      </trkpt>
      <trkpt lat="46.07121" lon="3.9211">
        <ele>372</ele>
        <time>2016-04-20T08:15:46Z</time>
      </trkpt>
      <trkpt lat="46.07119" lon="3.92108">
        <ele>373</ele>
        <time>2016-04-20T08:15:53Z</time>
      </trkpt>
      <trkpt lat="46.07103" lon="3.92071">
        <ele>375</ele>
        <time>2016-04-20T08:16:27Z</time>
      </trkpt>
      <trkpt lat="46.07103" lon="3.92064">
        <ele>376</ele>
        <time>2016-04-20T08:16:33Z</time>
      </trkpt>
      <trkpt lat="46.07099" lon="3.92061">
        <ele>376</ele>
        <time>2016-04-20T08:16:37Z</time>
      </trkpt>
      <trkpt lat="46.07094" lon="3.92049">
        <ele>377</ele>
        <time>2016-04-20T08:16:48Z</time>
      </trkpt>
      <trkpt lat="46.07072" lon="3.92007">
        <ele>379</ele>
        <time>2016-04-20T08:17:20Z</time>
      </trkpt>
      <trkpt lat="46.07068" lon="3.92003">
        <ele>380</ele>
        <time>2016-04-20T08:17:24Z</time>
      </trkpt>
      <trkpt lat="46.07044" lon="3.91966">
        <ele>383</ele>
        <time>2016-04-20T08:17:54Z</time>
      </trkpt>
      <trkpt lat="46.07025" lon="3.91933">
        <ele>386</ele>
        <time>2016-04-20T08:18:24Z</time>
      </trkpt>
      <trkpt lat="46.07022" lon="3.91932">
        <ele>386</ele>
        <time>2016-04-20T08:19:52Z</time>
      </trkpt>
      <trkpt lat="46.07019" lon="3.91928">
        <ele>387</ele>
        <time>2016-04-20T08:20:29Z</time>
      </trkpt>
      <trkpt lat="46.07012" lon="3.91918">
        <ele>388</ele>
        <time>2016-04-20T08:20:39Z</time>
      </trkpt>
      <trkpt lat="46.0701" lon="3.91912">
        <ele>389</ele>
        <time>2016-04-20T08:20:48Z</time>
      </trkpt>
      <trkpt lat="46.06997" lon="3.91899">
        <ele>390</ele>
        <time>2016-04-20T08:21:00Z</time>
      </trkpt>
      <trkpt lat="46.06987" lon="3.91892">
        <ele>391</ele>
        <time>2016-04-20T08:21:09Z</time>
      </trkpt>
      <trkpt lat="46.0698" lon="3.91881">
        <ele>391</ele>
        <time>2016-04-20T08:21:19Z</time>
      </trkpt>
      <trkpt lat="46.06976" lon="3.91878">
        <ele>391</ele>
        <time>2016-04-20T08:21:24Z</time>
      </trkpt>
      <trkpt lat="46.06967" lon="3.9187">
        <ele>393</ele>
        <time>2016-04-20T08:21:34Z</time>
      </trkpt>
      <trkpt lat="46.06963" lon="3.91866">
        <ele>393</ele>
        <time>2016-04-20T08:21:38Z</time>
      </trkpt>
      <trkpt lat="46.06959" lon="3.91861">
        <ele>393</ele>
        <time>2016-04-20T08:21:43Z</time>
      </trkpt>
      <trkpt lat="46.06956" lon="3.91855">
        <ele>393</ele>
        <time>2016-04-20T08:21:48Z</time>
      </trkpt>
      <trkpt lat="46.06936" lon="3.91805">
        <ele>395</ele>
        <time>2016-04-20T08:22:23Z</time>
      </trkpt>
      <trkpt lat="46.06929" lon="3.91756">
        <ele>398</ele>
        <time>2016-04-20T08:22:53Z</time>
      </trkpt>
      <trkpt lat="46.06928" lon="3.91742">
        <ele>398</ele>
        <time>2016-04-20T08:23:02Z</time>
      </trkpt>
      <trkpt lat="46.06911" lon="3.91697">
        <ele>401</ele>
        <time>2016-04-20T08:23:35Z</time>
      </trkpt>
      <trkpt lat="46.06905" lon="3.91686">
        <ele>402</ele>
        <time>2016-04-20T08:23:44Z</time>
      </trkpt>
      <trkpt lat="46.06901" lon="3.91682">
        <ele>403</ele>
        <time>2016-04-20T08:23:52Z</time>
      </trkpt>
      <trkpt lat="46.06899" lon="3.91676">
        <ele>402</ele>
        <time>2016-04-20T08:23:56Z</time>
      </trkpt>
      <trkpt lat="46.06896" lon="3.91669">
        <ele>402</ele>
        <time>2016-04-20T08:24:00Z</time>
      </trkpt>
      <trkpt lat="46.06894" lon="3.91664">
        <ele>403</ele>
        <time>2016-04-20T08:24:04Z</time>
      </trkpt>
      <trkpt lat="46.06872" lon="3.91614">
        <ele>407</ele>
        <time>2016-04-20T08:24:38Z</time>
      </trkpt>
      <trkpt lat="46.06852" lon="3.91581">
        <ele>410</ele>
        <time>2016-04-20T08:25:06Z</time>
      </trkpt>
      <trkpt lat="46.06848" lon="3.91577">
        <ele>410</ele>
        <time>2016-04-20T08:25:11Z</time>
      </trkpt>
      <trkpt lat="46.06845" lon="3.91572">
        <ele>410</ele>
        <time>2016-04-20T08:25:16Z</time>
      </trkpt>
      <trkpt lat="46.06837" lon="3.91562">
        <ele>411</ele>
        <time>2016-04-20T08:25:26Z</time>
      </trkpt>
      <trkpt lat="46.06834" lon="3.9156">
        <ele>411</ele>
        <time>2016-04-20T08:25:34Z</time>
      </trkpt>
      <trkpt lat="46.06828" lon="3.91556">
        <ele>412</ele>
        <time>2016-04-20T08:25:44Z</time>
      </trkpt>
      <trkpt lat="46.06803" lon="3.91539">
        <ele>418</ele>
        <time>2016-04-20T08:26:19Z</time>
      </trkpt>
      <trkpt lat="46.0679" lon="3.91529">
        <ele>421</ele>
        <time>2016-04-20T08:26:36Z</time>
      </trkpt>
      <trkpt lat="46.06789" lon="3.91522">
        <ele>422</ele>
        <time>2016-04-20T08:26:41Z</time>
      </trkpt>
      <trkpt lat="46.06789" lon="3.91504">
        <ele>425</ele>
        <time>2016-04-20T08:27:01Z</time>
      </trkpt>
      <trkpt lat="46.06788" lon="3.91497">
        <ele>425</ele>
        <time>2016-04-20T08:27:08Z</time>
      </trkpt>
      <trkpt lat="46.06787" lon="3.91492">
        <ele>424</ele>
        <time>2016-04-20T08:27:16Z</time>
      </trkpt>
      <trkpt lat="46.06782" lon="3.91489">
        <ele>425</ele>
        <time>2016-04-20T08:27:20Z</time>
      </trkpt>
      <trkpt lat="46.06779" lon="3.91481">
        <ele>426</ele>
        <time>2016-04-20T08:27:30Z</time>
      </trkpt>
      <trkpt lat="46.06777" lon="3.91474">
        <ele>426</ele>
        <time>2016-04-20T08:27:34Z</time>
      </trkpt>
      <trkpt lat="46.06772" lon="3.91472">
        <ele>427</ele>
        <time>2016-04-20T08:27:41Z</time>
      </trkpt>
      <trkpt lat="46.06749" lon="3.91463">
        <ele>437</ele>
        <time>2016-04-20T08:28:14Z</time>
      </trkpt>
      <trkpt lat="46.06739" lon="3.91458">
        <ele>438</ele>
        <time>2016-04-20T08:28:31Z</time>
      </trkpt>
      <trkpt lat="46.06724" lon="3.91448">
        <ele>446</ele>
        <time>2016-04-20T08:29:01Z</time>
      </trkpt>
      <trkpt lat="46.06711" lon="3.91449">
        <ele>443</ele>
        <time>2016-04-20T08:29:25Z</time>
      </trkpt>
      <trkpt lat="46.06705" lon="3.91446">
        <ele>441</ele>
        <time>2016-04-20T08:29:48Z</time>
      </trkpt>
      <trkpt lat="46.06697" lon="3.91439">
        <ele>441</ele>
        <time>2016-04-20T08:29:56Z</time>
      </trkpt>
      <trkpt lat="46.06692" lon="3.91426">
        <ele>441</ele>
        <time>2016-04-20T08:30:05Z</time>
      </trkpt>
      <trkpt lat="46.0669" lon="3.9142">
        <ele>442</ele>
        <time>2016-04-20T08:30:11Z</time>
      </trkpt>
      <trkpt lat="46.06683" lon="3.91399">
        <ele>445</ele>
        <time>2016-04-20T08:30:41Z</time>
      </trkpt>
      <trkpt lat="46.06685" lon="3.91392">
        <ele>445</ele>
        <time>2016-04-20T08:30:48Z</time>
      </trkpt>
      <trkpt lat="46.0669" lon="3.91389">
        <ele>445</ele>
        <time>2016-04-20T08:30:52Z</time>
      </trkpt>
      <trkpt lat="46.0669" lon="3.91381">
        <ele>445</ele>
        <time>2016-04-20T08:30:58Z</time>
      </trkpt>
      <trkpt lat="46.06689" lon="3.91368">
        <ele>446</ele>
        <time>2016-04-20T08:31:08Z</time>
      </trkpt>
      <trkpt lat="46.06687" lon="3.91358">
        <ele>446</ele>
        <time>2016-04-20T08:31:13Z</time>
      </trkpt>
      <trkpt lat="46.06682" lon="3.91358">
        <ele>446</ele>
        <time>2016-04-20T08:31:15Z</time>
      </trkpt>
      <trkpt lat="46.06678" lon="3.91354">
        <ele>446</ele>
        <time>2016-04-20T08:31:19Z</time>
      </trkpt>
      <trkpt lat="46.06673" lon="3.91346">
        <ele>446</ele>
        <time>2016-04-20T08:31:30Z</time>
      </trkpt>
      <trkpt lat="46.06672" lon="3.91338">
        <ele>448</ele>
        <time>2016-04-20T08:31:53Z</time>
      </trkpt>
      <trkpt lat="46.06676" lon="3.91336">
        <ele>448</ele>
        <time>2016-04-20T08:33:18Z</time>
      </trkpt>
      <trkpt lat="46.0668" lon="3.91339">
        <ele>448</ele>
        <time>2016-04-20T08:34:29Z</time>
      </trkpt>
      <trkpt lat="46.06693" lon="3.91367">
        <ele>449</ele>
        <time>2016-04-20T08:38:47Z</time>
      </trkpt>
      <trkpt lat="46.06705" lon="3.91355">
        <ele>448</ele>
        <time>2016-04-20T08:39:42Z</time>
      </trkpt>
      <trkpt lat="46.06687" lon="3.91351">
        <ele>449</ele>
        <time>2016-04-20T08:40:04Z</time>
      </trkpt>
      <trkpt lat="46.06684" lon="3.91344">
        <ele>449</ele>
        <time>2016-04-20T08:41:37Z</time>
      </trkpt>
      <trkpt lat="46.06677" lon="3.91338">
        <ele>449</ele>
        <time>2016-04-20T08:41:55Z</time>
      </trkpt>
      <trkpt lat="46.06671" lon="3.91334">
        <ele>449</ele>
        <time>2016-04-20T08:42:04Z</time>
      </trkpt>
      <trkpt lat="46.06678" lon="3.9134">
        <ele>445</ele>
        <time>2016-04-20T08:43:06Z</time>
      </trkpt>
      <trkpt lat="46.0668" lon="3.91346">
        <ele>447</ele>
        <time>2016-04-20T08:43:10Z</time>
      </trkpt>
      <trkpt lat="46.06689" lon="3.91362">
        <ele>447</ele>
        <time>2016-04-20T08:43:23Z</time>
      </trkpt>
      <trkpt lat="46.06696" lon="3.91371">
        <ele>446</ele>
        <time>2016-04-20T08:43:32Z</time>
      </trkpt>
      <trkpt lat="46.067" lon="3.9137">
        <ele>446</ele>
        <time>2016-04-20T08:43:40Z</time>
      </trkpt>
      <trkpt lat="46.06703" lon="3.91366">
        <ele>446</ele>
        <time>2016-04-20T08:43:46Z</time>
      </trkpt>
      <trkpt lat="46.067" lon="3.91359">
        <ele>448</ele>
        <time>2016-04-20T08:43:58Z</time>
      </trkpt>
      <trkpt lat="46.067" lon="3.91355">
        <ele>450</ele>
        <time>2016-04-20T08:44:05Z</time>
      </trkpt>
      <trkpt lat="46.06701" lon="3.91351">
        <ele>450</ele>
        <time>2016-04-20T08:44:16Z</time>
      </trkpt>
      <trkpt lat="46.067" lon="3.91344">
        <ele>450</ele>
        <time>2016-04-20T08:44:24Z</time>
      </trkpt>
      <trkpt lat="46.06704" lon="3.9134">
        <ele>450</ele>
        <time>2016-04-20T08:44:32Z</time>
      </trkpt>
      <trkpt lat="46.06706" lon="3.91341">
        <ele>450</ele>
        <time>2016-04-20T08:44:55Z</time>
      </trkpt>
      <trkpt lat="46.0671" lon="3.91334">
        <ele>450</ele>
        <time>2016-04-20T08:45:09Z</time>
      </trkpt>
      <trkpt lat="46.06709" lon="3.91328">
        <ele>450</ele>
        <time>2016-04-20T08:45:38Z</time>
      </trkpt>
      <trkpt lat="46.06707" lon="3.91322">
        <ele>450</ele>
        <time>2016-04-20T08:45:47Z</time>
      </trkpt>
      <trkpt lat="46.06706" lon="3.91314">
        <ele>450</ele>
        <time>2016-04-20T08:45:55Z</time>
      </trkpt>
      <trkpt lat="46.06704" lon="3.91317">
        <ele>449</ele>
        <time>2016-04-20T08:46:20Z</time>
      </trkpt>
      <trkpt lat="46.06707" lon="3.91322">
        <ele>449</ele>
        <time>2016-04-20T08:46:33Z</time>
      </trkpt>
      <trkpt lat="46.06708" lon="3.91329">
        <ele>449</ele>
        <time>2016-04-20T08:46:40Z</time>
      </trkpt>
      <trkpt lat="46.06707" lon="3.91336">
        <ele>449</ele>
        <time>2016-04-20T08:46:45Z</time>
      </trkpt>
      <trkpt lat="46.06702" lon="3.91348">
        <ele>449</ele>
        <time>2016-04-20T08:46:55Z</time>
      </trkpt>
      <trkpt lat="46.06702" lon="3.91362">
        <ele>448</ele>
        <time>2016-04-20T08:47:11Z</time>
      </trkpt>
      <trkpt lat="46.06684" lon="3.91389">
        <ele>442</ele>
        <time>2016-04-20T08:47:46Z</time>
      </trkpt>
      <trkpt lat="46.06679" lon="3.91384">
        <ele>442</ele>
        <time>2016-04-20T08:47:52Z</time>
      </trkpt>
      <trkpt lat="46.0668" lon="3.91377">
        <ele>441</ele>
        <time>2016-04-20T08:47:55Z</time>
      </trkpt>
      <trkpt lat="46.06671" lon="3.91384">
        <ele>442</ele>
        <time>2016-04-20T08:48:40Z</time>
      </trkpt>
      <trkpt lat="46.06651" lon="3.91377">
        <ele>442</ele>
        <time>2016-04-20T08:49:08Z</time>
      </trkpt>
      <trkpt lat="46.06649" lon="3.91385">
        <ele>441</ele>
        <time>2016-04-20T08:49:32Z</time>
      </trkpt>
      <trkpt lat="46.06651" lon="3.91393">
        <ele>441</ele>
        <time>2016-04-20T08:49:38Z</time>
      </trkpt>
      <trkpt lat="46.06648" lon="3.91398">
        <ele>441</ele>
        <time>2016-04-20T08:49:42Z</time>
      </trkpt>
      <trkpt lat="46.06645" lon="3.91399">
        <ele>440</ele>
        <time>2016-04-20T08:49:49Z</time>
      </trkpt>
      <trkpt lat="46.06637" lon="3.91408">
        <ele>439</ele>
        <time>2016-04-20T08:50:04Z</time>
      </trkpt>
      <trkpt lat="46.06626" lon="3.91411">
        <ele>442</ele>
        <time>2016-04-20T08:50:16Z</time>
      </trkpt>
      <trkpt lat="46.06622" lon="3.91414">
        <ele>441</ele>
        <time>2016-04-20T08:50:21Z</time>
      </trkpt>
      <trkpt lat="46.06618" lon="3.91418">
        <ele>440</ele>
        <time>2016-04-20T08:50:27Z</time>
      </trkpt>
      <trkpt lat="46.06617" lon="3.91425">
        <ele>438</ele>
        <time>2016-04-20T08:50:33Z</time>
      </trkpt>
      <trkpt lat="46.0662" lon="3.91432">
        <ele>437</ele>
        <time>2016-04-20T08:50:37Z</time>
      </trkpt>
      <trkpt lat="46.06636" lon="3.91448">
        <ele>435</ele>
        <time>2016-04-20T08:50:52Z</time>
      </trkpt>
      <trkpt lat="46.06639" lon="3.91453">
        <ele>435</ele>
        <time>2016-04-20T08:50:56Z</time>
      </trkpt>
      <trkpt lat="46.06641" lon="3.91459">
        <ele>436</ele>
        <time>2016-04-20T08:51:00Z</time>
      </trkpt>
      <trkpt lat="46.06644" lon="3.91457">
        <ele>436</ele>
        <time>2016-04-20T08:51:33Z</time>
      </trkpt>
      <trkpt lat="46.06647" lon="3.91454">
        <ele>436</ele>
        <time>2016-04-20T08:51:43Z</time>
      </trkpt>
      <trkpt lat="46.06647" lon="3.91458">
        <ele>439</ele>
        <time>2016-04-20T08:55:49Z</time>
      </trkpt>
      <trkpt lat="46.06644" lon="3.91463">
        <ele>439</ele>
        <time>2016-04-20T08:55:54Z</time>
      </trkpt>
      <trkpt lat="46.06622" lon="3.91478">
        <ele>436</ele>
        <time>2016-04-20T08:56:16Z</time>
      </trkpt>
      <trkpt lat="46.06618" lon="3.91476">
        <ele>436</ele>
        <time>2016-04-20T08:56:23Z</time>
      </trkpt>
      <trkpt lat="46.06616" lon="3.91474">
        <ele>436</ele>
        <time>2016-04-20T08:57:01Z</time>
      </trkpt>
      <trkpt lat="46.06614" lon="3.91477">
        <ele>436</ele>
        <time>2016-04-20T08:57:34Z</time>
      </trkpt>
      <trkpt lat="46.06609" lon="3.91476">
        <ele>436</ele>
        <time>2016-04-20T08:57:38Z</time>
      </trkpt>
      <trkpt lat="46.06604" lon="3.91476">
        <ele>436</ele>
        <time>2016-04-20T08:57:42Z</time>
      </trkpt>
      <trkpt lat="46.06602" lon="3.91483">
        <ele>435</ele>
        <time>2016-04-20T08:57:47Z</time>
      </trkpt>
      <trkpt lat="46.06598" lon="3.91496">
        <ele>434</ele>
        <time>2016-04-20T08:57:56Z</time>
      </trkpt>
      <trkpt lat="46.06599" lon="3.91503">
        <ele>433</ele>
        <time>2016-04-20T08:58:01Z</time>
      </trkpt>
      <trkpt lat="46.06595" lon="3.91508">
        <ele>433</ele>
        <time>2016-04-20T08:58:07Z</time>
      </trkpt>
      <trkpt lat="46.06592" lon="3.91513">
        <ele>432</ele>
        <time>2016-04-20T08:58:12Z</time>
      </trkpt>
      <trkpt lat="46.06593" lon="3.91521">
        <ele>432</ele>
        <time>2016-04-20T08:58:16Z</time>
      </trkpt>
      <trkpt lat="46.06589" lon="3.91533">
        <ele>430</ele>
        <time>2016-04-20T08:58:26Z</time>
      </trkpt>
      <trkpt lat="46.06591" lon="3.91542">
        <ele>431</ele>
        <time>2016-04-20T08:58:33Z</time>
      </trkpt>
      <trkpt lat="46.06592" lon="3.91545">
        <ele>430</ele>
        <time>2016-04-20T08:58:39Z</time>
      </trkpt>
      <trkpt lat="46.06585" lon="3.91559">
        <ele>428</ele>
        <time>2016-04-20T08:59:10Z</time>
      </trkpt>
      <trkpt lat="46.06577" lon="3.91567">
        <ele>426</ele>
        <time>2016-04-20T08:59:18Z</time>
      </trkpt>
      <trkpt lat="46.0656" lon="3.91604">
        <ele>422</ele>
        <time>2016-04-20T08:59:49Z</time>
      </trkpt>
      <trkpt lat="46.06553" lon="3.91614">
        <ele>420</ele>
        <time>2016-04-20T09:00:01Z</time>
      </trkpt>
      <trkpt lat="46.06552" lon="3.91619">
        <ele>419</ele>
        <time>2016-04-20T09:00:10Z</time>
      </trkpt>
      <trkpt lat="46.06532" lon="3.91645">
        <ele>415</ele>
        <time>2016-04-20T09:00:43Z</time>
      </trkpt>
      <trkpt lat="46.06528" lon="3.9165">
        <ele>415</ele>
        <time>2016-04-20T09:00:47Z</time>
      </trkpt>
      <trkpt lat="46.06526" lon="3.91657">
        <ele>415</ele>
        <time>2016-04-20T09:00:52Z</time>
      </trkpt>
      <trkpt lat="46.06524" lon="3.91664">
        <ele>413</ele>
        <time>2016-04-20T09:01:12Z</time>
      </trkpt>
      <trkpt lat="46.06495" lon="3.91692">
        <ele>411</ele>
        <time>2016-04-20T09:01:42Z</time>
      </trkpt>
      <trkpt lat="46.0649" lon="3.91695">
        <ele>411</ele>
        <time>2016-04-20T09:01:46Z</time>
      </trkpt>
      <trkpt lat="46.0647" lon="3.91716">
        <ele>410</ele>
        <time>2016-04-20T09:02:17Z</time>
      </trkpt>
      <trkpt lat="46.06465" lon="3.91716">
        <ele>410</ele>
        <time>2016-04-20T09:02:21Z</time>
      </trkpt>
      <trkpt lat="46.06463" lon="3.9171">
        <ele>409</ele>
        <time>2016-04-20T09:02:27Z</time>
      </trkpt>
      <trkpt lat="46.06462" lon="3.91681">
        <ele>410</ele>
        <time>2016-04-20T09:02:45Z</time>
      </trkpt>
      <trkpt lat="46.06444" lon="3.9165">
        <ele>412</ele>
        <time>2016-04-20T09:03:08Z</time>
      </trkpt>
      <trkpt lat="46.06443" lon="3.91637">
        <ele>412</ele>
        <time>2016-04-20T09:03:29Z</time>
      </trkpt>
      <trkpt lat="46.06437" lon="3.91628">
        <ele>413</ele>
        <time>2016-04-20T09:03:34Z</time>
      </trkpt>
      <trkpt lat="46.06438" lon="3.91614">
        <ele>413</ele>
        <time>2016-04-20T09:03:42Z</time>
      </trkpt>
      <trkpt lat="46.06438" lon="3.91607">
        <ele>414</ele>
        <time>2016-04-20T09:03:47Z</time>
      </trkpt>
      <trkpt lat="46.06437" lon="3.91603">
        <ele>415</ele>
        <time>2016-04-20T09:04:10Z</time>
      </trkpt>
      <trkpt lat="46.06408" lon="3.91606">
        <ele>419</ele>
        <time>2016-04-20T09:04:41Z</time>
      </trkpt>
      <trkpt lat="46.06372" lon="3.91608">
        <ele>424</ele>
        <time>2016-04-20T09:05:15Z</time>
      </trkpt>
      <trkpt lat="46.06353" lon="3.91607">
        <ele>425</ele>
        <time>2016-04-20T09:05:33Z</time>
      </trkpt>
      <trkpt lat="46.06349" lon="3.91603">
        <ele>425</ele>
        <time>2016-04-20T09:05:38Z</time>
      </trkpt>
      <trkpt lat="46.06348" lon="3.91596">
        <ele>426</ele>
        <time>2016-04-20T09:05:47Z</time>
      </trkpt>
      <trkpt lat="46.06348" lon="3.91593">
        <ele>426</ele>
        <time>2016-04-20T09:05:53Z</time>
      </trkpt>
      <trkpt lat="46.06349" lon="3.91586">
        <ele>426</ele>
        <time>2016-04-20T09:05:58Z</time>
      </trkpt>
      <trkpt lat="46.06348" lon="3.91579">
        <ele>425</ele>
        <time>2016-04-20T09:06:02Z</time>
      </trkpt>
      <trkpt lat="46.06345" lon="3.91565">
        <ele>426</ele>
        <time>2016-04-20T09:06:11Z</time>
      </trkpt>
      <trkpt lat="46.06346" lon="3.91558">
        <ele>427</ele>
        <time>2016-04-20T09:06:15Z</time>
      </trkpt>
      <trkpt lat="46.06346" lon="3.91552">
        <ele>427</ele>
        <time>2016-04-20T09:06:19Z</time>
      </trkpt>
      <trkpt lat="46.06349" lon="3.91516">
        <ele>431</ele>
        <time>2016-04-20T09:06:42Z</time>
      </trkpt>
      <trkpt lat="46.06348" lon="3.9151">
        <ele>431</ele>
        <time>2016-04-20T09:06:46Z</time>
      </trkpt>
      <trkpt lat="46.06348" lon="3.91502">
        <ele>431</ele>
        <time>2016-04-20T09:06:51Z</time>
      </trkpt>
      <trkpt lat="46.0635" lon="3.91496">
        <ele>431</ele>
        <time>2016-04-20T09:06:56Z</time>
      </trkpt>
      <trkpt lat="46.06347" lon="3.91452">
        <ele>432</ele>
        <time>2016-04-20T09:07:38Z</time>
      </trkpt>
      <trkpt lat="46.06344" lon="3.91422">
        <ele>432</ele>
        <time>2016-04-20T09:07:59Z</time>
      </trkpt>
      <trkpt lat="46.06341" lon="3.91417">
        <ele>432</ele>
        <time>2016-04-20T09:08:03Z</time>
      </trkpt>
      <trkpt lat="46.06337" lon="3.91416">
        <ele>432</ele>
        <time>2016-04-20T09:08:07Z</time>
      </trkpt>
      <trkpt lat="46.06333" lon="3.91418">
        <ele>432</ele>
        <time>2016-04-20T09:08:12Z</time>
      </trkpt>
      <trkpt lat="46.06328" lon="3.91418">
        <ele>433</ele>
        <time>2016-04-20T09:08:30Z</time>
      </trkpt>
      <trkpt lat="46.06293" lon="3.91442">
        <ele>437</ele>
        <time>2016-04-20T09:09:03Z</time>
      </trkpt>
      <trkpt lat="46.06254" lon="3.91457">
        <ele>440</ele>
        <time>2016-04-20T09:09:38Z</time>
      </trkpt>
      <trkpt lat="46.06225" lon="3.91473">
        <ele>442</ele>
        <time>2016-04-20T09:10:14Z</time>
      </trkpt>
      <trkpt lat="46.06196" lon="3.91499">
        <ele>444</ele>
        <time>2016-04-20T09:10:46Z</time>
      </trkpt>
      <trkpt lat="46.06164" lon="3.91523">
        <ele>447</ele>
        <time>2016-04-20T09:11:19Z</time>
      </trkpt>
      <trkpt lat="46.06147" lon="3.91539">
        <ele>448</ele>
        <time>2016-04-20T09:11:38Z</time>
      </trkpt>
      <trkpt lat="46.06143" lon="3.91544">
        <ele>447</ele>
        <time>2016-04-20T09:11:44Z</time>
      </trkpt>
      <trkpt lat="46.06138" lon="3.91548">
        <ele>447</ele>
        <time>2016-04-20T09:11:49Z</time>
      </trkpt>
      <trkpt lat="46.06134" lon="3.9155">
        <ele>448</ele>
        <time>2016-04-20T09:11:53Z</time>
      </trkpt>
      <trkpt lat="46.06113" lon="3.91555">
        <ele>448</ele>
        <time>2016-04-20T09:12:13Z</time>
      </trkpt>
      <trkpt lat="46.0609" lon="3.91546">
        <ele>444</ele>
        <time>2016-04-20T09:12:44Z</time>
      </trkpt>
      <trkpt lat="46.06057" lon="3.9153">
        <ele>439</ele>
        <time>2016-04-20T09:13:18Z</time>
      </trkpt>
      <trkpt lat="46.06027" lon="3.91527">
        <ele>433</ele>
        <time>2016-04-20T09:13:51Z</time>
      </trkpt>
      <trkpt lat="46.05999" lon="3.91527">
        <ele>424</ele>
        <time>2016-04-20T09:14:23Z</time>
      </trkpt>
      <trkpt lat="46.05975" lon="3.91517">
        <ele>419</ele>
        <time>2016-04-20T09:14:47Z</time>
      </trkpt>
      <trkpt lat="46.05972" lon="3.91513">
        <ele>418</ele>
        <time>2016-04-20T09:14:51Z</time>
      </trkpt>
      <trkpt lat="46.05967" lon="3.91512">
        <ele>418</ele>
        <time>2016-04-20T09:14:55Z</time>
      </trkpt>
      <trkpt lat="46.05961" lon="3.91514">
        <ele>418</ele>
        <time>2016-04-20T09:14:59Z</time>
      </trkpt>
      <trkpt lat="46.05939" lon="3.91541">
        <ele>417</ele>
        <time>2016-04-20T09:15:24Z</time>
      </trkpt>
      <trkpt lat="46.05938" lon="3.91544">
        <ele>417</ele>
        <time>2016-04-20T09:15:30Z</time>
      </trkpt>
      <trkpt lat="46.05934" lon="3.91548">
        <ele>416</ele>
        <time>2016-04-20T09:15:46Z</time>
      </trkpt>
      <trkpt lat="46.05926" lon="3.91556">
        <ele>418</ele>
        <time>2016-04-20T09:15:55Z</time>
      </trkpt>
      <trkpt lat="46.05908" lon="3.9157">
        <ele>419</ele>
        <time>2016-04-20T09:16:11Z</time>
      </trkpt>
      <trkpt lat="46.05888" lon="3.91575">
        <ele>420</ele>
        <time>2016-04-20T09:16:27Z</time>
      </trkpt>
      <trkpt lat="46.05856" lon="3.91579">
        <ele>421</ele>
        <time>2016-04-20T09:16:59Z</time>
      </trkpt>
      <trkpt lat="46.05817" lon="3.91592">
        <ele>423</ele>
        <time>2016-04-20T09:17:33Z</time>
      </trkpt>
      <trkpt lat="46.05781" lon="3.91598">
        <ele>425</ele>
        <time>2016-04-20T09:18:05Z</time>
      </trkpt>
      <trkpt lat="46.05747" lon="3.91608">
        <ele>428</ele>
        <time>2016-04-20T09:18:36Z</time>
      </trkpt>
      <trkpt lat="46.05714" lon="3.91628">
        <ele>433</ele>
        <time>2016-04-20T09:19:08Z</time>
      </trkpt>
      <trkpt lat="46.05682" lon="3.91649">
        <ele>436</ele>
        <time>2016-04-20T09:19:43Z</time>
      </trkpt>
      <trkpt lat="46.05648" lon="3.91666">
        <ele>439</ele>
        <time>2016-04-20T09:20:17Z</time>
      </trkpt>
      <trkpt lat="46.05616" lon="3.91683">
        <ele>442</ele>
        <time>2016-04-20T09:20:50Z</time>
      </trkpt>
      <trkpt lat="46.05597" lon="3.91693">
        <ele>442</ele>
        <time>2016-04-20T09:21:08Z</time>
      </trkpt>
      <trkpt lat="46.05591" lon="3.91695">
        <ele>442</ele>
        <time>2016-04-20T09:21:13Z</time>
      </trkpt>
      <trkpt lat="46.05586" lon="3.91696">
        <ele>442</ele>
        <time>2016-04-20T09:21:18Z</time>
      </trkpt>
      <trkpt lat="46.05582" lon="3.91697">
        <ele>443</ele>
        <time>2016-04-20T09:21:23Z</time>
      </trkpt>
      <trkpt lat="46.05547" lon="3.91709">
        <ele>442</ele>
        <time>2016-04-20T09:21:57Z</time>
      </trkpt>
      <trkpt lat="46.05542" lon="3.9171">
        <ele>442</ele>
        <time>2016-04-20T09:22:02Z</time>
      </trkpt>
      <trkpt lat="46.05533" lon="3.9171">
        <ele>441</ele>
        <time>2016-04-20T09:22:18Z</time>
      </trkpt>
      <trkpt lat="46.05502" lon="3.91708">
        <ele>433</ele>
        <time>2016-04-20T09:22:52Z</time>
      </trkpt>
      <trkpt lat="46.05473" lon="3.91705">
        <ele>427</ele>
        <time>2016-04-20T09:23:23Z</time>
      </trkpt>
      <trkpt lat="46.05447" lon="3.91709">
        <ele>424</ele>
        <time>2016-04-20T09:23:54Z</time>
      </trkpt>
      <trkpt lat="46.05417" lon="3.91718">
        <ele>422</ele>
        <time>2016-04-20T09:24:21Z</time>
      </trkpt>
      <trkpt lat="46.05405" lon="3.9173">
        <ele>422</ele>
        <time>2016-04-20T09:24:35Z</time>
      </trkpt>
      <trkpt lat="46.05405" lon="3.91737">
        <ele>422</ele>
        <time>2016-04-20T09:24:41Z</time>
      </trkpt>
      <trkpt lat="46.05405" lon="3.91745">
        <ele>422</ele>
        <time>2016-04-20T09:24:46Z</time>
      </trkpt>
      <trkpt lat="46.05409" lon="3.91795">
        <ele>424</ele>
        <time>2016-04-20T09:25:17Z</time>
      </trkpt>
      <trkpt lat="46.05415" lon="3.91844">
        <ele>425</ele>
        <time>2016-04-20T09:25:48Z</time>
      </trkpt>
      <trkpt lat="46.05418" lon="3.91852">
        <ele>425</ele>
        <time>2016-04-20T09:26:28Z</time>
      </trkpt>
      <trkpt lat="46.05419" lon="3.91859">
        <ele>425</ele>
        <time>2016-04-20T09:26:33Z</time>
      </trkpt>
      <trkpt lat="46.05431" lon="3.91916">
        <ele>423</ele>
        <time>2016-04-20T09:27:05Z</time>
      </trkpt>
      <trkpt lat="46.05431" lon="3.91922">
        <ele>423</ele>
        <time>2016-04-20T09:27:10Z</time>
      </trkpt>
      <trkpt lat="46.0543" lon="3.9193">
        <ele>423</ele>
        <time>2016-04-20T09:27:17Z</time>
      </trkpt>
      <trkpt lat="46.0543" lon="3.91936">
        <ele>423</ele>
        <time>2016-04-20T09:27:23Z</time>
      </trkpt>
      <trkpt lat="46.05431" lon="3.91978">
        <ele>425</ele>
        <time>2016-04-20T09:27:56Z</time>
      </trkpt>
      <trkpt lat="46.05431" lon="3.91992">
        <ele>426</ele>
        <time>2016-04-20T09:28:07Z</time>
      </trkpt>
      <trkpt lat="46.0543" lon="3.92013">
        <ele>427</ele>
        <time>2016-04-20T09:28:22Z</time>
      </trkpt>
      <trkpt lat="46.05423" lon="3.92023">
        <ele>428</ele>
        <time>2016-04-20T09:28:32Z</time>
      </trkpt>
      <trkpt lat="46.05395" lon="3.92038">
        <ele>431</ele>
        <time>2016-04-20T09:29:05Z</time>
      </trkpt>
      <trkpt lat="46.0539" lon="3.92051">
        <ele>430</ele>
        <time>2016-04-20T09:29:13Z</time>
      </trkpt>
      <trkpt lat="46.05377" lon="3.92063">
        <ele>431</ele>
        <time>2016-04-20T09:29:25Z</time>
      </trkpt>
      <trkpt lat="46.05364" lon="3.92071">
        <ele>435</ele>
        <time>2016-04-20T09:29:37Z</time>
      </trkpt>
      <trkpt lat="46.0536" lon="3.92074">
        <ele>435</ele>
        <time>2016-04-20T09:29:41Z</time>
      </trkpt>
      <trkpt lat="46.05324" lon="3.92095">
        <ele>433</ele>
        <time>2016-04-20T09:30:15Z</time>
      </trkpt>
      <trkpt lat="46.05316" lon="3.921">
        <ele>433</ele>
        <time>2016-04-20T09:30:23Z</time>
      </trkpt>
      <trkpt lat="46.05311" lon="3.92102">
        <ele>432</ele>
        <time>2016-04-20T09:30:28Z</time>
      </trkpt>
      <trkpt lat="46.05306" lon="3.92104">
        <ele>433</ele>
        <time>2016-04-20T09:30:32Z</time>
      </trkpt>
      <trkpt lat="46.05302" lon="3.92107">
        <ele>433</ele>
        <time>2016-04-20T09:30:36Z</time>
      </trkpt>
      <trkpt lat="46.05293" lon="3.92112">
        <ele>432</ele>
        <time>2016-04-20T09:30:45Z</time>
      </trkpt>
      <trkpt lat="46.05283" lon="3.92114">
        <ele>431</ele>
        <time>2016-04-20T09:30:56Z</time>
      </trkpt>
      <trkpt lat="46.0528" lon="3.92109">
        <ele>431</ele>
        <time>2016-04-20T09:31:01Z</time>
      </trkpt>
      <trkpt lat="46.05275" lon="3.92105">
        <ele>431</ele>
        <time>2016-04-20T09:31:07Z</time>
      </trkpt>
      <trkpt lat="46.0527" lon="3.92093">
        <ele>432</ele>
        <time>2016-04-20T09:31:17Z</time>
      </trkpt>
      <trkpt lat="46.05275" lon="3.92097">
        <ele>433</ele>
        <time>2016-04-20T09:31:51Z</time>
      </trkpt>
      <trkpt lat="46.05279" lon="3.92103">
        <ele>433</ele>
        <time>2016-04-20T09:31:55Z</time>
      </trkpt>
      <trkpt lat="46.05282" lon="3.92109">
        <ele>432</ele>
        <time>2016-04-20T09:32:00Z</time>
      </trkpt>
      <trkpt lat="46.0528" lon="3.92115">
        <ele>432</ele>
        <time>2016-04-20T09:32:06Z</time>
      </trkpt>
      <trkpt lat="46.05277" lon="3.92117">
        <ele>432</ele>
        <time>2016-04-20T09:32:14Z</time>
      </trkpt>
      <trkpt lat="46.05256" lon="3.92119">
        <ele>429</ele>
        <time>2016-04-20T09:32:44Z</time>
      </trkpt>
      <trkpt lat="46.05224" lon="3.9211">
        <ele>424</ele>
        <time>2016-04-20T09:33:35Z</time>
      </trkpt>
      <trkpt lat="46.05219" lon="3.92111">
        <ele>424</ele>
        <time>2016-04-20T09:33:39Z</time>
      </trkpt>
      <trkpt lat="46.05181" lon="3.92127">
        <ele>420</ele>
        <time>2016-04-20T09:34:09Z</time>
      </trkpt>
      <trkpt lat="46.05172" lon="3.92132">
        <ele>418</ele>
        <time>2016-04-20T09:34:18Z</time>
      </trkpt>
      <trkpt lat="46.05152" lon="3.92139">
        <ele>418</ele>
        <time>2016-04-20T09:34:38Z</time>
      </trkpt>
      <trkpt lat="46.05128" lon="3.92164">
        <ele>402</ele>
        <time>2016-04-20T09:35:08Z</time>
      </trkpt>
      <trkpt lat="46.05125" lon="3.92163">
        <ele>401</ele>
        <time>2016-04-20T09:35:16Z</time>
      </trkpt>
      <trkpt lat="46.05118" lon="3.92167">
        <ele>405</ele>
        <time>2016-04-20T09:35:29Z</time>
      </trkpt>
      <trkpt lat="46.05117" lon="3.92175">
        <ele>406</ele>
        <time>2016-04-20T09:35:35Z</time>
      </trkpt>
      <trkpt lat="46.05119" lon="3.92181">
        <ele>406</ele>
        <time>2016-04-20T09:35:39Z</time>
      </trkpt>
      <trkpt lat="46.05122" lon="3.92189">
        <ele>405</ele>
        <time>2016-04-20T09:35:44Z</time>
      </trkpt>
      <trkpt lat="46.05125" lon="3.92195">
        <ele>405</ele>
        <time>2016-04-20T09:35:48Z</time>
      </trkpt>
      <trkpt lat="46.05123" lon="3.92199">
        <ele>408</ele>
        <time>2016-04-20T09:35:55Z</time>
      </trkpt>
      <trkpt lat="46.05119" lon="3.92203">
        <ele>405</ele>
        <time>2016-04-20T09:36:02Z</time>
      </trkpt>
      <trkpt lat="46.05118" lon="3.92209">
        <ele>400</ele>
        <time>2016-04-20T09:36:09Z</time>
      </trkpt>
      <trkpt lat="46.0512" lon="3.92222">
        <ele>398</ele>
        <time>2016-04-20T09:36:17Z</time>
      </trkpt>
      <trkpt lat="46.05122" lon="3.92229">
        <ele>400</ele>
        <time>2016-04-20T09:36:22Z</time>
      </trkpt>
      <trkpt lat="46.05127" lon="3.9223">
        <ele>402</ele>
        <time>2016-04-20T09:36:26Z</time>
      </trkpt>
      <trkpt lat="46.0513" lon="3.92236">
        <ele>402</ele>
        <time>2016-04-20T09:36:30Z</time>
      </trkpt>
      <trkpt lat="46.05134" lon="3.92241">
        <ele>402</ele>
        <time>2016-04-20T09:36:34Z</time>
      </trkpt>
      <trkpt lat="46.05136" lon="3.92247">
        <ele>402</ele>
        <time>2016-04-20T09:36:38Z</time>
      </trkpt>
      <trkpt lat="46.05137" lon="3.92269">
        <ele>401</ele>
        <time>2016-04-20T09:36:50Z</time>
      </trkpt>
      <trkpt lat="46.05142" lon="3.92281">
        <ele>402</ele>
        <time>2016-04-20T09:36:58Z</time>
      </trkpt>
      <trkpt lat="46.05151" lon="3.92291">
        <ele>402</ele>
        <time>2016-04-20T09:37:06Z</time>
      </trkpt>
      <trkpt lat="46.05157" lon="3.92333">
        <ele>401</ele>
        <time>2016-04-20T09:37:32Z</time>
      </trkpt>
      <trkpt lat="46.05156" lon="3.92346">
        <ele>398</ele>
        <time>2016-04-20T09:37:38Z</time>
      </trkpt>
      <trkpt lat="46.05165" lon="3.92399">
        <ele>396</ele>
        <time>2016-04-20T09:38:08Z</time>
      </trkpt>
      <trkpt lat="46.05177" lon="3.92431">
        <ele>395</ele>
        <time>2016-04-20T09:38:31Z</time>
      </trkpt>
      <trkpt lat="46.05177" lon="3.92451">
        <ele>395</ele>
        <time>2016-04-20T09:38:41Z</time>
      </trkpt>
      <trkpt lat="46.0518" lon="3.92456">
        <ele>394</ele>
        <time>2016-04-20T09:38:44Z</time>
      </trkpt>
      <trkpt lat="46.05183" lon="3.92498">
        <ele>391</ele>
        <time>2016-04-20T09:39:06Z</time>
      </trkpt>
      <trkpt lat="46.05182" lon="3.92506">
        <ele>391</ele>
        <time>2016-04-20T09:39:11Z</time>
      </trkpt>
      <trkpt lat="46.05194" lon="3.92541">
        <ele>389</ele>
        <time>2016-04-20T09:39:34Z</time>
      </trkpt>
      <trkpt lat="46.05196" lon="3.92543">
        <ele>388</ele>
        <time>2016-04-20T09:39:41Z</time>
      </trkpt>
      <trkpt lat="46.05206" lon="3.92547">
        <ele>389</ele>
        <time>2016-04-20T09:40:01Z</time>
      </trkpt>
      <trkpt lat="46.05209" lon="3.92554">
        <ele>389</ele>
        <time>2016-04-20T09:40:05Z</time>
      </trkpt>
      <trkpt lat="46.05209" lon="3.92568">
        <ele>388</ele>
        <time>2016-04-20T09:40:17Z</time>
      </trkpt>
      <trkpt lat="46.05208" lon="3.92612">
        <ele>389</ele>
        <time>2016-04-20T09:40:47Z</time>
      </trkpt>
      <trkpt lat="46.05205" lon="3.92619">
        <ele>390</ele>
        <time>2016-04-20T09:40:52Z</time>
      </trkpt>
      <trkpt lat="46.05203" lon="3.92625">
        <ele>390</ele>
        <time>2016-04-20T09:40:56Z</time>
      </trkpt>
      <trkpt lat="46.05204" lon="3.92623">
        <ele>388</ele>
        <time>2016-04-20T09:42:21Z</time>
      </trkpt>
      <trkpt lat="46.05203" lon="3.92615">
        <ele>387</ele>
        <time>2016-04-20T09:42:25Z</time>
      </trkpt>
      <trkpt lat="46.05202" lon="3.92595">
        <ele>386</ele>
        <time>2016-04-20T09:42:40Z</time>
      </trkpt>
      <trkpt lat="46.05198" lon="3.92591">
        <ele>386</ele>
        <time>2016-04-20T09:42:45Z</time>
      </trkpt>
      <trkpt lat="46.05178" lon="3.9255">
        <ele>387</ele>
        <time>2016-04-20T09:43:15Z</time>
      </trkpt>
      <trkpt lat="46.05175" lon="3.92544">
        <ele>387</ele>
        <time>2016-04-20T09:43:20Z</time>
      </trkpt>
      <trkpt lat="46.05171" lon="3.92539">
        <ele>387</ele>
        <time>2016-04-20T09:43:24Z</time>
      </trkpt>
      <trkpt lat="46.05164" lon="3.92527">
        <ele>387</ele>
        <time>2016-04-20T09:43:33Z</time>
      </trkpt>
      <trkpt lat="46.05161" lon="3.92523">
        <ele>387</ele>
        <time>2016-04-20T09:43:38Z</time>
      </trkpt>
      <trkpt lat="46.05158" lon="3.92525">
        <ele>389</ele>
        <time>2016-04-20T09:43:53Z</time>
      </trkpt>
      <trkpt lat="46.05156" lon="3.92521">
        <ele>388</ele>
        <time>2016-04-20T10:01:14Z</time>
      </trkpt>
      <trkpt lat="46.05152" lon="3.92516">
        <ele>388</ele>
        <time>2016-04-20T10:01:19Z</time>
      </trkpt>
      <trkpt lat="46.05149" lon="3.92511">
        <ele>387</ele>
        <time>2016-04-20T10:01:24Z</time>
      </trkpt>
      <trkpt lat="46.05149" lon="3.92503">
        <ele>387</ele>
        <time>2016-04-20T10:01:30Z</time>
      </trkpt>
      <trkpt lat="46.05145" lon="3.92498">
        <ele>387</ele>
        <time>2016-04-20T10:01:35Z</time>
      </trkpt>
      <trkpt lat="46.0514" lon="3.92485">
        <ele>387</ele>
        <time>2016-04-20T10:01:48Z</time>
      </trkpt>
      <trkpt lat="46.05127" lon="3.92468">
        <ele>387</ele>
        <time>2016-04-20T10:02:18Z</time>
      </trkpt>
      <trkpt lat="46.05125" lon="3.92462">
        <ele>387</ele>
        <time>2016-04-20T10:02:22Z</time>
      </trkpt>
      <trkpt lat="46.05122" lon="3.92447">
        <ele>387</ele>
        <time>2016-04-20T10:02:31Z</time>
      </trkpt>
      <trkpt lat="46.0512" lon="3.9244">
        <ele>387</ele>
        <time>2016-04-20T10:02:36Z</time>
      </trkpt>
      <trkpt lat="46.05117" lon="3.92435">
        <ele>388</ele>
        <time>2016-04-20T10:02:40Z</time>
      </trkpt>
      <trkpt lat="46.05117" lon="3.92428">
        <ele>389</ele>
        <time>2016-04-20T10:02:44Z</time>
      </trkpt>
      <trkpt lat="46.05113" lon="3.92423">
        <ele>389</ele>
        <time>2016-04-20T10:02:48Z</time>
      </trkpt>
      <trkpt lat="46.05108" lon="3.92403">
        <ele>391</ele>
        <time>2016-04-20T10:03:01Z</time>
      </trkpt>
      <trkpt lat="46.05105" lon="3.92397">
        <ele>391</ele>
        <time>2016-04-20T10:03:05Z</time>
      </trkpt>
      <trkpt lat="46.05105" lon="3.9239">
        <ele>391</ele>
        <time>2016-04-20T10:03:10Z</time>
      </trkpt>
      <trkpt lat="46.05102" lon="3.92377">
        <ele>391</ele>
        <time>2016-04-20T10:03:18Z</time>
      </trkpt>
      <trkpt lat="46.05102" lon="3.9237">
        <ele>391</ele>
        <time>2016-04-20T10:03:23Z</time>
      </trkpt>
      <trkpt lat="46.0509" lon="3.92322">
        <ele>391</ele>
        <time>2016-04-20T10:03:55Z</time>
      </trkpt>
      <trkpt lat="46.05088" lon="3.92315">
        <ele>391</ele>
        <time>2016-04-20T10:03:59Z</time>
      </trkpt>
      <trkpt lat="46.05084" lon="3.92294">
        <ele>391</ele>
        <time>2016-04-20T10:04:11Z</time>
      </trkpt>
      <trkpt lat="46.05082" lon="3.92279">
        <ele>390</ele>
        <time>2016-04-20T10:04:19Z</time>
      </trkpt>
      <trkpt lat="46.0508" lon="3.92273">
        <ele>390</ele>
        <time>2016-04-20T10:04:23Z</time>
      </trkpt>
      <trkpt lat="46.05082" lon="3.92217">
        <ele>392</ele>
        <time>2016-04-20T10:04:57Z</time>
      </trkpt>
      <trkpt lat="46.05082" lon="3.92204">
        <ele>392</ele>
        <time>2016-04-20T10:05:06Z</time>
      </trkpt>
      <trkpt lat="46.05077" lon="3.92203">
        <ele>392</ele>
        <time>2016-04-20T10:05:10Z</time>
      </trkpt>
      <trkpt lat="46.05062" lon="3.92205">
        <ele>390</ele>
        <time>2016-04-20T10:05:24Z</time>
      </trkpt>
      <trkpt lat="46.05057" lon="3.92201">
        <ele>390</ele>
        <time>2016-04-20T10:05:29Z</time>
      </trkpt>
      <trkpt lat="46.05052" lon="3.92204">
        <ele>389</ele>
        <time>2016-04-20T10:05:33Z</time>
      </trkpt>
      <trkpt lat="46.05048" lon="3.92209">
        <ele>389</ele>
        <time>2016-04-20T10:05:37Z</time>
      </trkpt>
      <trkpt lat="46.05044" lon="3.92211">
        <ele>389</ele>
        <time>2016-04-20T10:05:41Z</time>
      </trkpt>
      <trkpt lat="46.05013" lon="3.92219">
        <ele>385</ele>
        <time>2016-04-20T10:06:13Z</time>
      </trkpt>
      <trkpt lat="46.05011" lon="3.92213">
        <ele>385</ele>
        <time>2016-04-20T10:06:17Z</time>
      </trkpt>
      <trkpt lat="46.0501" lon="3.92205">
        <ele>385</ele>
        <time>2016-04-20T10:06:22Z</time>
      </trkpt>
      <trkpt lat="46.05014" lon="3.92152">
        <ele>384</ele>
        <time>2016-04-20T10:06:55Z</time>
      </trkpt>
      <trkpt lat="46.05016" lon="3.92145">
        <ele>384</ele>
        <time>2016-04-20T10:07:01Z</time>
      </trkpt>
      <trkpt lat="46.05013" lon="3.92137">
        <ele>383</ele>
        <time>2016-04-20T10:07:07Z</time>
      </trkpt>
      <trkpt lat="46.04998" lon="3.92099">
        <ele>379</ele>
        <time>2016-04-20T10:07:38Z</time>
      </trkpt>
      <trkpt lat="46.04986" lon="3.92084">
        <ele>378</ele>
        <time>2016-04-20T10:07:50Z</time>
      </trkpt>
      <trkpt lat="46.04975" lon="3.92069">
        <ele>375</ele>
        <time>2016-04-20T10:08:20Z</time>
      </trkpt>
      <trkpt lat="46.04972" lon="3.92066">
        <ele>376</ele>
        <time>2016-04-20T10:08:43Z</time>
      </trkpt>
      <trkpt lat="46.04963" lon="3.92058">
        <ele>375</ele>
        <time>2016-04-20T10:08:55Z</time>
      </trkpt>
      <trkpt lat="46.04956" lon="3.92048">
        <ele>374</ele>
        <time>2016-04-20T10:09:07Z</time>
      </trkpt>
      <trkpt lat="46.04951" lon="3.92045">
        <ele>374</ele>
        <time>2016-04-20T10:09:12Z</time>
      </trkpt>
      <trkpt lat="46.04947" lon="3.92043">
        <ele>375</ele>
        <time>2016-04-20T10:09:16Z</time>
      </trkpt>
      <trkpt lat="46.04911" lon="3.92047">
        <ele>376</ele>
        <time>2016-04-20T10:09:46Z</time>
      </trkpt>
      <trkpt lat="46.04898" lon="3.92057">
        <ele>375</ele>
        <time>2016-04-20T10:09:59Z</time>
      </trkpt>
      <trkpt lat="46.04876" lon="3.92099">
        <ele>374</ele>
        <time>2016-04-20T10:10:33Z</time>
      </trkpt>
      <trkpt lat="46.04862" lon="3.92101">
        <ele>373</ele>
        <time>2016-04-20T10:10:46Z</time>
      </trkpt>
      <trkpt lat="46.04826" lon="3.92098">
        <ele>372</ele>
        <time>2016-04-20T10:11:16Z</time>
      </trkpt>
      <trkpt lat="46.04821" lon="3.92096">
        <ele>372</ele>
        <time>2016-04-20T10:11:20Z</time>
      </trkpt>
      <trkpt lat="46.04781" lon="3.92081">
        <ele>371</ele>
        <time>2016-04-20T10:11:54Z</time>
      </trkpt>
      <trkpt lat="46.04771" lon="3.92079">
        <ele>370</ele>
        <time>2016-04-20T10:12:03Z</time>
      </trkpt>
      <trkpt lat="46.04767" lon="3.92074">
        <ele>371</ele>
        <time>2016-04-20T10:12:08Z</time>
      </trkpt>
      <trkpt lat="46.04761" lon="3.92063">
        <ele>370</ele>
        <time>2016-04-20T10:12:20Z</time>
      </trkpt>
      <trkpt lat="46.04756" lon="3.92051">
        <ele>371</ele>
        <time>2016-04-20T10:12:32Z</time>
      </trkpt>
      <trkpt lat="46.04752" lon="3.92046">
        <ele>371</ele>
        <time>2016-04-20T10:12:36Z</time>
      </trkpt>
      <trkpt lat="46.04748" lon="3.92042">
        <ele>371</ele>
        <time>2016-04-20T10:12:40Z</time>
      </trkpt>
      <trkpt lat="46.04745" lon="3.92028">
        <ele>371</ele>
        <time>2016-04-20T10:12:49Z</time>
      </trkpt>
      <trkpt lat="46.04741" lon="3.92024">
        <ele>371</ele>
        <time>2016-04-20T10:12:53Z</time>
      </trkpt>
      <trkpt lat="46.04736" lon="3.92023">
        <ele>372</ele>
        <time>2016-04-20T10:12:58Z</time>
      </trkpt>
      <trkpt lat="46.04722" lon="3.92026">
        <ele>374</ele>
        <time>2016-04-20T10:13:09Z</time>
      </trkpt>
      <trkpt lat="46.04718" lon="3.92031">
        <ele>373</ele>
        <time>2016-04-20T10:13:13Z</time>
      </trkpt>
      <trkpt lat="46.04716" lon="3.92038">
        <ele>373</ele>
        <time>2016-04-20T10:13:17Z</time>
      </trkpt>
      <trkpt lat="46.04716" lon="3.92045">
        <ele>373</ele>
        <time>2016-04-20T10:13:21Z</time>
      </trkpt>
      <trkpt lat="46.04713" lon="3.92051">
        <ele>373</ele>
        <time>2016-04-20T10:13:25Z</time>
      </trkpt>
      <trkpt lat="46.04709" lon="3.92055">
        <ele>373</ele>
        <time>2016-04-20T10:13:29Z</time>
      </trkpt>
      <trkpt lat="46.04704" lon="3.9206">
        <ele>373</ele>
        <time>2016-04-20T10:13:33Z</time>
      </trkpt>
      <trkpt lat="46.04701" lon="3.92062">
        <ele>374</ele>
        <time>2016-04-20T10:13:40Z</time>
      </trkpt>
      <trkpt lat="46.04692" lon="3.92058">
        <ele>377</ele>
        <time>2016-04-20T10:13:53Z</time>
      </trkpt>
      <trkpt lat="46.04687" lon="3.92057">
        <ele>377</ele>
        <time>2016-04-20T10:13:58Z</time>
      </trkpt>
      <trkpt lat="46.04684" lon="3.92052">
        <ele>377</ele>
        <time>2016-04-20T10:14:04Z</time>
      </trkpt>
      <trkpt lat="46.0468" lon="3.9205">
        <ele>378</ele>
        <time>2016-04-20T10:14:11Z</time>
      </trkpt>
      <trkpt lat="46.0467" lon="3.9205">
        <ele>380</ele>
        <time>2016-04-20T10:14:21Z</time>
      </trkpt>
      <trkpt lat="46.04641" lon="3.92044">
        <ele>381</ele>
        <time>2016-04-20T10:14:48Z</time>
      </trkpt>
      <trkpt lat="46.04639" lon="3.92045">
        <ele>382</ele>
        <time>2016-04-20T10:14:54Z</time>
      </trkpt>
      <trkpt lat="46.04609" lon="3.92044">
        <ele>385</ele>
        <time>2016-04-20T10:15:28Z</time>
      </trkpt>
      <trkpt lat="46.04586" lon="3.92042">
        <ele>391</ele>
        <time>2016-04-20T10:15:57Z</time>
      </trkpt>
      <trkpt lat="46.04569" lon="3.92032">
        <ele>395</ele>
        <time>2016-04-20T10:16:13Z</time>
      </trkpt>
      <trkpt lat="46.04558" lon="3.92034">
        <ele>397</ele>
        <time>2016-04-20T10:16:23Z</time>
      </trkpt>
      <trkpt lat="46.04537" lon="3.92031">
        <ele>399</ele>
        <time>2016-04-20T10:16:43Z</time>
      </trkpt>
      <trkpt lat="46.04503" lon="3.92024">
        <ele>400</ele>
        <time>2016-04-20T10:17:16Z</time>
      </trkpt>
      <trkpt lat="46.04498" lon="3.92022">
        <ele>401</ele>
        <time>2016-04-20T10:17:21Z</time>
      </trkpt>
      <trkpt lat="46.04493" lon="3.92019">
        <ele>401</ele>
        <time>2016-04-20T10:17:26Z</time>
      </trkpt>
      <trkpt lat="46.04489" lon="3.92016">
        <ele>401</ele>
        <time>2016-04-20T10:17:32Z</time>
      </trkpt>
      <trkpt lat="46.04479" lon="3.92016">
        <ele>401</ele>
        <time>2016-04-20T10:17:46Z</time>
      </trkpt>
      <trkpt lat="46.0446" lon="3.92012">
        <ele>404</ele>
        <time>2016-04-20T10:18:06Z</time>
      </trkpt>
      <trkpt lat="46.04461" lon="3.92006">
        <ele>405</ele>
        <time>2016-04-20T10:18:28Z</time>
      </trkpt>
      <trkpt lat="46.04455" lon="3.92009">
        <ele>405</ele>
        <time>2016-04-20T10:18:44Z</time>
      </trkpt>
      <trkpt lat="46.0445" lon="3.92007">
        <ele>405</ele>
        <time>2016-04-20T10:18:49Z</time>
      </trkpt>
      <trkpt lat="46.04419" lon="3.92004">
        <ele>410</ele>
        <time>2016-04-20T10:19:20Z</time>
      </trkpt>
      <trkpt lat="46.04383" lon="3.92007">
        <ele>413</ele>
        <time>2016-04-20T10:19:54Z</time>
      </trkpt>
      <trkpt lat="46.04354" lon="3.9202">
        <ele>417</ele>
        <time>2016-04-20T10:20:24Z</time>
      </trkpt>
      <trkpt lat="46.04348" lon="3.92021">
        <ele>418</ele>
        <time>2016-04-20T10:21:00Z</time>
      </trkpt>
      <trkpt lat="46.04343" lon="3.92017">
        <ele>420</ele>
        <time>2016-04-20T10:21:06Z</time>
      </trkpt>
      <trkpt lat="46.04311" lon="3.91997">
        <ele>422</ele>
        <time>2016-04-20T10:21:40Z</time>
      </trkpt>
      <trkpt lat="46.04278" lon="3.91976">
        <ele>425</ele>
        <time>2016-04-20T10:22:13Z</time>
      </trkpt>
      <trkpt lat="46.04255" lon="3.91963">
        <ele>427</ele>
        <time>2016-04-20T10:22:36Z</time>
      </trkpt>
      <trkpt lat="46.0425" lon="3.91964">
        <ele>427</ele>
        <time>2016-04-20T10:22:42Z</time>
      </trkpt>
      <trkpt lat="46.04238" lon="3.91976">
        <ele>428</ele>
        <time>2016-04-20T10:22:59Z</time>
      </trkpt>
      <trkpt lat="46.04234" lon="3.91978">
        <ele>428</ele>
        <time>2016-04-20T10:23:05Z</time>
      </trkpt>
      <trkpt lat="46.0423" lon="3.9198">
        <ele>428</ele>
        <time>2016-04-20T10:23:10Z</time>
      </trkpt>
      <trkpt lat="46.04196" lon="3.91999">
        <ele>428</ele>
        <time>2016-04-20T10:23:43Z</time>
      </trkpt>
      <trkpt lat="46.04191" lon="3.92002">
        <ele>428</ele>
        <time>2016-04-20T10:23:48Z</time>
      </trkpt>
      <trkpt lat="46.0416" lon="3.92025">
        <ele>429</ele>
        <time>2016-04-20T10:24:19Z</time>
      </trkpt>
      <trkpt lat="46.04126" lon="3.92053">
        <ele>430</ele>
        <time>2016-04-20T10:24:53Z</time>
      </trkpt>
      <trkpt lat="46.04122" lon="3.92056">
        <ele>430</ele>
        <time>2016-04-20T10:24:57Z</time>
      </trkpt>
      <trkpt lat="46.04109" lon="3.92063">
        <ele>431</ele>
        <time>2016-04-20T10:25:10Z</time>
      </trkpt>
      <trkpt lat="46.04078" lon="3.92088">
        <ele>431</ele>
        <time>2016-04-20T10:25:42Z</time>
      </trkpt>
      <trkpt lat="46.04074" lon="3.92092">
        <ele>430</ele>
        <time>2016-04-20T10:25:47Z</time>
      </trkpt>
      <trkpt lat="46.0407" lon="3.92097">
        <ele>431</ele>
        <time>2016-04-20T10:25:52Z</time>
      </trkpt>
      <trkpt lat="46.04043" lon="3.92131">
        <ele>430</ele>
        <time>2016-04-20T10:26:26Z</time>
      </trkpt>
      <trkpt lat="46.04014" lon="3.92158">
        <ele>428</ele>
        <time>2016-04-20T10:26:57Z</time>
      </trkpt>
      <trkpt lat="46.0398" lon="3.92187">
        <ele>426</ele>
        <time>2016-04-20T10:27:32Z</time>
      </trkpt>
      <trkpt lat="46.03964" lon="3.92215">
        <ele>425</ele>
        <time>2016-04-20T10:28:03Z</time>
      </trkpt>
      <trkpt lat="46.03965" lon="3.92222">
        <ele>426</ele>
        <time>2016-04-20T10:28:37Z</time>
      </trkpt>
      <trkpt lat="46.03963" lon="3.92228">
        <ele>425</ele>
        <time>2016-04-20T10:28:42Z</time>
      </trkpt>
      <trkpt lat="46.03964" lon="3.92243">
        <ele>425</ele>
        <time>2016-04-20T10:28:55Z</time>
      </trkpt>
      <trkpt lat="46.03964" lon="3.92288">
        <ele>425</ele>
        <time>2016-04-20T10:29:25Z</time>
      </trkpt>
      <trkpt lat="46.03976" lon="3.92336">
        <ele>425</ele>
        <time>2016-04-20T10:29:57Z</time>
      </trkpt>
      <trkpt lat="46.03968" lon="3.92386">
        <ele>424</ele>
        <time>2016-04-20T10:30:29Z</time>
      </trkpt>
      <trkpt lat="46.03967" lon="3.92437">
        <ele>423</ele>
        <time>2016-04-20T10:30:55Z</time>
      </trkpt>
      <trkpt lat="46.03966" lon="3.92443">
        <ele>424</ele>
        <time>2016-04-20T10:30:59Z</time>
      </trkpt>
      <trkpt lat="46.03965" lon="3.9245">
        <ele>424</ele>
        <time>2016-04-20T10:31:04Z</time>
      </trkpt>
      <trkpt lat="46.0394" lon="3.92494">
        <ele>425</ele>
        <time>2016-04-20T10:31:39Z</time>
      </trkpt>
      <trkpt lat="46.03912" lon="3.9254">
        <ele>426</ele>
        <time>2016-04-20T10:32:12Z</time>
      </trkpt>
      <trkpt lat="46.03889" lon="3.9259">
        <ele>427</ele>
        <time>2016-04-20T10:32:46Z</time>
      </trkpt>
      <trkpt lat="46.03886" lon="3.92596">
        <ele>428</ele>
        <time>2016-04-20T10:32:50Z</time>
      </trkpt>
      <trkpt lat="46.03872" lon="3.92617">
        <ele>428</ele>
        <time>2016-04-20T10:33:07Z</time>
      </trkpt>
      <trkpt lat="46.03841" lon="3.92643">
        <ele>428</ele>
        <time>2016-04-20T10:33:37Z</time>
      </trkpt>
      <trkpt lat="46.03829" lon="3.92677">
        <ele>430</ele>
        <time>2016-04-20T10:34:00Z</time>
      </trkpt>
      <trkpt lat="46.03826" lon="3.92693">
        <ele>430</ele>
        <time>2016-04-20T10:34:10Z</time>
      </trkpt>
      <trkpt lat="46.0382" lon="3.92706">
        <ele>431</ele>
        <time>2016-04-20T10:34:20Z</time>
      </trkpt>
      <trkpt lat="46.03807" lon="3.92728">
        <ele>430</ele>
        <time>2016-04-20T10:34:38Z</time>
      </trkpt>
      <trkpt lat="46.03803" lon="3.92733">
        <ele>431</ele>
        <time>2016-04-20T10:34:42Z</time>
      </trkpt>
      <trkpt lat="46.038" lon="3.92737">
        <ele>430</ele>
        <time>2016-04-20T10:34:46Z</time>
      </trkpt>
      <trkpt lat="46.03797" lon="3.92741">
        <ele>429</ele>
        <time>2016-04-20T10:34:56Z</time>
      </trkpt>
      <trkpt lat="46.03768" lon="3.92759">
        <ele>430</ele>
        <time>2016-04-20T10:35:26Z</time>
      </trkpt>
      <trkpt lat="46.03754" lon="3.92766">
        <ele>430</ele>
        <time>2016-04-20T10:35:38Z</time>
      </trkpt>
      <trkpt lat="46.0375" lon="3.92768">
        <ele>430</ele>
        <time>2016-04-20T10:35:42Z</time>
      </trkpt>
      <trkpt lat="46.03721" lon="3.92783">
        <ele>430</ele>
        <time>2016-04-20T10:36:09Z</time>
      </trkpt>
      <trkpt lat="46.0369" lon="3.92804">
        <ele>429</ele>
        <time>2016-04-20T10:36:39Z</time>
      </trkpt>
      <trkpt lat="46.03657" lon="3.92819">
        <ele>427</ele>
        <time>2016-04-20T10:37:10Z</time>
      </trkpt>
      <trkpt lat="46.03622" lon="3.92826">
        <ele>423</ele>
        <time>2016-04-20T10:37:42Z</time>
      </trkpt>
      <trkpt lat="46.036" lon="3.92813">
        <ele>421</ele>
        <time>2016-04-20T10:38:05Z</time>
      </trkpt>
      <trkpt lat="46.03593" lon="3.92805">
        <ele>420</ele>
        <time>2016-04-20T10:38:18Z</time>
      </trkpt>
      <trkpt lat="46.03588" lon="3.92806">
        <ele>420</ele>
        <time>2016-04-20T10:38:30Z</time>
      </trkpt>
      <trkpt lat="46.03578" lon="3.92802">
        <ele>419</ele>
        <time>2016-04-20T10:38:38Z</time>
      </trkpt>
      <trkpt lat="46.03573" lon="3.92802">
        <ele>418</ele>
        <time>2016-04-20T10:38:43Z</time>
      </trkpt>
      <trkpt lat="46.03569" lon="3.92798">
        <ele>418</ele>
        <time>2016-04-20T10:38:47Z</time>
      </trkpt>
      <trkpt lat="46.03566" lon="3.92792">
        <ele>418</ele>
        <time>2016-04-20T10:38:52Z</time>
      </trkpt>
      <trkpt lat="46.03538" lon="3.92754">
        <ele>415</ele>
        <time>2016-04-20T10:39:27Z</time>
      </trkpt>
      <trkpt lat="46.03514" lon="3.92712">
        <ele>410</ele>
        <time>2016-04-20T10:40:00Z</time>
      </trkpt>
      <trkpt lat="46.03474" lon="3.9271">
        <ele>405</ele>
        <time>2016-04-20T10:40:33Z</time>
      </trkpt>
      <trkpt lat="46.03434" lon="3.92723">
        <ele>406</ele>
        <time>2016-04-20T10:41:08Z</time>
      </trkpt>
      <trkpt lat="46.03414" lon="3.92726">
        <ele>405</ele>
        <time>2016-04-20T10:41:25Z</time>
      </trkpt>
      <trkpt lat="46.03409" lon="3.92727">
        <ele>405</ele>
        <time>2016-04-20T10:41:30Z</time>
      </trkpt>
      <trkpt lat="46.03404" lon="3.92726">
        <ele>405</ele>
        <time>2016-04-20T10:41:34Z</time>
      </trkpt>
      <trkpt lat="46.03379" lon="3.92717">
        <ele>404</ele>
        <time>2016-04-20T10:41:59Z</time>
      </trkpt>
      <trkpt lat="46.03374" lon="3.92716">
        <ele>404</ele>
        <time>2016-04-20T10:42:04Z</time>
      </trkpt>
      <trkpt lat="46.0337" lon="3.9272">
        <ele>404</ele>
        <time>2016-04-20T10:42:09Z</time>
      </trkpt>
      <trkpt lat="46.03363" lon="3.92747">
        <ele>405</ele>
        <time>2016-04-20T10:42:24Z</time>
      </trkpt>
      <trkpt lat="46.03362" lon="3.92753">
        <ele>405</ele>
        <time>2016-04-20T10:42:29Z</time>
      </trkpt>
      <trkpt lat="46.03356" lon="3.92773">
        <ele>406</ele>
        <time>2016-04-20T10:42:42Z</time>
      </trkpt>
      <trkpt lat="46.03353" lon="3.92779">
        <ele>406</ele>
        <time>2016-04-20T10:42:47Z</time>
      </trkpt>
      <trkpt lat="46.03351" lon="3.92794">
        <ele>407</ele>
        <time>2016-04-20T10:42:57Z</time>
      </trkpt>
      <trkpt lat="46.0335" lon="3.92807">
        <ele>407</ele>
        <time>2016-04-20T10:43:07Z</time>
      </trkpt>
      <trkpt lat="46.03347" lon="3.92835">
        <ele>414</ele>
        <time>2016-04-20T10:43:28Z</time>
      </trkpt>
      <trkpt lat="46.03343" lon="3.92838">
        <ele>414</ele>
        <time>2016-04-20T10:43:35Z</time>
      </trkpt>
      <trkpt lat="46.03338" lon="3.92839">
        <ele>414</ele>
        <time>2016-04-20T10:43:40Z</time>
      </trkpt>
      <trkpt lat="46.03334" lon="3.92842">
        <ele>413</ele>
        <time>2016-04-20T10:43:44Z</time>
      </trkpt>
      <trkpt lat="46.03329" lon="3.9284">
        <ele>413</ele>
        <time>2016-04-20T10:43:53Z</time>
      </trkpt>
      <trkpt lat="46.03329" lon="3.92832">
        <ele>413</ele>
        <time>2016-04-20T10:43:59Z</time>
      </trkpt>
      <trkpt lat="46.03327" lon="3.92819">
        <ele>409</ele>
        <time>2016-04-20T10:44:13Z</time>
      </trkpt>
      <trkpt lat="46.03326" lon="3.92813">
        <ele>413</ele>
        <time>2016-04-20T10:44:23Z</time>
      </trkpt>
      <trkpt lat="46.03318" lon="3.92816">
        <ele>412</ele>
        <time>2016-04-20T10:58:34Z</time>
      </trkpt>
      <trkpt lat="46.03317" lon="3.92811">
        <ele>411</ele>
        <time>2016-04-20T10:58:57Z</time>
      </trkpt>
      <trkpt lat="46.0332" lon="3.92808">
        <ele>409</ele>
        <time>2016-04-20T11:03:00Z</time>
      </trkpt>
      <trkpt lat="46.03322" lon="3.92807">
        <ele>408</ele>
        <time>2016-04-20T11:17:55Z</time>
      </trkpt>
      <trkpt lat="46.03321" lon="3.92808">
        <ele>410</ele>
        <time>2016-04-20T11:19:04Z</time>
      </trkpt>
      <trkpt lat="46.03319" lon="3.92814">
        <ele>413</ele>
        <time>2016-04-20T11:52:37Z</time>
      </trkpt>
      <trkpt lat="46.03319" lon="3.92823">
        <ele>413</ele>
        <time>2016-04-20T11:52:42Z</time>
      </trkpt>
      <trkpt lat="46.03321" lon="3.92829">
        <ele>413</ele>
        <time>2016-04-20T11:52:48Z</time>
      </trkpt>
      <trkpt lat="46.03323" lon="3.9285">
        <ele>412</ele>
        <time>2016-04-20T11:53:01Z</time>
      </trkpt>
      <trkpt lat="46.0332" lon="3.92856">
        <ele>412</ele>
        <time>2016-04-20T11:53:08Z</time>
      </trkpt>
      <trkpt lat="46.03321" lon="3.92863">
        <ele>411</ele>
        <time>2016-04-20T11:53:13Z</time>
      </trkpt>
      <trkpt lat="46.0332" lon="3.9287">
        <ele>411</ele>
        <time>2016-04-20T11:53:19Z</time>
      </trkpt>
      <trkpt lat="46.03328" lon="3.92919">
        <ele>409</ele>
        <time>2016-04-20T11:53:51Z</time>
      </trkpt>
      <trkpt lat="46.03328" lon="3.92926">
        <ele>409</ele>
        <time>2016-04-20T11:53:55Z</time>
      </trkpt>
      <trkpt lat="46.03327" lon="3.92933">
        <ele>408</ele>
        <time>2016-04-20T11:54:09Z</time>
      </trkpt>
      <trkpt lat="46.03328" lon="3.92986">
        <ele>406</ele>
        <time>2016-04-20T11:54:42Z</time>
      </trkpt>
      <trkpt lat="46.03328" lon="3.92993">
        <ele>405</ele>
        <time>2016-04-20T11:54:45Z</time>
      </trkpt>
      <trkpt lat="46.03324" lon="3.93006">
        <ele>405</ele>
        <time>2016-04-20T11:54:52Z</time>
      </trkpt>
      <trkpt lat="46.03325" lon="3.93012">
        <ele>405</ele>
        <time>2016-04-20T11:54:56Z</time>
      </trkpt>
      <trkpt lat="46.03329" lon="3.93024">
        <ele>404</ele>
        <time>2016-04-20T11:55:03Z</time>
      </trkpt>
      <trkpt lat="46.03328" lon="3.93039">
        <ele>404</ele>
        <time>2016-04-20T11:55:12Z</time>
      </trkpt>
      <trkpt lat="46.03323" lon="3.9304">
        <ele>404</ele>
        <time>2016-04-20T11:55:17Z</time>
      </trkpt>
      <trkpt lat="46.03319" lon="3.9304">
        <ele>404</ele>
        <time>2016-04-20T11:55:22Z</time>
      </trkpt>
      <trkpt lat="46.03284" lon="3.93049">
        <ele>405</ele>
        <time>2016-04-20T11:56:00Z</time>
      </trkpt>
      <trkpt lat="46.03253" lon="3.93053">
        <ele>406</ele>
        <time>2016-04-20T11:56:32Z</time>
      </trkpt>
      <trkpt lat="46.03217" lon="3.93055">
        <ele>407</ele>
        <time>2016-04-20T11:57:07Z</time>
      </trkpt>
      <trkpt lat="46.03214" lon="3.93057">
        <ele>408</ele>
        <time>2016-04-20T11:57:25Z</time>
      </trkpt>
      <trkpt lat="46.03201" lon="3.93069">
        <ele>408</ele>
        <time>2016-04-20T11:57:38Z</time>
      </trkpt>
      <trkpt lat="46.03191" lon="3.93071">
        <ele>407</ele>
        <time>2016-04-20T11:57:47Z</time>
      </trkpt>
      <trkpt lat="46.03186" lon="3.93076">
        <ele>407</ele>
        <time>2016-04-20T11:57:51Z</time>
      </trkpt>
      <trkpt lat="46.03172" lon="3.93099">
        <ele>406</ele>
        <time>2016-04-20T11:58:11Z</time>
      </trkpt>
      <trkpt lat="46.03164" lon="3.93123">
        <ele>408</ele>
        <time>2016-04-20T11:58:34Z</time>
      </trkpt>
      <trkpt lat="46.03156" lon="3.93131">
        <ele>407</ele>
        <time>2016-04-20T11:58:47Z</time>
      </trkpt>
      <trkpt lat="46.03153" lon="3.93136">
        <ele>407</ele>
        <time>2016-04-20T11:58:53Z</time>
      </trkpt>
      <trkpt lat="46.03155" lon="3.93142">
        <ele>407</ele>
        <time>2016-04-20T11:59:05Z</time>
      </trkpt>
      <trkpt lat="46.03152" lon="3.93148">
        <ele>407</ele>
        <time>2016-04-20T11:59:11Z</time>
      </trkpt>
      <trkpt lat="46.0315" lon="3.93154">
        <ele>407</ele>
        <time>2016-04-20T11:59:16Z</time>
      </trkpt>
      <trkpt lat="46.03147" lon="3.93174">
        <ele>406</ele>
        <time>2016-04-20T11:59:35Z</time>
      </trkpt>
      <trkpt lat="46.03149" lon="3.93169">
        <ele>406</ele>
        <time>2016-04-20T12:01:13Z</time>
      </trkpt>
      <trkpt lat="46.03148" lon="3.93162">
        <ele>406</ele>
        <time>2016-04-20T12:01:18Z</time>
      </trkpt>
      <trkpt lat="46.03149" lon="3.93157">
        <ele>407</ele>
        <time>2016-04-20T12:01:27Z</time>
      </trkpt>
      <trkpt lat="46.03146" lon="3.93149">
        <ele>406</ele>
        <time>2016-04-20T12:01:43Z</time>
      </trkpt>
      <trkpt lat="46.03133" lon="3.93132">
        <ele>406</ele>
        <time>2016-04-20T12:02:11Z</time>
      </trkpt>
      <trkpt lat="46.0309" lon="3.93132">
        <ele>407</ele>
        <time>2016-04-20T12:02:41Z</time>
      </trkpt>
      <trkpt lat="46.03081" lon="3.93131">
        <ele>407</ele>
        <time>2016-04-20T12:02:50Z</time>
      </trkpt>
      <trkpt lat="46.03076" lon="3.93132">
        <ele>407</ele>
        <time>2016-04-20T12:02:54Z</time>
      </trkpt>
      <trkpt lat="46.03037" lon="3.93142">
        <ele>407</ele>
        <time>2016-04-20T12:03:28Z</time>
      </trkpt>
      <trkpt lat="46.03022" lon="3.93143">
        <ele>408</ele>
        <time>2016-04-20T12:03:40Z</time>
      </trkpt>
      <trkpt lat="46.03021" lon="3.93147">
        <ele>409</ele>
        <time>2016-04-20T12:03:46Z</time>
      </trkpt>
      <trkpt lat="46.03019" lon="3.9315">
        <ele>409</ele>
        <time>2016-04-20T12:03:58Z</time>
      </trkpt>
      <trkpt lat="46.0301" lon="3.93153">
        <ele>407</ele>
        <time>2016-04-20T12:04:06Z</time>
      </trkpt>
      <trkpt lat="46.02999" lon="3.93155">
        <ele>409</ele>
        <time>2016-04-20T12:04:14Z</time>
      </trkpt>
      <trkpt lat="46.02994" lon="3.93157">
        <ele>409</ele>
        <time>2016-04-20T12:04:18Z</time>
      </trkpt>
      <trkpt lat="46.02987" lon="3.93166">
        <ele>410</ele>
        <time>2016-04-20T12:04:26Z</time>
      </trkpt>
      <trkpt lat="46.02976" lon="3.93168">
        <ele>410</ele>
        <time>2016-04-20T12:04:33Z</time>
      </trkpt>
      <trkpt lat="46.02971" lon="3.9317">
        <ele>410</ele>
        <time>2016-04-20T12:04:37Z</time>
      </trkpt>
      <trkpt lat="46.02966" lon="3.93173">
        <ele>410</ele>
        <time>2016-04-20T12:04:41Z</time>
      </trkpt>
      <trkpt lat="46.02961" lon="3.93176">
        <ele>410</ele>
        <time>2016-04-20T12:04:45Z</time>
      </trkpt>
      <trkpt lat="46.02957" lon="3.93179">
        <ele>411</ele>
        <time>2016-04-20T12:04:49Z</time>
      </trkpt>
      <trkpt lat="46.02948" lon="3.93183">
        <ele>410</ele>
        <time>2016-04-20T12:04:57Z</time>
      </trkpt>
      <trkpt lat="46.02933" lon="3.93189">
        <ele>411</ele>
        <time>2016-04-20T12:05:10Z</time>
      </trkpt>
      <trkpt lat="46.02899" lon="3.93203">
        <ele>411</ele>
        <time>2016-04-20T12:05:40Z</time>
      </trkpt>
      <trkpt lat="46.02862" lon="3.93224">
        <ele>411</ele>
        <time>2016-04-20T12:06:13Z</time>
      </trkpt>
      <trkpt lat="46.02829" lon="3.93241">
        <ele>413</ele>
        <time>2016-04-20T12:06:44Z</time>
      </trkpt>
      <trkpt lat="46.02795" lon="3.93257">
        <ele>415</ele>
        <time>2016-04-20T12:07:16Z</time>
      </trkpt>
      <trkpt lat="46.02759" lon="3.93277">
        <ele>414</ele>
        <time>2016-04-20T12:07:49Z</time>
      </trkpt>
      <trkpt lat="46.02755" lon="3.9328">
        <ele>414</ele>
        <time>2016-04-20T12:07:54Z</time>
      </trkpt>
      <trkpt lat="46.0275" lon="3.93283">
        <ele>412</ele>
        <time>2016-04-20T12:07:59Z</time>
      </trkpt>
      <trkpt lat="46.02746" lon="3.93286">
        <ele>412</ele>
        <time>2016-04-20T12:08:03Z</time>
      </trkpt>
      <trkpt lat="46.02736" lon="3.9329">
        <ele>412</ele>
        <time>2016-04-20T12:08:12Z</time>
      </trkpt>
      <trkpt lat="46.02697" lon="3.93301">
        <ele>409</ele>
        <time>2016-04-20T12:08:45Z</time>
      </trkpt>
      <trkpt lat="46.02666" lon="3.93297">
        <ele>407</ele>
        <time>2016-04-20T12:09:16Z</time>
      </trkpt>
      <trkpt lat="46.02627" lon="3.93296">
        <ele>405</ele>
        <time>2016-04-20T12:09:50Z</time>
      </trkpt>
      <trkpt lat="46.02592" lon="3.93292">
        <ele>404</ele>
        <time>2016-04-20T12:10:22Z</time>
      </trkpt>
      <trkpt lat="46.02559" lon="3.93279">
        <ele>403</ele>
        <time>2016-04-20T12:10:53Z</time>
      </trkpt>
      <trkpt lat="46.02517" lon="3.93275">
        <ele>402</ele>
        <time>2016-04-20T12:11:26Z</time>
      </trkpt>
      <trkpt lat="46.02477" lon="3.9328">
        <ele>401</ele>
        <time>2016-04-20T12:11:59Z</time>
      </trkpt>
      <trkpt lat="46.0244" lon="3.93302">
        <ele>402</ele>
        <time>2016-04-20T12:12:32Z</time>
      </trkpt>
      <trkpt lat="46.0241" lon="3.93328">
        <ele>404</ele>
        <time>2016-04-20T12:13:02Z</time>
      </trkpt>
      <trkpt lat="46.02389" lon="3.93348">
        <ele>406</ele>
        <time>2016-04-20T12:13:28Z</time>
      </trkpt>
      <trkpt lat="46.02385" lon="3.93352">
        <ele>405</ele>
        <time>2016-04-20T12:13:32Z</time>
      </trkpt>
      <trkpt lat="46.02356" lon="3.93381">
        <ele>407</ele>
        <time>2016-04-20T12:14:05Z</time>
      </trkpt>
      <trkpt lat="46.02348" lon="3.9339">
        <ele>407</ele>
        <time>2016-04-20T12:14:13Z</time>
      </trkpt>
      <trkpt lat="46.02339" lon="3.93396">
        <ele>408</ele>
        <time>2016-04-20T12:14:21Z</time>
      </trkpt>
      <trkpt lat="46.02335" lon="3.93397">
        <ele>409</ele>
        <time>2016-04-20T12:14:25Z</time>
      </trkpt>
      <trkpt lat="46.02329" lon="3.93399">
        <ele>409</ele>
        <time>2016-04-20T12:14:30Z</time>
      </trkpt>
      <trkpt lat="46.02322" lon="3.93405">
        <ele>410</ele>
        <time>2016-04-20T12:14:47Z</time>
      </trkpt>
      <trkpt lat="46.02318" lon="3.93408">
        <ele>414</ele>
        <time>2016-04-20T12:14:54Z</time>
      </trkpt>
      <trkpt lat="46.02308" lon="3.93412">
        <ele>414</ele>
        <time>2016-04-20T12:15:03Z</time>
      </trkpt>
      <trkpt lat="46.02274" lon="3.93428">
        <ele>416</ele>
        <time>2016-04-20T12:15:34Z</time>
      </trkpt>
      <trkpt lat="46.0227" lon="3.93431">
        <ele>416</ele>
        <time>2016-04-20T12:15:38Z</time>
      </trkpt>
      <trkpt lat="46.02265" lon="3.93432">
        <ele>418</ele>
        <time>2016-04-20T12:15:42Z</time>
      </trkpt>
      <trkpt lat="46.0226" lon="3.93433">
        <ele>418</ele>
        <time>2016-04-20T12:15:46Z</time>
      </trkpt>
      <trkpt lat="46.02255" lon="3.93435">
        <ele>417</ele>
        <time>2016-04-20T12:15:50Z</time>
      </trkpt>
      <trkpt lat="46.02251" lon="3.93435">
        <ele>417</ele>
        <time>2016-04-20T12:15:54Z</time>
      </trkpt>
      <trkpt lat="46.02246" lon="3.93436">
        <ele>419</ele>
        <time>2016-04-20T12:15:58Z</time>
      </trkpt>
      <trkpt lat="46.0224" lon="3.93436">
        <ele>420</ele>
        <time>2016-04-20T12:16:03Z</time>
      </trkpt>
      <trkpt lat="46.02224" lon="3.9344">
        <ele>420</ele>
        <time>2016-04-20T12:16:46Z</time>
      </trkpt>
      <trkpt lat="46.02218" lon="3.93444">
        <ele>420</ele>
        <time>2016-04-20T12:18:01Z</time>
      </trkpt>
      <trkpt lat="46.02213" lon="3.93447">
        <ele>420</ele>
        <time>2016-04-20T12:18:05Z</time>
      </trkpt>
      <trkpt lat="46.02194" lon="3.93454">
        <ele>421</ele>
        <time>2016-04-20T12:18:21Z</time>
      </trkpt>
      <trkpt lat="46.02153" lon="3.93458">
        <ele>421</ele>
        <time>2016-04-20T12:18:54Z</time>
      </trkpt>
      <trkpt lat="46.02118" lon="3.93455">
        <ele>421</ele>
        <time>2016-04-20T12:19:25Z</time>
      </trkpt>
      <trkpt lat="46.02083" lon="3.93455">
        <ele>421</ele>
        <time>2016-04-20T12:19:56Z</time>
      </trkpt>
      <trkpt lat="46.02049" lon="3.93461">
        <ele>422</ele>
        <time>2016-04-20T12:20:26Z</time>
      </trkpt>
      <trkpt lat="46.02033" lon="3.93465">
        <ele>422</ele>
        <time>2016-04-20T12:20:39Z</time>
      </trkpt>
      <trkpt lat="46.01997" lon="3.93487">
        <ele>421</ele>
        <time>2016-04-20T12:21:14Z</time>
      </trkpt>
      <trkpt lat="46.01992" lon="3.93491">
        <ele>421</ele>
        <time>2016-04-20T12:21:18Z</time>
      </trkpt>
      <trkpt lat="46.01958" lon="3.93519">
        <ele>418</ele>
        <time>2016-04-20T12:21:52Z</time>
      </trkpt>
      <trkpt lat="46.01927" lon="3.93545">
        <ele>416</ele>
        <time>2016-04-20T12:22:22Z</time>
      </trkpt>
      <trkpt lat="46.01894" lon="3.93565">
        <ele>414</ele>
        <time>2016-04-20T12:22:53Z</time>
      </trkpt>
      <trkpt lat="46.01861" lon="3.93577">
        <ele>412</ele>
        <time>2016-04-20T12:23:24Z</time>
      </trkpt>
      <trkpt lat="46.01846" lon="3.93587">
        <ele>412</ele>
        <time>2016-04-20T12:23:37Z</time>
      </trkpt>
      <trkpt lat="46.01826" lon="3.9362">
        <ele>411</ele>
        <time>2016-04-20T12:24:04Z</time>
      </trkpt>
      <trkpt lat="46.01809" lon="3.93662">
        <ele>415</ele>
        <time>2016-04-20T12:24:33Z</time>
      </trkpt>
      <trkpt lat="46.01801" lon="3.93672">
        <ele>413</ele>
        <time>2016-04-20T12:24:41Z</time>
      </trkpt>
      <trkpt lat="46.01793" lon="3.9368">
        <ele>412</ele>
        <time>2016-04-20T12:24:50Z</time>
      </trkpt>
      <trkpt lat="46.01788" lon="3.93683">
        <ele>412</ele>
        <time>2016-04-20T12:24:54Z</time>
      </trkpt>
      <trkpt lat="46.01754" lon="3.93699">
        <ele>417</ele>
        <time>2016-04-20T12:25:24Z</time>
      </trkpt>
      <trkpt lat="46.01745" lon="3.93702">
        <ele>419</ele>
        <time>2016-04-20T12:25:39Z</time>
      </trkpt>
      <trkpt lat="46.0174" lon="3.93702">
        <ele>419</ele>
        <time>2016-04-20T12:25:44Z</time>
      </trkpt>
      <trkpt lat="46.0173" lon="3.93707">
        <ele>419</ele>
        <time>2016-04-20T12:25:52Z</time>
      </trkpt>
      <trkpt lat="46.01725" lon="3.9371">
        <ele>420</ele>
        <time>2016-04-20T12:25:57Z</time>
      </trkpt>
      <trkpt lat="46.01721" lon="3.93712">
        <ele>421</ele>
        <time>2016-04-20T12:26:01Z</time>
      </trkpt>
      <trkpt lat="46.01688" lon="3.93726">
        <ele>426</ele>
        <time>2016-04-20T12:26:37Z</time>
      </trkpt>
      <trkpt lat="46.01685" lon="3.93729">
        <ele>427</ele>
        <time>2016-04-20T12:26:48Z</time>
      </trkpt>
      <trkpt lat="46.01653" lon="3.93745">
        <ele>427</ele>
        <time>2016-04-20T12:27:25Z</time>
      </trkpt>
      <trkpt lat="46.01628" lon="3.9376">
        <ele>426</ele>
        <time>2016-04-20T12:27:57Z</time>
      </trkpt>
      <trkpt lat="46.01618" lon="3.93764">
        <ele>426</ele>
        <time>2016-04-20T12:28:07Z</time>
      </trkpt>
      <trkpt lat="46.01614" lon="3.93765">
        <ele>426</ele>
        <time>2016-04-20T12:28:17Z</time>
      </trkpt>
      <trkpt lat="46.01586" lon="3.93786">
        <ele>424</ele>
        <time>2016-04-20T12:28:48Z</time>
      </trkpt>
      <trkpt lat="46.01577" lon="3.93794">
        <ele>424</ele>
        <time>2016-04-20T12:28:58Z</time>
      </trkpt>
      <trkpt lat="46.01574" lon="3.93797">
        <ele>424</ele>
        <time>2016-04-20T12:29:08Z</time>
      </trkpt>
      <trkpt lat="46.01569" lon="3.938">
        <ele>424</ele>
        <time>2016-04-20T12:29:15Z</time>
      </trkpt>
      <trkpt lat="46.01539" lon="3.93823">
        <ele>423</ele>
        <time>2016-04-20T12:29:46Z</time>
      </trkpt>
      <trkpt lat="46.01501" lon="3.93844">
        <ele>421</ele>
        <time>2016-04-20T12:30:20Z</time>
      </trkpt>
      <trkpt lat="46.01496" lon="3.93847">
        <ele>420</ele>
        <time>2016-04-20T12:30:24Z</time>
      </trkpt>
      <trkpt lat="46.01492" lon="3.9385">
        <ele>420</ele>
        <time>2016-04-20T12:30:28Z</time>
      </trkpt>
      <trkpt lat="46.01459" lon="3.93875">
        <ele>418</ele>
        <time>2016-04-20T12:31:02Z</time>
      </trkpt>
      <trkpt lat="46.01454" lon="3.93879">
        <ele>417</ele>
        <time>2016-04-20T12:31:06Z</time>
      </trkpt>
      <trkpt lat="46.01417" lon="3.93901">
        <ele>416</ele>
        <time>2016-04-20T12:31:40Z</time>
      </trkpt>
      <trkpt lat="46.01383" lon="3.93934">
        <ele>415</ele>
        <time>2016-04-20T12:32:13Z</time>
      </trkpt>
      <trkpt lat="46.01366" lon="3.93947">
        <ele>415</ele>
        <time>2016-04-20T12:32:30Z</time>
      </trkpt>
      <trkpt lat="46.01361" lon="3.93951">
        <ele>416</ele>
        <time>2016-04-20T12:32:35Z</time>
      </trkpt>
      <trkpt lat="46.01332" lon="3.93977">
        <ele>416</ele>
        <time>2016-04-20T12:33:05Z</time>
      </trkpt>
      <trkpt lat="46.0133" lon="3.93984">
        <ele>415</ele>
        <time>2016-04-20T12:33:10Z</time>
      </trkpt>
      <trkpt lat="46.0133" lon="3.93991">
        <ele>416</ele>
        <time>2016-04-20T12:33:16Z</time>
      </trkpt>
      <trkpt lat="46.01331" lon="3.93997">
        <ele>415</ele>
        <time>2016-04-20T12:33:20Z</time>
      </trkpt>
      <trkpt lat="46.01338" lon="3.94008">
        <ele>416</ele>
        <time>2016-04-20T12:33:28Z</time>
      </trkpt>
      <trkpt lat="46.01341" lon="3.94013">
        <ele>415</ele>
        <time>2016-04-20T12:33:32Z</time>
      </trkpt>
      <trkpt lat="46.01345" lon="3.94021">
        <ele>414</ele>
        <time>2016-04-20T12:33:43Z</time>
      </trkpt>
      <trkpt lat="46.01359" lon="3.94072">
        <ele>410</ele>
        <time>2016-04-20T12:34:16Z</time>
      </trkpt>
      <trkpt lat="46.01361" lon="3.94078">
        <ele>410</ele>
        <time>2016-04-20T12:34:20Z</time>
      </trkpt>
      <trkpt lat="46.01363" lon="3.94085">
        <ele>409</ele>
        <time>2016-04-20T12:34:28Z</time>
      </trkpt>
      <trkpt lat="46.01376" lon="3.94131">
        <ele>407</ele>
        <time>2016-04-20T12:34:58Z</time>
      </trkpt>
      <trkpt lat="46.01392" lon="3.94183">
        <ele>404</ele>
        <time>2016-04-20T12:35:31Z</time>
      </trkpt>
      <trkpt lat="46.01407" lon="3.94228">
        <ele>403</ele>
        <time>2016-04-20T12:36:02Z</time>
      </trkpt>
      <trkpt lat="46.01409" lon="3.94235">
        <ele>402</ele>
        <time>2016-04-20T12:36:06Z</time>
      </trkpt>
      <trkpt lat="46.01415" lon="3.94247">
        <ele>402</ele>
        <time>2016-04-20T12:36:14Z</time>
      </trkpt>
      <trkpt lat="46.01429" lon="3.94301">
        <ele>400</ele>
        <time>2016-04-20T12:36:49Z</time>
      </trkpt>
      <trkpt lat="46.01437" lon="3.94326">
        <ele>399</ele>
        <time>2016-04-20T12:37:06Z</time>
      </trkpt>
      <trkpt lat="46.01441" lon="3.94329">
        <ele>399</ele>
        <time>2016-04-20T12:37:10Z</time>
      </trkpt>
      <trkpt lat="46.01445" lon="3.94331">
        <ele>399</ele>
        <time>2016-04-20T12:37:14Z</time>
      </trkpt>
      <trkpt lat="46.01449" lon="3.94334">
        <ele>398</ele>
        <time>2016-04-20T12:37:18Z</time>
      </trkpt>
      <trkpt lat="46.01451" lon="3.9434">
        <ele>398</ele>
        <time>2016-04-20T12:37:22Z</time>
      </trkpt>
      <trkpt lat="46.01449" lon="3.94347">
        <ele>397</ele>
        <time>2016-04-20T12:37:27Z</time>
      </trkpt>
      <trkpt lat="46.0144" lon="3.94365">
        <ele>396</ele>
        <time>2016-04-20T12:37:41Z</time>
      </trkpt>
      <trkpt lat="46.01406" lon="3.94393">
        <ele>394</ele>
        <time>2016-04-20T12:38:15Z</time>
      </trkpt>
      <trkpt lat="46.01392" lon="3.94403">
        <ele>394</ele>
        <time>2016-04-20T12:38:29Z</time>
      </trkpt>
      <trkpt lat="46.01388" lon="3.94407">
        <ele>394</ele>
        <time>2016-04-20T12:38:34Z</time>
      </trkpt>
      <trkpt lat="46.01368" lon="3.94422">
        <ele>392</ele>
        <time>2016-04-20T12:39:10Z</time>
      </trkpt>
      <trkpt lat="46.01338" lon="3.94447">
        <ele>392</ele>
        <time>2016-04-20T12:39:41Z</time>
      </trkpt>
      <trkpt lat="46.01304" lon="3.94457">
        <ele>391</ele>
        <time>2016-04-20T12:40:11Z</time>
      </trkpt>
      <trkpt lat="46.01284" lon="3.94464">
        <ele>390</ele>
        <time>2016-04-20T12:40:31Z</time>
      </trkpt>
      <trkpt lat="46.0128" lon="3.94468">
        <ele>390</ele>
        <time>2016-04-20T12:40:37Z</time>
      </trkpt>
      <trkpt lat="46.01277" lon="3.94474">
        <ele>391</ele>
        <time>2016-04-20T12:40:42Z</time>
      </trkpt>
      <trkpt lat="46.01272" lon="3.94475">
        <ele>391</ele>
        <time>2016-04-20T12:40:46Z</time>
      </trkpt>
      <trkpt lat="46.01247" lon="3.94477">
        <ele>393</ele>
        <time>2016-04-20T12:41:08Z</time>
      </trkpt>
      <trkpt lat="46.01241" lon="3.94478">
        <ele>393</ele>
        <time>2016-04-20T12:41:13Z</time>
      </trkpt>
      <trkpt lat="46.01237" lon="3.94481">
        <ele>394</ele>
        <time>2016-04-20T12:41:17Z</time>
      </trkpt>
      <trkpt lat="46.01233" lon="3.94485">
        <ele>394</ele>
        <time>2016-04-20T12:41:21Z</time>
      </trkpt>
      <trkpt lat="46.01229" lon="3.94488">
        <ele>394</ele>
        <time>2016-04-20T12:41:25Z</time>
      </trkpt>
      <trkpt lat="46.0122" lon="3.94494">
        <ele>394</ele>
        <time>2016-04-20T12:41:33Z</time>
      </trkpt>
      <trkpt lat="46.0121" lon="3.94508">
        <ele>394</ele>
        <time>2016-04-20T12:41:46Z</time>
      </trkpt>
      <trkpt lat="46.01182" lon="3.94547">
        <ele>392</ele>
        <time>2016-04-20T12:42:19Z</time>
      </trkpt>
      <trkpt lat="46.01179" lon="3.94552">
        <ele>392</ele>
        <time>2016-04-20T12:42:23Z</time>
      </trkpt>
      <trkpt lat="46.01174" lon="3.94564">
        <ele>391</ele>
        <time>2016-04-20T12:42:32Z</time>
      </trkpt>
      <trkpt lat="46.01176" lon="3.9462">
        <ele>391</ele>
        <time>2016-04-20T12:43:06Z</time>
      </trkpt>
      <trkpt lat="46.01188" lon="3.9466">
        <ele>392</ele>
        <time>2016-04-20T12:43:38Z</time>
      </trkpt>
      <trkpt lat="46.01195" lon="3.94697">
        <ele>393</ele>
        <time>2016-04-20T12:44:07Z</time>
      </trkpt>
      <trkpt lat="46.01187" lon="3.94748">
        <ele>396</ele>
        <time>2016-04-20T12:44:41Z</time>
      </trkpt>
      <trkpt lat="46.01172" lon="3.94796">
        <ele>398</ele>
        <time>2016-04-20T12:45:14Z</time>
      </trkpt>
      <trkpt lat="46.01159" lon="3.94849">
        <ele>400</ele>
        <time>2016-04-20T12:45:46Z</time>
      </trkpt>
      <trkpt lat="46.01155" lon="3.94899">
        <ele>401</ele>
        <time>2016-04-20T12:46:19Z</time>
      </trkpt>
      <trkpt lat="46.01162" lon="3.94947">
        <ele>401</ele>
        <time>2016-04-20T12:46:50Z</time>
      </trkpt>
      <trkpt lat="46.01168" lon="3.94968">
        <ele>400</ele>
        <time>2016-04-20T12:47:03Z</time>
      </trkpt>
      <trkpt lat="46.01164" lon="3.94982">
        <ele>400</ele>
        <time>2016-04-20T12:47:13Z</time>
      </trkpt>
      <trkpt lat="46.01166" lon="3.94996">
        <ele>400</ele>
        <time>2016-04-20T12:47:22Z</time>
      </trkpt>
      <trkpt lat="46.0117" lon="3.95041">
        <ele>401</ele>
        <time>2016-04-20T12:47:57Z</time>
      </trkpt>
      <trkpt lat="46.01172" lon="3.95056">
        <ele>401</ele>
        <time>2016-04-20T12:48:31Z</time>
      </trkpt>
      <trkpt lat="46.0119" lon="3.95101">
        <ele>399</ele>
        <time>2016-04-20T12:49:01Z</time>
      </trkpt>
      <trkpt lat="46.01195" lon="3.9512">
        <ele>399</ele>
        <time>2016-04-20T12:49:13Z</time>
      </trkpt>
      <trkpt lat="46.01203" lon="3.95149">
        <ele>397</ele>
        <time>2016-04-20T12:49:29Z</time>
      </trkpt>
      <trkpt lat="46.01205" lon="3.95163">
        <ele>398</ele>
        <time>2016-04-20T12:49:38Z</time>
      </trkpt>
      <trkpt lat="46.01209" lon="3.95177">
        <ele>398</ele>
        <time>2016-04-20T12:49:47Z</time>
      </trkpt>
      <trkpt lat="46.01213" lon="3.95196">
        <ele>397</ele>
        <time>2016-04-20T12:49:59Z</time>
      </trkpt>
      <trkpt lat="46.01214" lon="3.95202">
        <ele>397</ele>
        <time>2016-04-20T12:50:03Z</time>
      </trkpt>
      <trkpt lat="46.01216" lon="3.95209">
        <ele>396</ele>
        <time>2016-04-20T12:50:07Z</time>
      </trkpt>
      <trkpt lat="46.01224" lon="3.95259">
        <ele>394</ele>
        <time>2016-04-20T12:50:37Z</time>
      </trkpt>
      <trkpt lat="46.01225" lon="3.95265">
        <ele>393</ele>
        <time>2016-04-20T12:50:41Z</time>
      </trkpt>
      <trkpt lat="46.01235" lon="3.95313">
        <ele>392</ele>
        <time>2016-04-20T12:51:12Z</time>
      </trkpt>
      <trkpt lat="46.01236" lon="3.95319">
        <ele>392</ele>
        <time>2016-04-20T12:51:16Z</time>
      </trkpt>
      <trkpt lat="46.01246" lon="3.95368">
        <ele>392</ele>
        <time>2016-04-20T12:51:47Z</time>
      </trkpt>
      <trkpt lat="46.01249" lon="3.95382">
        <ele>392</ele>
        <time>2016-04-20T12:51:57Z</time>
      </trkpt>
      <trkpt lat="46.01255" lon="3.95404">
        <ele>392</ele>
        <time>2016-04-20T12:52:18Z</time>
      </trkpt>
      <trkpt lat="46.01266" lon="3.95451">
        <ele>390</ele>
        <time>2016-04-20T12:52:49Z</time>
      </trkpt>
      <trkpt lat="46.0127" lon="3.95472">
        <ele>389</ele>
        <time>2016-04-20T12:53:03Z</time>
      </trkpt>
      <trkpt lat="46.01271" lon="3.95479">
        <ele>389</ele>
        <time>2016-04-20T12:53:07Z</time>
      </trkpt>
      <trkpt lat="46.01273" lon="3.95486">
        <ele>389</ele>
        <time>2016-04-20T12:53:11Z</time>
      </trkpt>
      <trkpt lat="46.01287" lon="3.95541">
        <ele>387</ele>
        <time>2016-04-20T12:53:45Z</time>
      </trkpt>
      <trkpt lat="46.01296" lon="3.95566">
        <ele>386</ele>
        <time>2016-04-20T12:54:02Z</time>
      </trkpt>
      <trkpt lat="46.01301" lon="3.95579">
        <ele>387</ele>
        <time>2016-04-20T12:54:12Z</time>
      </trkpt>
      <trkpt lat="46.01304" lon="3.95588">
        <ele>386</ele>
        <time>2016-04-20T12:54:24Z</time>
      </trkpt>
      <trkpt lat="46.01303" lon="3.95595">
        <ele>386</ele>
        <time>2016-04-20T12:54:28Z</time>
      </trkpt>
      <trkpt lat="46.01291" lon="3.95617">
        <ele>386</ele>
        <time>2016-04-20T12:54:45Z</time>
      </trkpt>
      <trkpt lat="46.01278" lon="3.95663">
        <ele>386</ele>
        <time>2016-04-20T12:55:14Z</time>
      </trkpt>
      <trkpt lat="46.0127" lon="3.95671">
        <ele>386</ele>
        <time>2016-04-20T12:55:24Z</time>
      </trkpt>
      <trkpt lat="46.01262" lon="3.95677">
        <ele>386</ele>
        <time>2016-04-20T12:55:36Z</time>
      </trkpt>
      <trkpt lat="46.01228" lon="3.95693">
        <ele>386</ele>
        <time>2016-04-20T12:56:09Z</time>
      </trkpt>
      <trkpt lat="46.01194" lon="3.95711">
        <ele>388</ele>
        <time>2016-04-20T12:56:40Z</time>
      </trkpt>
      <trkpt lat="46.01166" lon="3.95733">
        <ele>389</ele>
        <time>2016-04-20T12:57:43Z</time>
      </trkpt>
      <trkpt lat="46.01155" lon="3.95751">
        <ele>389</ele>
        <time>2016-04-20T12:58:58Z</time>
      </trkpt>
      <trkpt lat="46.01152" lon="3.95757">
        <ele>388</ele>
        <time>2016-04-20T12:59:03Z</time>
      </trkpt>
      <trkpt lat="46.01146" lon="3.95768">
        <ele>388</ele>
        <time>2016-04-20T12:59:13Z</time>
      </trkpt>
      <trkpt lat="46.01143" lon="3.95773">
        <ele>388</ele>
        <time>2016-04-20T12:59:18Z</time>
      </trkpt>
      <trkpt lat="46.01123" lon="3.95813">
        <ele>388</ele>
        <time>2016-04-20T12:59:51Z</time>
      </trkpt>
      <trkpt lat="46.01105" lon="3.95829">
        <ele>387</ele>
        <time>2016-04-20T13:00:11Z</time>
      </trkpt>
      <trkpt lat="46.011" lon="3.95831">
        <ele>387</ele>
        <time>2016-04-20T13:00:16Z</time>
      </trkpt>
      <trkpt lat="46.01097" lon="3.95838">
        <ele>387</ele>
        <time>2016-04-20T13:00:23Z</time>
      </trkpt>
      <trkpt lat="46.01095" lon="3.95851">
        <ele>387</ele>
        <time>2016-04-20T13:00:33Z</time>
      </trkpt>
      <trkpt lat="46.01097" lon="3.95865">
        <ele>386</ele>
        <time>2016-04-20T13:00:43Z</time>
      </trkpt>
      <trkpt lat="46.01094" lon="3.95871">
        <ele>386</ele>
        <time>2016-04-20T13:00:48Z</time>
      </trkpt>
      <trkpt lat="46.01093" lon="3.95877">
        <ele>386</ele>
        <time>2016-04-20T13:00:53Z</time>
      </trkpt>
      <trkpt lat="46.01086" lon="3.95911">
        <ele>384</ele>
        <time>2016-04-20T13:01:17Z</time>
      </trkpt>
      <trkpt lat="46.01091" lon="3.95935">
        <ele>384</ele>
        <time>2016-04-20T13:02:09Z</time>
      </trkpt>
      <trkpt lat="46.01093" lon="3.95938">
        <ele>385</ele>
        <time>2016-04-20T13:02:26Z</time>
      </trkpt>
      <trkpt lat="46.01096" lon="3.95944">
        <ele>385</ele>
        <time>2016-04-20T13:02:37Z</time>
      </trkpt>
      <trkpt lat="46.01097" lon="3.95954">
        <ele>385</ele>
        <time>2016-04-20T13:02:55Z</time>
      </trkpt>
      <trkpt lat="46.01094" lon="3.95971">
        <ele>384</ele>
        <time>2016-04-20T13:03:11Z</time>
      </trkpt>
      <trkpt lat="46.0109" lon="3.95977">
        <ele>384</ele>
        <time>2016-04-20T13:03:27Z</time>
      </trkpt>
      <trkpt lat="46.01085" lon="3.95978">
        <ele>384</ele>
        <time>2016-04-20T13:03:40Z</time>
      </trkpt>
      <trkpt lat="46.01085" lon="3.95986">
        <ele>384</ele>
        <time>2016-04-20T13:03:44Z</time>
      </trkpt>
      <trkpt lat="46.01087" lon="3.96">
        <ele>384</ele>
        <time>2016-04-20T13:03:52Z</time>
      </trkpt>
      <trkpt lat="46.01089" lon="3.96013">
        <ele>383</ele>
        <time>2016-04-20T13:04:00Z</time>
      </trkpt>
      <trkpt lat="46.01089" lon="3.9602">
        <ele>383</ele>
        <time>2016-04-20T13:04:04Z</time>
      </trkpt>
      <trkpt lat="46.01093" lon="3.96041">
        <ele>382</ele>
        <time>2016-04-20T13:04:17Z</time>
      </trkpt>
      <trkpt lat="46.01094" lon="3.96048">
        <ele>382</ele>
        <time>2016-04-20T13:04:22Z</time>
      </trkpt>
      <trkpt lat="46.01103" lon="3.96097">
        <ele>380</ele>
        <time>2016-04-20T13:04:55Z</time>
      </trkpt>
      <trkpt lat="46.01105" lon="3.96105">
        <ele>380</ele>
        <time>2016-04-20T13:05:00Z</time>
      </trkpt>
      <trkpt lat="46.01115" lon="3.96159">
        <ele>379</ele>
        <time>2016-04-20T13:05:34Z</time>
      </trkpt>
      <trkpt lat="46.01125" lon="3.96205">
        <ele>378</ele>
        <time>2016-04-20T13:06:06Z</time>
      </trkpt>
      <trkpt lat="46.0114" lon="3.96241">
        <ele>377</ele>
        <time>2016-04-20T13:06:36Z</time>
      </trkpt>
      <trkpt lat="46.0116" lon="3.96284">
        <ele>376</ele>
        <time>2016-04-20T13:07:09Z</time>
      </trkpt>
      <trkpt lat="46.01178" lon="3.96326">
        <ele>374</ele>
        <time>2016-04-20T13:07:48Z</time>
      </trkpt>
      <trkpt lat="46.01181" lon="3.96332">
        <ele>374</ele>
        <time>2016-04-20T13:07:54Z</time>
      </trkpt>
      <trkpt lat="46.01181" lon="3.9634">
        <ele>374</ele>
        <time>2016-04-20T13:08:11Z</time>
      </trkpt>
      <trkpt lat="46.01175" lon="3.96349">
        <ele>374</ele>
        <time>2016-04-20T13:08:24Z</time>
      </trkpt>
      <trkpt lat="46.01171" lon="3.96352">
        <ele>374</ele>
        <time>2016-04-20T13:08:35Z</time>
      </trkpt>
      <trkpt lat="46.01156" lon="3.96371">
        <ele>374</ele>
        <time>2016-04-20T13:08:51Z</time>
      </trkpt>
      <trkpt lat="46.01148" lon="3.96379">
        <ele>374</ele>
        <time>2016-04-20T13:08:59Z</time>
      </trkpt>
      <trkpt lat="46.01117" lon="3.96414">
        <ele>374</ele>
        <time>2016-04-20T13:09:31Z</time>
      </trkpt>
      <trkpt lat="46.01108" lon="3.96423">
        <ele>374</ele>
        <time>2016-04-20T13:09:40Z</time>
      </trkpt>
      <trkpt lat="46.01086" lon="3.96449">
        <ele>375</ele>
        <time>2016-04-20T13:10:07Z</time>
      </trkpt>
      <trkpt lat="46.01078" lon="3.96459">
        <ele>374</ele>
        <time>2016-04-20T13:10:16Z</time>
      </trkpt>
      <trkpt lat="46.01069" lon="3.96468">
        <ele>375</ele>
        <time>2016-04-20T13:10:25Z</time>
      </trkpt>
      <trkpt lat="46.01039" lon="3.96503">
        <ele>374</ele>
        <time>2016-04-20T13:10:58Z</time>
      </trkpt>
      <trkpt lat="46.01028" lon="3.96517">
        <ele>374</ele>
        <time>2016-04-20T13:11:11Z</time>
      </trkpt>
      <trkpt lat="46.00997" lon="3.96552">
        <ele>374</ele>
        <time>2016-04-20T13:11:45Z</time>
      </trkpt>
      <trkpt lat="46.00993" lon="3.96556">
        <ele>374</ele>
        <time>2016-04-20T13:11:50Z</time>
      </trkpt>
      <trkpt lat="46.00988" lon="3.96559">
        <ele>374</ele>
        <time>2016-04-20T13:11:55Z</time>
      </trkpt>
      <trkpt lat="46.00984" lon="3.96563">
        <ele>374</ele>
        <time>2016-04-20T13:12:00Z</time>
      </trkpt>
      <trkpt lat="46.00952" lon="3.96584">
        <ele>375</ele>
        <time>2016-04-20T13:12:31Z</time>
      </trkpt>
      <trkpt lat="46.00914" lon="3.96606">
        <ele>375</ele>
        <time>2016-04-20T13:13:06Z</time>
      </trkpt>
      <trkpt lat="46.00909" lon="3.96608">
        <ele>376</ele>
        <time>2016-04-20T13:13:11Z</time>
      </trkpt>
      <trkpt lat="46.00877" lon="3.9663">
        <ele>375</ele>
        <time>2016-04-20T13:13:41Z</time>
      </trkpt>
      <trkpt lat="46.00846" lon="3.9665">
        <ele>374</ele>
        <time>2016-04-20T13:14:12Z</time>
      </trkpt>
      <trkpt lat="46.00813" lon="3.96671">
        <ele>374</ele>
        <time>2016-04-20T13:14:44Z</time>
      </trkpt>
      <trkpt lat="46.00804" lon="3.96674">
        <ele>373</ele>
        <time>2016-04-20T13:14:53Z</time>
      </trkpt>
      <trkpt lat="46.00798" lon="3.96677">
        <ele>374</ele>
        <time>2016-04-20T13:15:14Z</time>
      </trkpt>
      <trkpt lat="46.00791" lon="3.96687">
        <ele>373</ele>
        <time>2016-04-20T13:15:23Z</time>
      </trkpt>
      <trkpt lat="46.00784" lon="3.96699">
        <ele>372</ele>
        <time>2016-04-20T13:15:32Z</time>
      </trkpt>
      <trkpt lat="46.0078" lon="3.96701">
        <ele>372</ele>
        <time>2016-04-20T13:15:36Z</time>
      </trkpt>
      <trkpt lat="46.00746" lon="3.96717">
        <ele>370</ele>
        <time>2016-04-20T13:16:06Z</time>
      </trkpt>
      <trkpt lat="46.00709" lon="3.9674">
        <ele>369</ele>
        <time>2016-04-20T13:16:39Z</time>
      </trkpt>
      <trkpt lat="46.00677" lon="3.96751">
        <ele>367</ele>
        <time>2016-04-20T13:17:09Z</time>
      </trkpt>
      <trkpt lat="46.00642" lon="3.96757">
        <ele>364</ele>
        <time>2016-04-20T13:17:41Z</time>
      </trkpt>
      <trkpt lat="46.00607" lon="3.96766">
        <ele>363</ele>
        <time>2016-04-20T13:18:13Z</time>
      </trkpt>
      <trkpt lat="46.00583" lon="3.96794">
        <ele>363</ele>
        <time>2016-04-20T13:18:46Z</time>
      </trkpt>
      <trkpt lat="46.00564" lon="3.96837">
        <ele>362</ele>
        <time>2016-04-20T13:19:28Z</time>
      </trkpt>
      <trkpt lat="46.0055" lon="3.96877">
        <ele>363</ele>
        <time>2016-04-20T13:19:56Z</time>
      </trkpt>
      <trkpt lat="46.00545" lon="3.96928">
        <ele>366</ele>
        <time>2016-04-20T13:20:28Z</time>
      </trkpt>
      <trkpt lat="46.00534" lon="3.96976">
        <ele>368</ele>
        <time>2016-04-20T13:21:02Z</time>
      </trkpt>
      <trkpt lat="46.00532" lon="3.96983">
        <ele>368</ele>
        <time>2016-04-20T13:21:07Z</time>
      </trkpt>
      <trkpt lat="46.00513" lon="3.97026">
        <ele>370</ele>
        <time>2016-04-20T13:21:42Z</time>
      </trkpt>
      <trkpt lat="46.00499" lon="3.97066">
        <ele>371</ele>
        <time>2016-04-20T13:22:12Z</time>
      </trkpt>
      <trkpt lat="46.0048" lon="3.97108">
        <ele>372</ele>
        <time>2016-04-20T13:22:46Z</time>
      </trkpt>
      <trkpt lat="46.00462" lon="3.97126">
        <ele>372</ele>
        <time>2016-04-20T13:23:06Z</time>
      </trkpt>
      <trkpt lat="46.00459" lon="3.97131">
        <ele>373</ele>
        <time>2016-04-20T13:23:14Z</time>
      </trkpt>
      <trkpt lat="46.00454" lon="3.97133">
        <ele>373</ele>
        <time>2016-04-20T13:23:43Z</time>
      </trkpt>
      <trkpt lat="46.00425" lon="3.97161">
        <ele>373</ele>
        <time>2016-04-20T13:24:14Z</time>
      </trkpt>
      <trkpt lat="46.00389" lon="3.97191">
        <ele>374</ele>
        <time>2016-04-20T13:24:47Z</time>
      </trkpt>
      <trkpt lat="46.00377" lon="3.97204">
        <ele>375</ele>
        <time>2016-04-20T13:25:01Z</time>
      </trkpt>
      <trkpt lat="46.00372" lon="3.97209">
        <ele>374</ele>
        <time>2016-04-20T13:25:06Z</time>
      </trkpt>
      <trkpt lat="46.00365" lon="3.97212">
        <ele>375</ele>
        <time>2016-04-20T13:25:18Z</time>
      </trkpt>
      <trkpt lat="46.00333" lon="3.9725">
        <ele>373</ele>
        <time>2016-04-20T13:25:51Z</time>
      </trkpt>
      <trkpt lat="46.00329" lon="3.97254">
        <ele>373</ele>
        <time>2016-04-20T13:25:55Z</time>
      </trkpt>
      <trkpt lat="46.003" lon="3.97291">
        <ele>373</ele>
        <time>2016-04-20T13:26:28Z</time>
      </trkpt>
      <trkpt lat="46.00296" lon="3.97295">
        <ele>373</ele>
        <time>2016-04-20T13:26:35Z</time>
      </trkpt>
      <trkpt lat="46.00288" lon="3.97303">
        <ele>372</ele>
        <time>2016-04-20T13:26:44Z</time>
      </trkpt>
      <trkpt lat="46.00283" lon="3.97307">
        <ele>372</ele>
        <time>2016-04-20T13:26:49Z</time>
      </trkpt>
      <trkpt lat="46.00279" lon="3.97311">
        <ele>373</ele>
        <time>2016-04-20T13:26:53Z</time>
      </trkpt>
      <trkpt lat="46.00275" lon="3.97315">
        <ele>373</ele>
        <time>2016-04-20T13:26:58Z</time>
      </trkpt>
      <trkpt lat="46.00244" lon="3.97341">
        <ele>372</ele>
        <time>2016-04-20T13:27:31Z</time>
      </trkpt>
      <trkpt lat="46.0024" lon="3.97345">
        <ele>373</ele>
        <time>2016-04-20T13:27:36Z</time>
      </trkpt>
      <trkpt lat="46.00231" lon="3.97351">
        <ele>372</ele>
        <time>2016-04-20T13:27:44Z</time>
      </trkpt>
      <trkpt lat="46.00198" lon="3.97378">
        <ele>371</ele>
        <time>2016-04-20T13:28:16Z</time>
      </trkpt>
      <trkpt lat="46.00193" lon="3.97381">
        <ele>371</ele>
        <time>2016-04-20T13:28:21Z</time>
      </trkpt>
      <trkpt lat="46.00189" lon="3.97384">
        <ele>371</ele>
        <time>2016-04-20T13:28:25Z</time>
      </trkpt>
      <trkpt lat="46.00167" lon="3.97402">
        <ele>371</ele>
        <time>2016-04-20T13:28:47Z</time>
      </trkpt>
      <trkpt lat="46.00163" lon="3.97405">
        <ele>370</ele>
        <time>2016-04-20T13:28:51Z</time>
      </trkpt>
      <trkpt lat="46.00131" lon="3.97436">
        <ele>370</ele>
        <time>2016-04-20T13:29:24Z</time>
      </trkpt>
      <trkpt lat="46.00108" lon="3.97456">
        <ele>368</ele>
        <time>2016-04-20T13:29:55Z</time>
      </trkpt>
      <trkpt lat="46.0008" lon="3.97484">
        <ele>368</ele>
        <time>2016-04-20T13:30:26Z</time>
      </trkpt>
      <trkpt lat="46.00051" lon="3.97515">
        <ele>367</ele>
        <time>2016-04-20T13:30:57Z</time>
      </trkpt>
      <trkpt lat="46.00024" lon="3.97546">
        <ele>367</ele>
        <time>2016-04-20T13:31:31Z</time>
      </trkpt>
      <trkpt lat="45.99994" lon="3.97585">
        <ele>366</ele>
        <time>2016-04-20T13:32:06Z</time>
      </trkpt>
      <trkpt lat="45.99986" lon="3.97594">
        <ele>365</ele>
        <time>2016-04-20T13:32:16Z</time>
      </trkpt>
      <trkpt lat="45.99959" lon="3.97628">
        <ele>368</ele>
        <time>2016-04-20T13:32:46Z</time>
      </trkpt>
      <trkpt lat="45.99933" lon="3.97662">
        <ele>368</ele>
        <time>2016-04-20T13:33:17Z</time>
      </trkpt>
      <trkpt lat="45.99914" lon="3.97683">
        <ele>367</ele>
        <time>2016-04-20T13:33:40Z</time>
      </trkpt>
      <trkpt lat="45.99909" lon="3.97683">
        <ele>367</ele>
        <time>2016-04-20T13:33:45Z</time>
      </trkpt>
      <trkpt lat="45.99876" lon="3.97705">
        <ele>366</ele>
        <time>2016-04-20T13:34:19Z</time>
      </trkpt>
      <trkpt lat="45.99873" lon="3.97711">
        <ele>366</ele>
        <time>2016-04-20T13:34:27Z</time>
      </trkpt>
      <trkpt lat="45.99846" lon="3.97733">
        <ele>366</ele>
        <time>2016-04-20T13:34:58Z</time>
      </trkpt>
      <trkpt lat="45.99809" lon="3.97743">
        <ele>366</ele>
        <time>2016-04-20T13:35:33Z</time>
      </trkpt>
      <trkpt lat="45.99771" lon="3.97762">
        <ele>367</ele>
        <time>2016-04-20T13:36:09Z</time>
      </trkpt>
      <trkpt lat="45.99737" lon="3.97789">
        <ele>370</ele>
        <time>2016-04-20T13:36:49Z</time>
      </trkpt>
      <trkpt lat="45.99733" lon="3.97794">
        <ele>370</ele>
        <time>2016-04-20T13:36:53Z</time>
      </trkpt>
      <trkpt lat="45.99705" lon="3.97822">
        <ele>372</ele>
        <time>2016-04-20T13:37:24Z</time>
      </trkpt>
      <trkpt lat="45.99683" lon="3.9785">
        <ele>374</ele>
        <time>2016-04-20T13:37:54Z</time>
      </trkpt>
      <trkpt lat="45.99679" lon="3.97854">
        <ele>374</ele>
        <time>2016-04-20T13:37:59Z</time>
      </trkpt>
      <trkpt lat="45.99678" lon="3.97862">
        <ele>374</ele>
        <time>2016-04-20T13:38:04Z</time>
      </trkpt>
      <trkpt lat="45.99677" lon="3.97869">
        <ele>374</ele>
        <time>2016-04-20T13:38:09Z</time>
      </trkpt>
      <trkpt lat="45.99681" lon="3.97882">
        <ele>374</ele>
        <time>2016-04-20T13:38:18Z</time>
      </trkpt>
      <trkpt lat="45.9969" lon="3.97898">
        <ele>374</ele>
        <time>2016-04-20T13:38:32Z</time>
      </trkpt>
      <trkpt lat="45.99694" lon="3.97901">
        <ele>373</ele>
        <time>2016-04-20T13:38:38Z</time>
      </trkpt>
      <trkpt lat="45.997" lon="3.97914">
        <ele>373</ele>
        <time>2016-04-20T13:38:46Z</time>
      </trkpt>
      <trkpt lat="45.99699" lon="3.97922">
        <ele>373</ele>
        <time>2016-04-20T13:38:50Z</time>
      </trkpt>
      <trkpt lat="45.99704" lon="3.97942">
        <ele>373</ele>
        <time>2016-04-20T13:39:03Z</time>
      </trkpt>
      <trkpt lat="45.99712" lon="3.97952">
        <ele>373</ele>
        <time>2016-04-20T13:39:13Z</time>
      </trkpt>
      <trkpt lat="45.99717" lon="3.97955">
        <ele>373</ele>
        <time>2016-04-20T13:39:18Z</time>
      </trkpt>
      <trkpt lat="45.99719" lon="3.97958">
        <ele>372</ele>
        <time>2016-04-20T13:39:26Z</time>
      </trkpt>
      <trkpt lat="45.99717" lon="3.97965">
        <ele>372</ele>
        <time>2016-04-20T13:39:47Z</time>
      </trkpt>
      <trkpt lat="45.99714" lon="3.97969">
        <ele>373</ele>
        <time>2016-04-20T13:39:53Z</time>
      </trkpt>
      <trkpt lat="45.99709" lon="3.97985">
        <ele>373</ele>
        <time>2016-04-20T13:40:13Z</time>
      </trkpt>
      <trkpt lat="45.99706" lon="3.97997">
        <ele>375</ele>
        <time>2016-04-20T13:40:19Z</time>
      </trkpt>
      <trkpt lat="45.99709" lon="3.97998">
        <ele>375</ele>
        <time>2016-04-20T13:41:22Z</time>
      </trkpt>
      <trkpt lat="45.9971" lon="3.97992">
        <ele>374</ele>
        <time>2016-04-20T13:42:02Z</time>
      </trkpt>
      <trkpt lat="45.99711" lon="3.97988">
        <ele>374</ele>
        <time>2016-04-20T13:42:59Z</time>
      </trkpt>
      <trkpt lat="45.99709" lon="3.97992">
        <ele>375</ele>
        <time>2016-04-20T13:58:00Z</time>
      </trkpt>
      <trkpt lat="45.99704" lon="3.97991">
        <ele>375</ele>
        <time>2016-04-20T13:58:21Z</time>
      </trkpt>
      <trkpt lat="45.99705" lon="3.97998">
        <ele>379</ele>
        <time>2016-04-20T13:58:28Z</time>
      </trkpt>
      <trkpt lat="45.99705" lon="3.98001">
        <ele>379</ele>
        <time>2016-04-20T13:58:50Z</time>
      </trkpt>
      <trkpt lat="45.99707" lon="3.98006">
        <ele>382</ele>
        <time>2016-04-20T13:59:05Z</time>
      </trkpt>
      <trkpt lat="45.99708" lon="3.98017">
        <ele>379</ele>
        <time>2016-04-20T13:59:19Z</time>
      </trkpt>
      <trkpt lat="45.99713" lon="3.98019">
        <ele>378</ele>
        <time>2016-04-20T13:59:23Z</time>
      </trkpt>
      <trkpt lat="45.9972" lon="3.9803">
        <ele>378</ele>
        <time>2016-04-20T13:59:30Z</time>
      </trkpt>
      <trkpt lat="45.99715" lon="3.98033">
        <ele>378</ele>
        <time>2016-04-20T14:00:10Z</time>
      </trkpt>
      <trkpt lat="45.99706" lon="3.98026">
        <ele>378</ele>
        <time>2016-04-20T14:00:15Z</time>
      </trkpt>
      <trkpt lat="45.99703" lon="3.98019">
        <ele>378</ele>
        <time>2016-04-20T14:00:29Z</time>
      </trkpt>
      <trkpt lat="45.997" lon="3.98015">
        <ele>378</ele>
        <time>2016-04-20T14:00:38Z</time>
      </trkpt>
      <trkpt lat="45.99699" lon="3.98024">
        <ele>378</ele>
        <time>2016-04-20T14:00:48Z</time>
      </trkpt>
      <trkpt lat="45.99699" lon="3.98032">
        <ele>377</ele>
        <time>2016-04-20T14:00:53Z</time>
      </trkpt>
      <trkpt lat="45.99699" lon="3.98039">
        <ele>374</ele>
        <time>2016-04-20T14:00:58Z</time>
      </trkpt>
      <trkpt lat="45.99696" lon="3.98045">
        <ele>373</ele>
        <time>2016-04-20T14:01:02Z</time>
      </trkpt>
      <trkpt lat="45.99694" lon="3.98051">
        <ele>373</ele>
        <time>2016-04-20T14:01:05Z</time>
      </trkpt>
      <trkpt lat="45.99682" lon="3.98091">
        <ele>378</ele>
        <time>2016-04-20T14:01:31Z</time>
      </trkpt>
      <trkpt lat="45.99664" lon="3.98114">
        <ele>378</ele>
        <time>2016-04-20T14:01:56Z</time>
      </trkpt>
      <trkpt lat="45.99657" lon="3.98124">
        <ele>374</ele>
        <time>2016-04-20T14:02:08Z</time>
      </trkpt>
      <trkpt lat="45.99645" lon="3.98134">
        <ele>373</ele>
        <time>2016-04-20T14:02:21Z</time>
      </trkpt>
      <trkpt lat="45.9964" lon="3.98137">
        <ele>374</ele>
        <time>2016-04-20T14:02:27Z</time>
      </trkpt>
      <trkpt lat="45.99635" lon="3.98139">
        <ele>374</ele>
        <time>2016-04-20T14:02:33Z</time>
      </trkpt>
      <trkpt lat="45.99628" lon="3.98148">
        <ele>374</ele>
        <time>2016-04-20T14:02:47Z</time>
      </trkpt>
      <trkpt lat="45.99603" lon="3.98162">
        <ele>375</ele>
        <time>2016-04-20T14:03:20Z</time>
      </trkpt>
      <trkpt lat="45.99573" lon="3.9818">
        <ele>376</ele>
        <time>2016-04-20T14:03:53Z</time>
      </trkpt>
      <trkpt lat="45.99546" lon="3.98194">
        <ele>377</ele>
        <time>2016-04-20T14:04:28Z</time>
      </trkpt>
      <trkpt lat="45.99508" lon="3.98219">
        <ele>377</ele>
        <time>2016-04-20T14:05:01Z</time>
      </trkpt>
      <trkpt lat="45.99487" lon="3.98224">
        <ele>377</ele>
        <time>2016-04-20T14:05:24Z</time>
      </trkpt>
      <trkpt lat="45.99452" lon="3.98259">
        <ele>376</ele>
        <time>2016-04-20T14:05:58Z</time>
      </trkpt>
      <trkpt lat="45.9942" lon="3.9828">
        <ele>376</ele>
        <time>2016-04-20T14:06:31Z</time>
      </trkpt>
      <trkpt lat="45.99389" lon="3.98302">
        <ele>375</ele>
        <time>2016-04-20T14:07:01Z</time>
      </trkpt>
      <trkpt lat="45.99359" lon="3.98329">
        <ele>375</ele>
        <time>2016-04-20T14:07:34Z</time>
      </trkpt>
      <trkpt lat="45.9933" lon="3.98356">
        <ele>373</ele>
        <time>2016-04-20T14:08:06Z</time>
      </trkpt>
      <trkpt lat="45.99316" lon="3.98362">
        <ele>372</ele>
        <time>2016-04-20T14:08:27Z</time>
      </trkpt>
      <trkpt lat="45.9931" lon="3.98363">
        <ele>372</ele>
        <time>2016-04-20T14:08:32Z</time>
      </trkpt>
      <trkpt lat="45.99302" lon="3.98365">
        <ele>372</ele>
        <time>2016-04-20T14:08:54Z</time>
      </trkpt>
      <trkpt lat="45.993" lon="3.98361">
        <ele>372</ele>
        <time>2016-04-20T14:09:01Z</time>
      </trkpt>
      <trkpt lat="45.99294" lon="3.98368">
        <ele>374</ele>
        <time>2016-04-20T14:20:01Z</time>
      </trkpt>
      <trkpt lat="45.99296" lon="3.98364">
        <ele>379</ele>
        <time>2016-04-20T14:25:18Z</time>
      </trkpt>
      <trkpt lat="45.99293" lon="3.98358">
        <ele>379</ele>
        <time>2016-04-20T14:25:55Z</time>
      </trkpt>
      <trkpt lat="45.9929" lon="3.98353">
        <ele>380</ele>
        <time>2016-04-20T14:26:00Z</time>
      </trkpt>
      <trkpt lat="45.99288" lon="3.98347">
        <ele>380</ele>
        <time>2016-04-20T14:26:08Z</time>
      </trkpt>
      <trkpt lat="45.99284" lon="3.98335">
        <ele>379</ele>
        <time>2016-04-20T14:26:16Z</time>
      </trkpt>
      <trkpt lat="45.99281" lon="3.98328">
        <ele>378</ele>
        <time>2016-04-20T14:26:20Z</time>
      </trkpt>
      <trkpt lat="45.99283" lon="3.98322">
        <ele>378</ele>
        <time>2016-04-20T14:26:25Z</time>
      </trkpt>
      <trkpt lat="45.99287" lon="3.98317">
        <ele>379</ele>
        <time>2016-04-20T14:26:29Z</time>
      </trkpt>
      <trkpt lat="45.9929" lon="3.98311">
        <ele>379</ele>
        <time>2016-04-20T14:26:33Z</time>
      </trkpt>
      <trkpt lat="45.99293" lon="3.98306">
        <ele>378</ele>
        <time>2016-04-20T14:26:37Z</time>
      </trkpt>
      <trkpt lat="45.99295" lon="3.983">
        <ele>378</ele>
        <time>2016-04-20T14:26:42Z</time>
      </trkpt>
      <trkpt lat="45.99298" lon="3.98293">
        <ele>377</ele>
        <time>2016-04-20T14:26:46Z</time>
      </trkpt>
      <trkpt lat="45.99299" lon="3.98285">
        <ele>377</ele>
        <time>2016-04-20T14:26:50Z</time>
      </trkpt>
      <trkpt lat="45.99297" lon="3.98277">
        <ele>378</ele>
        <time>2016-04-20T14:26:54Z</time>
      </trkpt>
      <trkpt lat="45.9929" lon="3.98266">
        <ele>380</ele>
        <time>2016-04-20T14:27:02Z</time>
      </trkpt>
      <trkpt lat="45.99286" lon="3.98261">
        <ele>380</ele>
        <time>2016-04-20T14:27:06Z</time>
      </trkpt>
      <trkpt lat="45.99277" lon="3.98244">
        <ele>379</ele>
        <time>2016-04-20T14:27:18Z</time>
      </trkpt>
      <trkpt lat="45.99271" lon="3.98219">
        <ele>380</ele>
        <time>2016-04-20T14:27:35Z</time>
      </trkpt>
      <trkpt lat="45.9927" lon="3.98212">
        <ele>380</ele>
        <time>2016-04-20T14:27:40Z</time>
      </trkpt>
      <trkpt lat="45.99271" lon="3.98205">
        <ele>380</ele>
        <time>2016-04-20T14:27:45Z</time>
      </trkpt>
      <trkpt lat="45.99274" lon="3.982">
        <ele>379</ele>
        <time>2016-04-20T14:28:07Z</time>
      </trkpt>
      <trkpt lat="45.99275" lon="3.98193">
        <ele>378</ele>
        <time>2016-04-20T14:28:11Z</time>
      </trkpt>
      <trkpt lat="45.99275" lon="3.98186">
        <ele>378</ele>
        <time>2016-04-20T14:28:17Z</time>
      </trkpt>
      <trkpt lat="45.99275" lon="3.98136">
        <ele>379</ele>
        <time>2016-04-20T14:28:48Z</time>
      </trkpt>
      <trkpt lat="45.99274" lon="3.98129">
        <ele>379</ele>
        <time>2016-04-20T14:28:52Z</time>
      </trkpt>
      <trkpt lat="45.99263" lon="3.98096">
        <ele>380</ele>
        <time>2016-04-20T14:29:15Z</time>
      </trkpt>
      <trkpt lat="45.99258" lon="3.98094">
        <ele>381</ele>
        <time>2016-04-20T14:29:21Z</time>
      </trkpt>
      <trkpt lat="45.99223" lon="3.98102">
        <ele>378</ele>
        <time>2016-04-20T14:29:54Z</time>
      </trkpt>
      <trkpt lat="45.99188" lon="3.98103">
        <ele>375</ele>
        <time>2016-04-20T14:30:25Z</time>
      </trkpt>
      <trkpt lat="45.99169" lon="3.98108">
        <ele>373</ele>
        <time>2016-04-20T14:30:47Z</time>
      </trkpt>
      <trkpt lat="45.99159" lon="3.98111">
        <ele>373</ele>
        <time>2016-04-20T14:30:57Z</time>
      </trkpt>
      <trkpt lat="45.99154" lon="3.98109">
        <ele>373</ele>
        <time>2016-04-20T14:31:02Z</time>
      </trkpt>
      <trkpt lat="45.99145" lon="3.98108">
        <ele>373</ele>
        <time>2016-04-20T14:31:15Z</time>
      </trkpt>
      <trkpt lat="45.99145" lon="3.981">
        <ele>373</ele>
        <time>2016-04-20T14:31:20Z</time>
      </trkpt>
      <trkpt lat="45.99143" lon="3.98094">
        <ele>374</ele>
        <time>2016-04-20T14:31:23Z</time>
      </trkpt>
      <trkpt lat="45.99139" lon="3.9809">
        <ele>375</ele>
        <time>2016-04-20T14:31:28Z</time>
      </trkpt>
      <trkpt lat="45.99133" lon="3.98088">
        <ele>375</ele>
        <time>2016-04-20T14:32:03Z</time>
      </trkpt>
      <trkpt lat="45.99107" lon="3.98097">
        <ele>370</ele>
        <time>2016-04-20T14:32:27Z</time>
      </trkpt>
      <trkpt lat="45.99102" lon="3.98096">
        <ele>370</ele>
        <time>2016-04-20T14:32:32Z</time>
      </trkpt>
      <trkpt lat="45.99098" lon="3.98094">
        <ele>371</ele>
        <time>2016-04-20T14:32:41Z</time>
      </trkpt>
      <trkpt lat="45.99094" lon="3.9809">
        <ele>371</ele>
        <time>2016-04-20T14:32:48Z</time>
      </trkpt>
      <trkpt lat="45.99089" lon="3.98088">
        <ele>371</ele>
        <time>2016-04-20T14:32:52Z</time>
      </trkpt>
      <trkpt lat="45.9908" lon="3.98085">
        <ele>372</ele>
        <time>2016-04-20T14:32:59Z</time>
      </trkpt>
      <trkpt lat="45.99075" lon="3.98083">
        <ele>372</ele>
        <time>2016-04-20T14:33:04Z</time>
      </trkpt>
      <trkpt lat="45.99064" lon="3.9808">
        <ele>372</ele>
        <time>2016-04-20T14:33:12Z</time>
      </trkpt>
      <trkpt lat="45.99059" lon="3.98079">
        <ele>373</ele>
        <time>2016-04-20T14:33:16Z</time>
      </trkpt>
      <trkpt lat="45.99044" lon="3.98075">
        <ele>373</ele>
        <time>2016-04-20T14:33:31Z</time>
      </trkpt>
      <trkpt lat="45.99009" lon="3.98066">
        <ele>372</ele>
        <time>2016-04-20T14:33:57Z</time>
      </trkpt>
      <trkpt lat="45.98972" lon="3.98057">
        <ele>373</ele>
        <time>2016-04-20T14:34:28Z</time>
      </trkpt>
      <trkpt lat="45.98962" lon="3.98057">
        <ele>374</ele>
        <time>2016-04-20T14:34:37Z</time>
      </trkpt>
      <trkpt lat="45.98931" lon="3.98052">
        <ele>374</ele>
        <time>2016-04-20T14:35:08Z</time>
      </trkpt>
      <trkpt lat="45.98917" lon="3.9805">
        <ele>374</ele>
        <time>2016-04-20T14:35:21Z</time>
      </trkpt>
      <trkpt lat="45.98901" lon="3.98051">
        <ele>374</ele>
        <time>2016-04-20T14:35:33Z</time>
      </trkpt>
      <trkpt lat="45.98863" lon="3.98046">
        <ele>372</ele>
        <time>2016-04-20T14:36:06Z</time>
      </trkpt>
      <trkpt lat="45.98848" lon="3.98042">
        <ele>370</ele>
        <time>2016-04-20T14:36:20Z</time>
      </trkpt>
      <trkpt lat="45.98815" lon="3.98023">
        <ele>369</ele>
        <time>2016-04-20T14:36:51Z</time>
      </trkpt>
      <trkpt lat="45.98778" lon="3.98006">
        <ele>368</ele>
        <time>2016-04-20T14:37:24Z</time>
      </trkpt>
      <trkpt lat="45.98755" lon="3.97996">
        <ele>367</ele>
        <time>2016-04-20T14:37:48Z</time>
      </trkpt>
      <trkpt lat="45.9875" lon="3.97998">
        <ele>367</ele>
        <time>2016-04-20T14:37:53Z</time>
      </trkpt>
      <trkpt lat="45.98714" lon="3.97988">
        <ele>366</ele>
        <time>2016-04-20T14:38:28Z</time>
      </trkpt>
      <trkpt lat="45.98678" lon="3.97986">
        <ele>365</ele>
        <time>2016-04-20T14:39:01Z</time>
      </trkpt>
      <trkpt lat="45.98648" lon="3.97986">
        <ele>364</ele>
        <time>2016-04-20T14:39:31Z</time>
      </trkpt>
      <trkpt lat="45.98622" lon="3.97997">
        <ele>365</ele>
        <time>2016-04-20T14:40:00Z</time>
      </trkpt>
      <trkpt lat="45.98588" lon="3.98011">
        <ele>366</ele>
        <time>2016-04-20T14:40:32Z</time>
      </trkpt>
      <trkpt lat="45.98551" lon="3.98026">
        <ele>368</ele>
        <time>2016-04-20T14:41:06Z</time>
      </trkpt>
      <trkpt lat="45.98527" lon="3.98037">
        <ele>367</ele>
        <time>2016-04-20T14:41:29Z</time>
      </trkpt>
      <trkpt lat="45.98492" lon="3.98054">
        <ele>370</ele>
        <time>2016-04-20T14:42:03Z</time>
      </trkpt>
      <trkpt lat="45.98465" lon="3.98067">
        <ele>372</ele>
        <time>2016-04-20T14:43:29Z</time>
      </trkpt>
      <trkpt lat="45.98459" lon="3.98069">
        <ele>373</ele>
        <time>2016-04-20T14:43:34Z</time>
      </trkpt>
      <trkpt lat="45.98422" lon="3.98086">
        <ele>372</ele>
        <time>2016-04-20T14:44:07Z</time>
      </trkpt>
      <trkpt lat="45.98408" lon="3.98091">
        <ele>372</ele>
        <time>2016-04-20T14:44:19Z</time>
      </trkpt>
      <trkpt lat="45.98398" lon="3.98094">
        <ele>372</ele>
        <time>2016-04-20T14:44:28Z</time>
      </trkpt>
      <trkpt lat="45.98384" lon="3.981">
        <ele>372</ele>
        <time>2016-04-20T14:44:41Z</time>
      </trkpt>
      <trkpt lat="45.98379" lon="3.98101">
        <ele>372</ele>
        <time>2016-04-20T14:44:45Z</time>
      </trkpt>
      <trkpt lat="45.9837" lon="3.98105">
        <ele>372</ele>
        <time>2016-04-20T14:44:53Z</time>
      </trkpt>
      <trkpt lat="45.98352" lon="3.98114">
        <ele>372</ele>
        <time>2016-04-20T14:45:10Z</time>
      </trkpt>
      <trkpt lat="45.98348" lon="3.98116">
        <ele>371</ele>
        <time>2016-04-20T14:45:14Z</time>
      </trkpt>
      <trkpt lat="45.98313" lon="3.98145">
        <ele>369</ele>
        <time>2016-04-20T14:45:48Z</time>
      </trkpt>
      <trkpt lat="45.9829" lon="3.9819">
        <ele>368</ele>
        <time>2016-04-20T14:46:21Z</time>
      </trkpt>
      <trkpt lat="45.98266" lon="3.98227">
        <ele>366</ele>
        <time>2016-04-20T14:46:52Z</time>
      </trkpt>
      <trkpt lat="45.98235" lon="3.98253">
        <ele>364</ele>
        <time>2016-04-20T14:47:26Z</time>
      </trkpt>
      <trkpt lat="45.98231" lon="3.98254">
        <ele>363</ele>
        <time>2016-04-20T14:47:31Z</time>
      </trkpt>
      <trkpt lat="45.98216" lon="3.98251">
        <ele>363</ele>
        <time>2016-04-20T14:47:52Z</time>
      </trkpt>
      <trkpt lat="45.98189" lon="3.9823">
        <ele>361</ele>
        <time>2016-04-20T14:48:22Z</time>
      </trkpt>
      <trkpt lat="45.98168" lon="3.98197">
        <ele>359</ele>
        <time>2016-04-20T14:48:52Z</time>
      </trkpt>
      <trkpt lat="45.98144" lon="3.98156">
        <ele>357</ele>
        <time>2016-04-20T14:49:26Z</time>
      </trkpt>
      <trkpt lat="45.98109" lon="3.98129">
        <ele>355</ele>
        <time>2016-04-20T14:49:58Z</time>
      </trkpt>
      <trkpt lat="45.98076" lon="3.98117">
        <ele>353</ele>
        <time>2016-04-20T14:50:33Z</time>
      </trkpt>
      <trkpt lat="45.98062" lon="3.98111">
        <ele>353</ele>
        <time>2016-04-20T14:50:57Z</time>
      </trkpt>
      <trkpt lat="45.98049" lon="3.98102">
        <ele>352</ele>
        <time>2016-04-20T14:51:14Z</time>
      </trkpt>
      <trkpt lat="45.98045" lon="3.98098">
        <ele>352</ele>
        <time>2016-04-20T14:51:19Z</time>
      </trkpt>
      <trkpt lat="45.98026" lon="3.98068">
        <ele>353</ele>
        <time>2016-04-20T14:51:51Z</time>
      </trkpt>
      <trkpt lat="45.98025" lon="3.98061">
        <ele>354</ele>
        <time>2016-04-20T14:51:58Z</time>
      </trkpt>
      <trkpt lat="45.98015" lon="3.98017">
        <ele>356</ele>
        <time>2016-04-20T14:52:30Z</time>
      </trkpt>
      <trkpt lat="45.98006" lon="3.97967">
        <ele>357</ele>
        <time>2016-04-20T14:53:03Z</time>
      </trkpt>
      <trkpt lat="45.98" lon="3.9792">
        <ele>358</ele>
        <time>2016-04-20T14:53:34Z</time>
      </trkpt>
      <trkpt lat="45.97977" lon="3.97879">
        <ele>358</ele>
        <time>2016-04-20T14:54:04Z</time>
      </trkpt>
      <trkpt lat="45.9796" lon="3.9785">
        <ele>358</ele>
        <time>2016-04-20T14:54:35Z</time>
      </trkpt>
      <trkpt lat="45.97932" lon="3.97811">
        <ele>358</ele>
        <time>2016-04-20T14:55:09Z</time>
      </trkpt>
      <trkpt lat="45.97901" lon="3.97787">
        <ele>359</ele>
        <time>2016-04-20T14:55:42Z</time>
      </trkpt>
      <trkpt lat="45.97898" lon="3.97787">
        <ele>359</ele>
        <time>2016-04-20T14:55:48Z</time>
      </trkpt>
      <trkpt lat="45.97895" lon="3.97793">
        <ele>360</ele>
        <time>2016-04-20T14:56:06Z</time>
      </trkpt>
      <trkpt lat="45.97891" lon="3.97798">
        <ele>360</ele>
        <time>2016-04-20T14:56:11Z</time>
      </trkpt>
      <trkpt lat="45.97885" lon="3.97817">
        <ele>360</ele>
        <time>2016-04-20T14:56:27Z</time>
      </trkpt>
      <trkpt lat="45.97884" lon="3.97822">
        <ele>361</ele>
        <time>2016-04-20T14:56:36Z</time>
      </trkpt>
      <trkpt lat="45.97878" lon="3.97836">
        <ele>362</ele>
        <time>2016-04-20T14:56:54Z</time>
      </trkpt>
      <trkpt lat="45.97874" lon="3.9784">
        <ele>362</ele>
        <time>2016-04-20T14:57:00Z</time>
      </trkpt>
      <trkpt lat="45.97869" lon="3.97841">
        <ele>363</ele>
        <time>2016-04-20T14:57:06Z</time>
      </trkpt>
      <trkpt lat="45.97865" lon="3.97838">
        <ele>363</ele>
        <time>2016-04-20T14:57:12Z</time>
      </trkpt>
      <trkpt lat="45.97863" lon="3.97831">
        <ele>364</ele>
        <time>2016-04-20T14:57:19Z</time>
      </trkpt>
      <trkpt lat="45.97861" lon="3.97817">
        <ele>366</ele>
        <time>2016-04-20T14:57:31Z</time>
      </trkpt>
      <trkpt lat="45.97857" lon="3.97813">
        <ele>367</ele>
        <time>2016-04-20T14:57:36Z</time>
      </trkpt>
      <trkpt lat="45.97848" lon="3.97808">
        <ele>369</ele>
        <time>2016-04-20T14:57:49Z</time>
      </trkpt>
      <trkpt lat="45.97833" lon="3.97812">
        <ele>369</ele>
        <time>2016-04-20T14:58:07Z</time>
      </trkpt>
      <trkpt lat="45.97828" lon="3.9781">
        <ele>369</ele>
        <time>2016-04-20T14:58:12Z</time>
      </trkpt>
      <trkpt lat="45.97823" lon="3.97811">
        <ele>370</ele>
        <time>2016-04-20T14:58:18Z</time>
      </trkpt>
      <trkpt lat="45.978" lon="3.97837">
        <ele>373</ele>
        <time>2016-04-20T14:58:50Z</time>
      </trkpt>
      <trkpt lat="45.9778" lon="3.97866">
        <ele>375</ele>
        <time>2016-04-20T14:59:22Z</time>
      </trkpt>
      <trkpt lat="45.97772" lon="3.97873">
        <ele>376</ele>
        <time>2016-04-20T14:59:31Z</time>
      </trkpt>
      <trkpt lat="45.9776" lon="3.97873">
        <ele>378</ele>
        <time>2016-04-20T14:59:56Z</time>
      </trkpt>
      <trkpt lat="45.97754" lon="3.97871">
        <ele>378</ele>
        <time>2016-04-20T15:00:09Z</time>
      </trkpt>
      <trkpt lat="45.9775" lon="3.97871">
        <ele>379</ele>
        <time>2016-04-20T15:00:13Z</time>
      </trkpt>
      <trkpt lat="45.97745" lon="3.97872">
        <ele>379</ele>
        <time>2016-04-20T15:00:17Z</time>
      </trkpt>
      <trkpt lat="45.9771" lon="3.97871">
        <ele>383</ele>
        <time>2016-04-20T15:00:51Z</time>
      </trkpt>
      <trkpt lat="45.97688" lon="3.97869">
        <ele>385</ele>
        <time>2016-04-20T15:01:32Z</time>
      </trkpt>
      <trkpt lat="45.97669" lon="3.97874">
        <ele>385</ele>
        <time>2016-04-20T15:01:50Z</time>
      </trkpt>
      <trkpt lat="45.97664" lon="3.97875">
        <ele>385</ele>
        <time>2016-04-20T15:01:55Z</time>
      </trkpt>
      <trkpt lat="45.97649" lon="3.97878">
        <ele>385</ele>
        <time>2016-04-20T15:02:09Z</time>
      </trkpt>
      <trkpt lat="45.97644" lon="3.97879">
        <ele>385</ele>
        <time>2016-04-20T15:02:15Z</time>
      </trkpt>
      <trkpt lat="45.9762" lon="3.97886">
        <ele>385</ele>
        <time>2016-04-20T15:02:44Z</time>
      </trkpt>
      <trkpt lat="45.97618" lon="3.97884">
        <ele>385</ele>
        <time>2016-04-20T15:03:29Z</time>
      </trkpt>
      <trkpt lat="45.97615" lon="3.97885">
        <ele>385</ele>
        <time>2016-04-20T15:03:36Z</time>
      </trkpt>
      <trkpt lat="45.97586" lon="3.97889">
        <ele>383</ele>
        <time>2016-04-20T15:04:11Z</time>
      </trkpt>
      <trkpt lat="45.97581" lon="3.97892">
        <ele>384</ele>
        <time>2016-04-20T15:04:17Z</time>
      </trkpt>
      <trkpt lat="45.97577" lon="3.97897">
        <ele>384</ele>
        <time>2016-04-20T15:04:21Z</time>
      </trkpt>
      <trkpt lat="45.97552" lon="3.97904">
        <ele>383</ele>
        <time>2016-04-20T15:04:52Z</time>
      </trkpt>
      <trkpt lat="45.97549" lon="3.97906">
        <ele>383</ele>
        <time>2016-04-20T15:04:59Z</time>
      </trkpt>
      <trkpt lat="45.97547" lon="3.97912">
        <ele>383</ele>
        <time>2016-04-20T15:05:14Z</time>
      </trkpt>
      <trkpt lat="45.97541" lon="3.97913">
        <ele>385</ele>
        <time>2016-04-20T15:05:22Z</time>
      </trkpt>
      <trkpt lat="45.97536" lon="3.97914">
        <ele>385</ele>
        <time>2016-04-20T15:05:26Z</time>
      </trkpt>
      <trkpt lat="45.97518" lon="3.97928">
        <ele>381</ele>
        <time>2016-04-20T15:05:44Z</time>
      </trkpt>
      <trkpt lat="45.97511" lon="3.97938">
        <ele>381</ele>
        <time>2016-04-20T15:05:54Z</time>
      </trkpt>
      <trkpt lat="45.97501" lon="3.97954">
        <ele>381</ele>
        <time>2016-04-20T15:06:09Z</time>
      </trkpt>
      <trkpt lat="45.97482" lon="3.97988">
        <ele>383</ele>
        <time>2016-04-20T15:06:39Z</time>
      </trkpt>
      <trkpt lat="45.9748" lon="3.98002">
        <ele>385</ele>
        <time>2016-04-20T15:06:49Z</time>
      </trkpt>
      <trkpt lat="45.97476" lon="3.98015">
        <ele>386</ele>
        <time>2016-04-20T15:06:57Z</time>
      </trkpt>
      <trkpt lat="45.97472" lon="3.98028">
        <ele>386</ele>
        <time>2016-04-20T15:07:06Z</time>
      </trkpt>
      <trkpt lat="45.97466" lon="3.98056">
        <ele>387</ele>
        <time>2016-04-20T15:07:25Z</time>
      </trkpt>
      <trkpt lat="45.9746" lon="3.98104">
        <ele>387</ele>
        <time>2016-04-20T15:07:56Z</time>
      </trkpt>
      <trkpt lat="45.97459" lon="3.98157">
        <ele>389</ele>
        <time>2016-04-20T15:08:27Z</time>
      </trkpt>
      <trkpt lat="45.97458" lon="3.98202">
        <ele>391</ele>
        <time>2016-04-20T15:09:00Z</time>
      </trkpt>
      <trkpt lat="45.97457" lon="3.98259">
        <ele>391</ele>
        <time>2016-04-20T15:09:33Z</time>
      </trkpt>
      <trkpt lat="45.97455" lon="3.98266">
        <ele>391</ele>
        <time>2016-04-20T15:09:38Z</time>
      </trkpt>
      <trkpt lat="45.97451" lon="3.98277">
        <ele>391</ele>
        <time>2016-04-20T15:10:12Z</time>
      </trkpt>
      <trkpt lat="45.97444" lon="3.98321">
        <ele>391</ele>
        <time>2016-04-20T15:10:44Z</time>
      </trkpt>
      <trkpt lat="45.97442" lon="3.98335">
        <ele>391</ele>
        <time>2016-04-20T15:10:54Z</time>
      </trkpt>
      <trkpt lat="45.9744" lon="3.98332">
        <ele>391</ele>
        <time>2016-04-20T15:11:35Z</time>
      </trkpt>
      <trkpt lat="45.97438" lon="3.9834">
        <ele>392</ele>
        <time>2016-04-20T15:11:59Z</time>
      </trkpt>
      <trkpt lat="45.9743" lon="3.98367">
        <ele>392</ele>
        <time>2016-04-20T15:12:34Z</time>
      </trkpt>
      <trkpt lat="45.97429" lon="3.98374">
        <ele>393</ele>
        <time>2016-04-20T15:12:39Z</time>
      </trkpt>
      <trkpt lat="45.97427" lon="3.98379">
        <ele>393</ele>
        <time>2016-04-20T15:12:44Z</time>
      </trkpt>
      <trkpt lat="45.97424" lon="3.98392">
        <ele>396</ele>
        <time>2016-04-20T15:12:54Z</time>
      </trkpt>
      <trkpt lat="45.97419" lon="3.98404">
        <ele>396</ele>
        <time>2016-04-20T15:13:03Z</time>
      </trkpt>
      <trkpt lat="45.97418" lon="3.9841">
        <ele>395</ele>
        <time>2016-04-20T15:13:17Z</time>
      </trkpt>
      <trkpt lat="45.97407" lon="3.98444">
        <ele>397</ele>
        <time>2016-04-20T15:13:42Z</time>
      </trkpt>
      <trkpt lat="45.97406" lon="3.98451">
        <ele>397</ele>
        <time>2016-04-20T15:13:47Z</time>
      </trkpt>
      <trkpt lat="45.97404" lon="3.98457">
        <ele>397</ele>
        <time>2016-04-20T15:13:51Z</time>
      </trkpt>
      <trkpt lat="45.97403" lon="3.98464">
        <ele>398</ele>
        <time>2016-04-20T15:13:56Z</time>
      </trkpt>
      <trkpt lat="45.97396" lon="3.98491">
        <ele>398</ele>
        <time>2016-04-20T15:14:17Z</time>
      </trkpt>
      <trkpt lat="45.97395" lon="3.98497">
        <ele>398</ele>
        <time>2016-04-20T15:14:26Z</time>
      </trkpt>
      <trkpt lat="45.97392" lon="3.98503">
        <ele>398</ele>
        <time>2016-04-20T15:14:33Z</time>
      </trkpt>
      <trkpt lat="45.97384" lon="3.98538">
        <ele>399</ele>
        <time>2016-04-20T15:14:59Z</time>
      </trkpt>
      <trkpt lat="45.97373" lon="3.98587">
        <ele>398</ele>
        <time>2016-04-20T15:15:30Z</time>
      </trkpt>
      <trkpt lat="45.97358" lon="3.9864">
        <ele>398</ele>
        <time>2016-04-20T15:16:03Z</time>
      </trkpt>
      <trkpt lat="45.97348" lon="3.98674">
        <ele>398</ele>
        <time>2016-04-20T15:16:32Z</time>
      </trkpt>
      <trkpt lat="45.97345" lon="3.98673">
        <ele>398</ele>
        <time>2016-04-20T15:16:40Z</time>
      </trkpt>
      <trkpt lat="45.97343" lon="3.98679">
        <ele>399</ele>
        <time>2016-04-20T15:16:44Z</time>
      </trkpt>
      <trkpt lat="45.97336" lon="3.98705">
        <ele>399</ele>
        <time>2016-04-20T15:17:03Z</time>
      </trkpt>
      <trkpt lat="45.97335" lon="3.98712">
        <ele>399</ele>
        <time>2016-04-20T15:17:08Z</time>
      </trkpt>
      <trkpt lat="45.97332" lon="3.98761">
        <ele>396</ele>
        <time>2016-04-20T15:17:42Z</time>
      </trkpt>
      <trkpt lat="45.97323" lon="3.9881">
        <ele>394</ele>
        <time>2016-04-20T15:18:16Z</time>
      </trkpt>
      <trkpt lat="45.97316" lon="3.98858">
        <ele>394</ele>
        <time>2016-04-20T15:18:51Z</time>
      </trkpt>
      <trkpt lat="45.97306" lon="3.98907">
        <ele>393</ele>
        <time>2016-04-20T15:19:25Z</time>
      </trkpt>
      <trkpt lat="45.97294" lon="3.98948">
        <ele>394</ele>
        <time>2016-04-20T15:19:56Z</time>
      </trkpt>
      <trkpt lat="45.97279" lon="3.9899">
        <ele>394</ele>
        <time>2016-04-20T15:20:30Z</time>
      </trkpt>
      <trkpt lat="45.97262" lon="3.99028">
        <ele>393</ele>
        <time>2016-04-20T15:21:01Z</time>
      </trkpt>
      <trkpt lat="45.9724" lon="3.99067">
        <ele>393</ele>
        <time>2016-04-20T15:21:38Z</time>
      </trkpt>
      <trkpt lat="45.97222" lon="3.99094">
        <ele>394</ele>
        <time>2016-04-20T15:22:05Z</time>
      </trkpt>
      <trkpt lat="45.9722" lon="3.99093">
        <ele>394</ele>
        <time>2016-04-20T15:22:29Z</time>
      </trkpt>
      <trkpt lat="45.97219" lon="3.99088">
        <ele>394</ele>
        <time>2016-04-20T15:23:04Z</time>
      </trkpt>
      <trkpt lat="45.97215" lon="3.99092">
        <ele>394</ele>
        <time>2016-04-20T15:23:10Z</time>
      </trkpt>
      <trkpt lat="45.9719" lon="3.99129">
        <ele>394</ele>
        <time>2016-04-20T15:23:45Z</time>
      </trkpt>
      <trkpt lat="45.97166" lon="3.99168">
        <ele>394</ele>
        <time>2016-04-20T15:24:19Z</time>
      </trkpt>
      <trkpt lat="45.97147" lon="3.99218">
        <ele>395</ele>
        <time>2016-04-20T15:24:53Z</time>
      </trkpt>
      <trkpt lat="45.97129" lon="3.99254">
        <ele>397</ele>
        <time>2016-04-20T15:25:24Z</time>
      </trkpt>
      <trkpt lat="45.97106" lon="3.99296">
        <ele>399</ele>
        <time>2016-04-20T15:26:05Z</time>
      </trkpt>
      <trkpt lat="45.97099" lon="3.99306">
        <ele>400</ele>
        <time>2016-04-20T15:26:14Z</time>
      </trkpt>
      <trkpt lat="45.97083" lon="3.99351">
        <ele>399</ele>
        <time>2016-04-20T15:26:48Z</time>
      </trkpt>
      <trkpt lat="45.97062" lon="3.99392">
        <ele>398</ele>
        <time>2016-04-20T15:27:21Z</time>
      </trkpt>
      <trkpt lat="45.97059" lon="3.99397">
        <ele>397</ele>
        <time>2016-04-20T15:27:26Z</time>
      </trkpt>
      <trkpt lat="45.97056" lon="3.99403">
        <ele>397</ele>
        <time>2016-04-20T15:27:31Z</time>
      </trkpt>
      <trkpt lat="45.97038" lon="3.99446">
        <ele>396</ele>
        <time>2016-04-20T15:28:02Z</time>
      </trkpt>
      <trkpt lat="45.97022" lon="3.99489">
        <ele>396</ele>
        <time>2016-04-20T15:28:37Z</time>
      </trkpt>
      <trkpt lat="45.97006" lon="3.99528">
        <ele>395</ele>
        <time>2016-04-20T15:29:07Z</time>
      </trkpt>
      <trkpt lat="45.96988" lon="3.9957">
        <ele>395</ele>
        <time>2016-04-20T15:29:38Z</time>
      </trkpt>
      <trkpt lat="45.96981" lon="3.99582">
        <ele>395</ele>
        <time>2016-04-20T15:29:47Z</time>
      </trkpt>
      <trkpt lat="45.96979" lon="3.99588">
        <ele>395</ele>
        <time>2016-04-20T15:29:51Z</time>
      </trkpt>
      <trkpt lat="45.96959" lon="3.99631">
        <ele>395</ele>
        <time>2016-04-20T15:30:24Z</time>
      </trkpt>
      <trkpt lat="45.9694" lon="3.99672">
        <ele>397</ele>
        <time>2016-04-20T15:30:58Z</time>
      </trkpt>
      <trkpt lat="45.96922" lon="3.99715">
        <ele>397</ele>
        <time>2016-04-20T15:31:30Z</time>
      </trkpt>
      <trkpt lat="45.96909" lon="3.99747">
        <ele>396</ele>
        <time>2016-04-20T15:32:00Z</time>
      </trkpt>
      <trkpt lat="45.96907" lon="3.99754">
        <ele>396</ele>
        <time>2016-04-20T15:32:04Z</time>
      </trkpt>
      <trkpt lat="45.96906" lon="3.99761">
        <ele>396</ele>
        <time>2016-04-20T15:32:11Z</time>
      </trkpt>
      <trkpt lat="45.96901" lon="3.99782">
        <ele>396</ele>
        <time>2016-04-20T15:32:24Z</time>
      </trkpt>
      <trkpt lat="45.96898" lon="3.99788">
        <ele>395</ele>
        <time>2016-04-20T15:32:28Z</time>
      </trkpt>
      <trkpt lat="45.96886" lon="3.99826">
        <ele>396</ele>
        <time>2016-04-20T15:32:54Z</time>
      </trkpt>
      <trkpt lat="45.96879" lon="3.99852">
        <ele>395</ele>
        <time>2016-04-20T15:33:16Z</time>
      </trkpt>
      <trkpt lat="45.96861" lon="3.99894">
        <ele>395</ele>
        <time>2016-04-20T15:33:51Z</time>
      </trkpt>
      <trkpt lat="45.96843" lon="3.99944">
        <ele>395</ele>
        <time>2016-04-20T15:34:24Z</time>
      </trkpt>
      <trkpt lat="45.96827" lon="3.99989">
        <ele>394</ele>
        <time>2016-04-20T15:34:55Z</time>
      </trkpt>
      <trkpt lat="45.96817" lon="4.00012">
        <ele>394</ele>
        <time>2016-04-20T15:35:11Z</time>
      </trkpt>
      <trkpt lat="45.96806" lon="4.00026">
        <ele>393</ele>
        <time>2016-04-20T15:35:25Z</time>
      </trkpt>
      <trkpt lat="45.96792" lon="4.00056">
        <ele>393</ele>
        <time>2016-04-20T15:35:49Z</time>
      </trkpt>
      <trkpt lat="45.9676" lon="4.00088">
        <ele>391</ele>
        <time>2016-04-20T15:36:21Z</time>
      </trkpt>
      <trkpt lat="45.96737" lon="4.00104">
        <ele>391</ele>
        <time>2016-04-20T15:36:39Z</time>
      </trkpt>
      <trkpt lat="45.96733" lon="4.00108">
        <ele>389</ele>
        <time>2016-04-20T15:36:44Z</time>
      </trkpt>
      <trkpt lat="45.96728" lon="4.00113">
        <ele>389</ele>
        <time>2016-04-20T15:36:48Z</time>
      </trkpt>
      <trkpt lat="45.96724" lon="4.00116">
        <ele>389</ele>
        <time>2016-04-20T15:36:52Z</time>
      </trkpt>
      <trkpt lat="45.96708" lon="4.00145">
        <ele>391</ele>
        <time>2016-04-20T15:37:14Z</time>
      </trkpt>
      <trkpt lat="45.96691" lon="4.00188">
        <ele>391</ele>
        <time>2016-04-20T15:37:47Z</time>
      </trkpt>
      <trkpt lat="45.96689" lon="4.00196">
        <ele>391</ele>
        <time>2016-04-20T15:37:52Z</time>
      </trkpt>
      <trkpt lat="45.96667" lon="4.00236">
        <ele>393</ele>
        <time>2016-04-20T15:38:23Z</time>
      </trkpt>
      <trkpt lat="45.9665" lon="4.0026">
        <ele>395</ele>
        <time>2016-04-20T15:38:44Z</time>
      </trkpt>
      <trkpt lat="45.96646" lon="4.00265">
        <ele>396</ele>
        <time>2016-04-20T15:38:48Z</time>
      </trkpt>
      <trkpt lat="45.96643" lon="4.00271">
        <ele>395</ele>
        <time>2016-04-20T15:38:52Z</time>
      </trkpt>
      <trkpt lat="45.96634" lon="4.00279">
        <ele>394</ele>
        <time>2016-04-20T15:39:00Z</time>
      </trkpt>
      <trkpt lat="45.9663" lon="4.00284">
        <ele>395</ele>
        <time>2016-04-20T15:39:05Z</time>
      </trkpt>
      <trkpt lat="45.9663" lon="4.00291">
        <ele>395</ele>
        <time>2016-04-20T15:39:10Z</time>
      </trkpt>
      <trkpt lat="45.96625" lon="4.00302">
        <ele>396</ele>
        <time>2016-04-20T15:39:24Z</time>
      </trkpt>
      <trkpt lat="45.96626" lon="4.00305">
        <ele>396</ele>
        <time>2016-04-20T15:39:42Z</time>
      </trkpt>
      <trkpt lat="45.96622" lon="4.00327">
        <ele>400</ele>
        <time>2016-04-20T15:39:58Z</time>
      </trkpt>
      <trkpt lat="45.96619" lon="4.00334">
        <ele>401</ele>
        <time>2016-04-20T15:40:03Z</time>
      </trkpt>
      <trkpt lat="45.96622" lon="4.0034">
        <ele>401</ele>
        <time>2016-04-20T15:40:09Z</time>
      </trkpt>
      <trkpt lat="45.96618" lon="4.00344">
        <ele>401</ele>
        <time>2016-04-20T15:40:31Z</time>
      </trkpt>
      <trkpt lat="45.96613" lon="4.00346">
        <ele>399</ele>
        <time>2016-04-20T15:40:40Z</time>
      </trkpt>
      <trkpt lat="45.96608" lon="4.00358">
        <ele>398</ele>
        <time>2016-04-20T15:40:50Z</time>
      </trkpt>
      <trkpt lat="45.96606" lon="4.00362">
        <ele>398</ele>
        <time>2016-04-20T15:41:14Z</time>
      </trkpt>
      <trkpt lat="45.96606" lon="4.00366">
        <ele>398</ele>
        <time>2016-04-20T15:41:20Z</time>
      </trkpt>
      <trkpt lat="45.96608" lon="4.00374">
        <ele>398</ele>
        <time>2016-04-20T15:41:26Z</time>
      </trkpt>
      <trkpt lat="45.96606" lon="4.0038">
        <ele>397</ele>
        <time>2016-04-20T15:41:30Z</time>
      </trkpt>
      <trkpt lat="45.96609" lon="4.00416">
        <ele>400</ele>
        <time>2016-04-20T15:41:52Z</time>
      </trkpt>
      <trkpt lat="45.96608" lon="4.00438">
        <ele>398</ele>
        <time>2016-04-20T15:42:07Z</time>
      </trkpt>
      <trkpt lat="45.96608" lon="4.00445">
        <ele>398</ele>
        <time>2016-04-20T15:42:12Z</time>
      </trkpt>
      <trkpt lat="45.96607" lon="4.00501">
        <ele>395</ele>
        <time>2016-04-20T15:42:47Z</time>
      </trkpt>
      <trkpt lat="45.96606" lon="4.00522">
        <ele>394</ele>
        <time>2016-04-20T15:43:01Z</time>
      </trkpt>
      <trkpt lat="45.96596" lon="4.00569">
        <ele>392</ele>
        <time>2016-04-20T15:43:33Z</time>
      </trkpt>
      <trkpt lat="45.96589" lon="4.00598">
        <ele>391</ele>
        <time>2016-04-20T15:43:53Z</time>
      </trkpt>
      <trkpt lat="45.96587" lon="4.00604">
        <ele>391</ele>
        <time>2016-04-20T15:43:58Z</time>
      </trkpt>
      <trkpt lat="45.96585" lon="4.00611">
        <ele>391</ele>
        <time>2016-04-20T15:44:03Z</time>
      </trkpt>
      <trkpt lat="45.96577" lon="4.0063">
        <ele>391</ele>
        <time>2016-04-20T15:44:18Z</time>
      </trkpt>
      <trkpt lat="45.9657" lon="4.00642">
        <ele>391</ele>
        <time>2016-04-20T15:44:28Z</time>
      </trkpt>
      <trkpt lat="45.96567" lon="4.00648">
        <ele>391</ele>
        <time>2016-04-20T15:44:33Z</time>
      </trkpt>
      <trkpt lat="45.96548" lon="4.00694">
        <ele>389</ele>
        <time>2016-04-20T15:45:08Z</time>
      </trkpt>
      <trkpt lat="45.9653" lon="4.0073">
        <ele>387</ele>
        <time>2016-04-20T15:45:40Z</time>
      </trkpt>
      <trkpt lat="45.96513" lon="4.00775">
        <ele>382</ele>
        <time>2016-04-20T15:46:15Z</time>
      </trkpt>
      <trkpt lat="45.96504" lon="4.00804">
        <ele>380</ele>
        <time>2016-04-20T15:46:54Z</time>
      </trkpt>
      <trkpt lat="45.96503" lon="4.00811">
        <ele>379</ele>
        <time>2016-04-20T15:46:58Z</time>
      </trkpt>
      <trkpt lat="45.96502" lon="4.00818">
        <ele>379</ele>
        <time>2016-04-20T15:47:02Z</time>
      </trkpt>
      <trkpt lat="45.965" lon="4.00823">
        <ele>378</ele>
        <time>2016-04-20T15:47:06Z</time>
      </trkpt>
      <trkpt lat="45.96494" lon="4.00874">
        <ele>375</ele>
        <time>2016-04-20T15:47:40Z</time>
      </trkpt>
      <trkpt lat="45.96492" lon="4.00885">
        <ele>374</ele>
        <time>2016-04-20T15:47:54Z</time>
      </trkpt>
      <trkpt lat="45.96488" lon="4.00882">
        <ele>374</ele>
        <time>2016-04-20T15:49:08Z</time>
      </trkpt>
      <trkpt lat="45.96482" lon="4.00882">
        <ele>375</ele>
        <time>2016-04-20T15:49:12Z</time>
      </trkpt>
      <trkpt lat="45.96477" lon="4.00882">
        <ele>375</ele>
        <time>2016-04-20T15:49:16Z</time>
      </trkpt>
      <trkpt lat="45.96462" lon="4.00877">
        <ele>374</ele>
        <time>2016-04-20T15:49:26Z</time>
      </trkpt>
      <trkpt lat="45.96453" lon="4.0088">
        <ele>374</ele>
        <time>2016-04-20T15:49:33Z</time>
      </trkpt>
      <trkpt lat="45.96448" lon="4.00879">
        <ele>374</ele>
        <time>2016-04-20T15:49:38Z</time>
      </trkpt>
      <trkpt lat="45.96429" lon="4.00868">
        <ele>373</ele>
        <time>2016-04-20T15:50:01Z</time>
      </trkpt>
      <trkpt lat="45.96427" lon="4.00861">
        <ele>372</ele>
        <time>2016-04-20T15:50:05Z</time>
      </trkpt>
      <trkpt lat="45.96425" lon="4.00854">
        <ele>372</ele>
        <time>2016-04-20T15:50:09Z</time>
      </trkpt>
      <trkpt lat="45.96424" lon="4.0084">
        <ele>372</ele>
        <time>2016-04-20T15:50:17Z</time>
      </trkpt>
      <trkpt lat="45.96424" lon="4.00819">
        <ele>370</ele>
        <time>2016-04-20T15:50:30Z</time>
      </trkpt>
      <trkpt lat="45.96418" lon="4.00801">
        <ele>369</ele>
        <time>2016-04-20T15:50:47Z</time>
      </trkpt>
      <trkpt lat="45.96414" lon="4.00802">
        <ele>368</ele>
        <time>2016-04-20T15:50:55Z</time>
      </trkpt>
      <trkpt lat="45.96413" lon="4.00795">
        <ele>367</ele>
        <time>2016-04-20T15:51:01Z</time>
      </trkpt>
      <trkpt lat="45.96412" lon="4.00787">
        <ele>367</ele>
        <time>2016-04-20T15:51:06Z</time>
      </trkpt>
      <trkpt lat="45.96412" lon="4.00782">
        <ele>367</ele>
        <time>2016-04-20T15:51:15Z</time>
      </trkpt>
      <trkpt lat="45.96412" lon="4.00775">
        <ele>367</ele>
        <time>2016-04-20T15:51:33Z</time>
      </trkpt>
      <trkpt lat="45.96409" lon="4.00776">
        <ele>367</ele>
        <time>2016-04-20T15:52:51Z</time>
      </trkpt>
      <trkpt lat="45.9641" lon="4.00782">
        <ele>367</ele>
        <time>2016-04-20T15:52:55Z</time>
      </trkpt>
      <trkpt lat="45.96406" lon="4.00785">
        <ele>367</ele>
        <time>2016-04-20T15:53:00Z</time>
      </trkpt>
      <trkpt lat="45.96396" lon="4.00788">
        <ele>367</ele>
        <time>2016-04-20T15:53:11Z</time>
      </trkpt>
      <trkpt lat="45.96396" lon="4.00792">
        <ele>365</ele>
        <time>2016-04-20T15:53:34Z</time>
      </trkpt>
      <trkpt lat="45.964" lon="4.00783">
        <ele>364</ele>
        <time>2016-04-20T15:55:24Z</time>
      </trkpt>
      <trkpt lat="45.96409" lon="4.00781">
        <ele>365</ele>
        <time>2016-04-20T15:55:31Z</time>
      </trkpt>
      <trkpt lat="45.96412" lon="4.00775">
        <ele>366</ele>
        <time>2016-04-20T15:55:37Z</time>
      </trkpt>
      <trkpt lat="45.96411" lon="4.00768">
        <ele>366</ele>
        <time>2016-04-20T15:55:41Z</time>
      </trkpt>
      <trkpt lat="45.96409" lon="4.00762">
        <ele>366</ele>
        <time>2016-04-20T15:55:45Z</time>
      </trkpt>
      <trkpt lat="45.96404" lon="4.0076">
        <ele>366</ele>
        <time>2016-04-20T15:55:50Z</time>
      </trkpt>
      <trkpt lat="45.96399" lon="4.00761">
        <ele>365</ele>
        <time>2016-04-20T15:55:53Z</time>
      </trkpt>
      <trkpt lat="45.96391" lon="4.00759">
        <ele>366</ele>
        <time>2016-04-20T15:56:06Z</time>
      </trkpt>
      <trkpt lat="45.96388" lon="4.0076">
        <ele>367</ele>
        <time>2016-04-20T15:57:14Z</time>
      </trkpt>
      <trkpt lat="45.96385" lon="4.00764">
        <ele>366</ele>
        <time>2016-04-20T15:57:20Z</time>
      </trkpt>
      <trkpt lat="45.96383" lon="4.00775">
        <ele>364</ele>
        <time>2016-04-20T15:57:30Z</time>
      </trkpt>
      <trkpt lat="45.96383" lon="4.00784">
        <ele>364</ele>
        <time>2016-04-20T15:57:47Z</time>
      </trkpt>
      <trkpt lat="45.96384" lon="4.0079">
        <ele>363</ele>
        <time>2016-04-20T15:57:51Z</time>
      </trkpt>
      <trkpt lat="45.96385" lon="4.00797">
        <ele>363</ele>
        <time>2016-04-20T15:57:55Z</time>
      </trkpt>
      <trkpt lat="45.9639" lon="4.00817">
        <ele>362</ele>
        <time>2016-04-20T15:58:07Z</time>
      </trkpt>
      <trkpt lat="45.96393" lon="4.00822">
        <ele>362</ele>
        <time>2016-04-20T15:58:12Z</time>
      </trkpt>
      <trkpt lat="45.96398" lon="4.00821">
        <ele>363</ele>
        <time>2016-04-20T15:58:16Z</time>
      </trkpt>
      <trkpt lat="45.96398" lon="4.00826">
        <ele>363</ele>
        <time>2016-04-20T15:58:38Z</time>
      </trkpt>
      <trkpt lat="45.96397" lon="4.00833">
        <ele>363</ele>
        <time>2016-04-20T15:58:41Z</time>
      </trkpt>
      <trkpt lat="45.96401" lon="4.00864">
        <ele>360</ele>
        <time>2016-04-20T15:58:56Z</time>
      </trkpt>
      <trkpt lat="45.96402" lon="4.00871">
        <ele>360</ele>
        <time>2016-04-20T15:59:00Z</time>
      </trkpt>
      <trkpt lat="45.96405" lon="4.00884">
        <ele>361</ele>
        <time>2016-04-20T15:59:07Z</time>
      </trkpt>
      <trkpt lat="45.96406" lon="4.00899">
        <ele>361</ele>
        <time>2016-04-20T15:59:15Z</time>
      </trkpt>
      <trkpt lat="45.96408" lon="4.00907">
        <ele>361</ele>
        <time>2016-04-20T15:59:19Z</time>
      </trkpt>
      <trkpt lat="45.96416" lon="4.00933">
        <ele>360</ele>
        <time>2016-04-20T15:59:35Z</time>
      </trkpt>
      <trkpt lat="45.96419" lon="4.00937">
        <ele>360</ele>
        <time>2016-04-20T15:59:39Z</time>
      </trkpt>
      <trkpt lat="45.96432" lon="4.00948">
        <ele>359</ele>
        <time>2016-04-20T15:59:52Z</time>
      </trkpt>
      <trkpt lat="45.96463" lon="4.0097">
        <ele>360</ele>
        <time>2016-04-20T16:00:22Z</time>
      </trkpt>
      <trkpt lat="45.96467" lon="4.00975">
        <ele>360</ele>
        <time>2016-04-20T16:00:26Z</time>
      </trkpt>
      <trkpt lat="45.96468" lon="4.00982">
        <ele>361</ele>
        <time>2016-04-20T16:00:31Z</time>
      </trkpt>
      <trkpt lat="45.9646" lon="4.01002">
        <ele>359</ele>
        <time>2016-04-20T16:00:42Z</time>
      </trkpt>
      <trkpt lat="45.96445" lon="4.01046">
        <ele>356</ele>
        <time>2016-04-20T16:01:13Z</time>
      </trkpt>
      <trkpt lat="45.96441" lon="4.01051">
        <ele>356</ele>
        <time>2016-04-20T16:01:17Z</time>
      </trkpt>
      <trkpt lat="45.96438" lon="4.01057">
        <ele>356</ele>
        <time>2016-04-20T16:01:22Z</time>
      </trkpt>
      <trkpt lat="45.96443" lon="4.01107">
        <ele>355</ele>
        <time>2016-04-20T16:01:54Z</time>
      </trkpt>
      <trkpt lat="45.96448" lon="4.0112">
        <ele>355</ele>
        <time>2016-04-20T16:02:03Z</time>
      </trkpt>
      <trkpt lat="45.96444" lon="4.01124">
        <ele>355</ele>
        <time>2016-04-20T16:02:07Z</time>
      </trkpt>
      <trkpt lat="45.9644" lon="4.01124">
        <ele>354</ele>
        <time>2016-04-20T16:02:12Z</time>
      </trkpt>
      <trkpt lat="45.96442" lon="4.01133">
        <ele>351</ele>
        <time>2016-04-20T16:02:23Z</time>
      </trkpt>
      <trkpt lat="45.96443" lon="4.01149">
        <ele>352</ele>
        <time>2016-04-20T16:02:32Z</time>
      </trkpt>
      <trkpt lat="45.96446" lon="4.01153">
        <ele>352</ele>
        <time>2016-04-20T16:02:37Z</time>
      </trkpt>
      <trkpt lat="45.9645" lon="4.01158">
        <ele>352</ele>
        <time>2016-04-20T16:02:45Z</time>
      </trkpt>
      <trkpt lat="45.96451" lon="4.01164">
        <ele>352</ele>
        <time>2016-04-20T16:02:53Z</time>
      </trkpt>
      <trkpt lat="45.96447" lon="4.01168">
        <ele>352</ele>
        <time>2016-04-20T16:02:59Z</time>
      </trkpt>
      <trkpt lat="45.96449" lon="4.01175">
        <ele>352</ele>
        <time>2016-04-20T16:03:04Z</time>
      </trkpt>
      <trkpt lat="45.96442" lon="4.01183">
        <ele>350</ele>
        <time>2016-04-20T16:03:23Z</time>
      </trkpt>
      <trkpt lat="45.96444" lon="4.01187">
        <ele>350</ele>
        <time>2016-04-20T16:03:30Z</time>
      </trkpt>
      <trkpt lat="45.96444" lon="4.01176">
        <ele>350</ele>
        <time>2016-04-20T16:04:04Z</time>
      </trkpt>
      <trkpt lat="45.96441" lon="4.01167">
        <ele>350</ele>
        <time>2016-04-20T16:04:25Z</time>
      </trkpt>
      <trkpt lat="45.96438" lon="4.01173">
        <ele>349</ele>
        <time>2016-04-20T16:04:31Z</time>
      </trkpt>
      <trkpt lat="45.96437" lon="4.01203">
        <ele>345</ele>
        <time>2016-04-20T16:04:46Z</time>
      </trkpt>
      <trkpt lat="45.96439" lon="4.01209">
        <ele>344</ele>
        <time>2016-04-20T16:04:50Z</time>
      </trkpt>
      <trkpt lat="45.96443" lon="4.01223">
        <ele>344</ele>
        <time>2016-04-20T16:04:58Z</time>
      </trkpt>
      <trkpt lat="45.96444" lon="4.0123">
        <ele>344</ele>
        <time>2016-04-20T16:05:02Z</time>
      </trkpt>
      <trkpt lat="45.96446" lon="4.01236">
        <ele>343</ele>
        <time>2016-04-20T16:05:06Z</time>
      </trkpt>
      <trkpt lat="45.96446" lon="4.01242">
        <ele>342</ele>
        <time>2016-04-20T16:05:16Z</time>
      </trkpt>
      <trkpt lat="45.96449" lon="4.0127">
        <ele>340</ele>
        <time>2016-04-20T16:05:37Z</time>
      </trkpt>
      <trkpt lat="45.96448" lon="4.01308">
        <ele>335</ele>
        <time>2016-04-20T16:05:57Z</time>
      </trkpt>
      <trkpt lat="45.96449" lon="4.01315">
        <ele>335</ele>
        <time>2016-04-20T16:06:01Z</time>
      </trkpt>
      <trkpt lat="45.96449" lon="4.01338">
        <ele>334</ele>
        <time>2016-04-20T16:06:13Z</time>
      </trkpt>
      <trkpt lat="45.96436" lon="4.01358">
        <ele>331</ele>
        <time>2016-04-20T16:06:32Z</time>
      </trkpt>
      <trkpt lat="45.96436" lon="4.01362">
        <ele>330</ele>
        <time>2016-04-20T16:06:54Z</time>
      </trkpt>
      <trkpt lat="45.96435" lon="4.01366">
        <ele>329</ele>
        <time>2016-04-20T16:07:33Z</time>
      </trkpt>
      <trkpt lat="45.96429" lon="4.01366">
        <ele>328</ele>
        <time>2016-04-20T16:07:47Z</time>
      </trkpt>
      <trkpt lat="45.96421" lon="4.01359">
        <ele>326</ele>
        <time>2016-04-20T16:07:56Z</time>
      </trkpt>
      <trkpt lat="45.96416" lon="4.01351">
        <ele>324</ele>
        <time>2016-04-20T16:08:29Z</time>
      </trkpt>
      <trkpt lat="45.96413" lon="4.01346">
        <ele>324</ele>
        <time>2016-04-20T16:08:35Z</time>
      </trkpt>
      <trkpt lat="45.96411" lon="4.0134">
        <ele>323</ele>
        <time>2016-04-20T16:08:52Z</time>
      </trkpt>
      <trkpt lat="45.9641" lon="4.01326">
        <ele>322</ele>
        <time>2016-04-20T16:09:01Z</time>
      </trkpt>
      <trkpt lat="45.9641" lon="4.01311">
        <ele>322</ele>
        <time>2016-04-20T16:09:09Z</time>
      </trkpt>
      <trkpt lat="45.96392" lon="4.01251">
        <ele>318</ele>
        <time>2016-04-20T16:09:42Z</time>
      </trkpt>
      <trkpt lat="45.9637" lon="4.012">
        <ele>318</ele>
        <time>2016-04-20T16:10:14Z</time>
      </trkpt>
      <trkpt lat="45.96367" lon="4.01194">
        <ele>318</ele>
        <time>2016-04-20T16:10:19Z</time>
      </trkpt>
      <trkpt lat="45.96355" lon="4.01152">
        <ele>316</ele>
        <time>2016-04-20T16:10:49Z</time>
      </trkpt>
      <trkpt lat="45.96354" lon="4.01138">
        <ele>317</ele>
        <time>2016-04-20T16:10:59Z</time>
      </trkpt>
      <trkpt lat="45.96355" lon="4.01133">
        <ele>318</ele>
        <time>2016-04-20T16:11:07Z</time>
      </trkpt>
      <trkpt lat="45.96355" lon="4.01126">
        <ele>319</ele>
        <time>2016-04-20T16:11:16Z</time>
      </trkpt>
      <trkpt lat="45.96354" lon="4.01119">
        <ele>318</ele>
        <time>2016-04-20T16:11:21Z</time>
      </trkpt>
      <trkpt lat="45.96342" lon="4.0106">
        <ele>315</ele>
        <time>2016-04-20T16:11:54Z</time>
      </trkpt>
      <trkpt lat="45.96341" lon="4.01047">
        <ele>315</ele>
        <time>2016-04-20T16:12:02Z</time>
      </trkpt>
      <trkpt lat="45.96344" lon="4.01012">
        <ele>315</ele>
        <time>2016-04-20T16:12:23Z</time>
      </trkpt>
      <trkpt lat="45.96327" lon="4.00961">
        <ele>314</ele>
        <time>2016-04-20T16:12:58Z</time>
      </trkpt>
      <trkpt lat="45.96318" lon="4.00944">
        <ele>314</ele>
        <time>2016-04-20T16:13:11Z</time>
      </trkpt>
      <trkpt lat="45.96313" lon="4.00941">
        <ele>314</ele>
        <time>2016-04-20T16:13:14Z</time>
      </trkpt>
      <trkpt lat="45.96311" lon="4.00938">
        <ele>314</ele>
        <time>2016-04-20T16:13:21Z</time>
      </trkpt>
      <trkpt lat="45.96305" lon="4.00939">
        <ele>314</ele>
        <time>2016-04-20T16:13:37Z</time>
      </trkpt>
      <trkpt lat="45.963" lon="4.00936">
        <ele>314</ele>
        <time>2016-04-20T16:13:42Z</time>
      </trkpt>
      <trkpt lat="45.96279" lon="4.00933">
        <ele>315</ele>
        <time>2016-04-20T16:14:01Z</time>
      </trkpt>
      <trkpt lat="45.9626" lon="4.00931">
        <ele>314</ele>
        <time>2016-04-20T16:14:18Z</time>
      </trkpt>
      <trkpt lat="45.9625" lon="4.00927">
        <ele>314</ele>
        <time>2016-04-20T16:14:27Z</time>
      </trkpt>
      <trkpt lat="45.96241" lon="4.00921">
        <ele>316</ele>
        <time>2016-04-20T16:14:36Z</time>
      </trkpt>
      <trkpt lat="45.96213" lon="4.009">
        <ele>317</ele>
        <time>2016-04-20T16:15:05Z</time>
      </trkpt>
      <trkpt lat="45.9621" lon="4.00893">
        <ele>317</ele>
        <time>2016-04-20T16:15:10Z</time>
      </trkpt>
      <trkpt lat="45.962" lon="4.00877">
        <ele>315</ele>
        <time>2016-04-20T16:15:26Z</time>
      </trkpt>
      <trkpt lat="45.96197" lon="4.00871">
        <ele>315</ele>
        <time>2016-04-20T16:15:30Z</time>
      </trkpt>
      <trkpt lat="45.96195" lon="4.00866">
        <ele>315</ele>
        <time>2016-04-20T16:15:34Z</time>
      </trkpt>
      <trkpt lat="45.96191" lon="4.0086">
        <ele>315</ele>
        <time>2016-04-20T16:15:39Z</time>
      </trkpt>
      <trkpt lat="45.96187" lon="4.00856">
        <ele>315</ele>
        <time>2016-04-20T16:15:43Z</time>
      </trkpt>
      <trkpt lat="45.96183" lon="4.00851">
        <ele>316</ele>
        <time>2016-04-20T16:15:48Z</time>
      </trkpt>
      <trkpt lat="45.96177" lon="4.00843">
        <ele>316</ele>
        <time>2016-04-20T16:16:00Z</time>
      </trkpt>
      <trkpt lat="45.96173" lon="4.00839">
        <ele>316</ele>
        <time>2016-04-20T16:16:25Z</time>
      </trkpt>
      <trkpt lat="45.96152" lon="4.00792">
        <ele>315</ele>
        <time>2016-04-20T16:16:58Z</time>
      </trkpt>
      <trkpt lat="45.96143" lon="4.00784">
        <ele>315</ele>
        <time>2016-04-20T16:17:06Z</time>
      </trkpt>
      <trkpt lat="45.9614" lon="4.00771">
        <ele>316</ele>
        <time>2016-04-20T16:17:21Z</time>
      </trkpt>
      <trkpt lat="45.96128" lon="4.00723">
        <ele>316</ele>
        <time>2016-04-20T16:17:54Z</time>
      </trkpt>
      <trkpt lat="45.96138" lon="4.00696">
        <ele>317</ele>
        <time>2016-04-20T16:18:28Z</time>
      </trkpt>
      <trkpt lat="45.96143" lon="4.00685">
        <ele>317</ele>
        <time>2016-04-20T16:18:39Z</time>
      </trkpt>
      <trkpt lat="45.96143" lon="4.00676">
        <ele>317</ele>
        <time>2016-04-20T16:19:02Z</time>
      </trkpt>
      <trkpt lat="45.96144" lon="4.00655">
        <ele>319</ele>
        <time>2016-04-20T16:19:16Z</time>
      </trkpt>
      <trkpt lat="45.96142" lon="4.00648">
        <ele>319</ele>
        <time>2016-04-20T16:19:21Z</time>
      </trkpt>
      <trkpt lat="45.96143" lon="4.00634">
        <ele>319</ele>
        <time>2016-04-20T16:19:31Z</time>
      </trkpt>
      <trkpt lat="45.96135" lon="4.00624">
        <ele>318</ele>
        <time>2016-04-20T16:19:42Z</time>
      </trkpt>
      <trkpt lat="45.9613" lon="4.00619">
        <ele>318</ele>
        <time>2016-04-20T16:19:47Z</time>
      </trkpt>
      <trkpt lat="45.96126" lon="4.00618">
        <ele>318</ele>
        <time>2016-04-20T16:19:50Z</time>
      </trkpt>
      <trkpt lat="45.96108" lon="4.00603">
        <ele>318</ele>
        <time>2016-04-20T16:20:06Z</time>
      </trkpt>
      <trkpt lat="45.96089" lon="4.0057">
        <ele>319</ele>
        <time>2016-04-20T16:20:36Z</time>
      </trkpt>
      <trkpt lat="45.96082" lon="4.00561">
        <ele>319</ele>
        <time>2016-04-20T16:20:44Z</time>
      </trkpt>
      <trkpt lat="45.9608" lon="4.00554">
        <ele>319</ele>
        <time>2016-04-20T16:20:50Z</time>
      </trkpt>
      <trkpt lat="45.96071" lon="4.00536">
        <ele>321</ele>
        <time>2016-04-20T16:21:03Z</time>
      </trkpt>
      <trkpt lat="45.96068" lon="4.0053">
        <ele>321</ele>
        <time>2016-04-20T16:21:08Z</time>
      </trkpt>
      <trkpt lat="45.96063" lon="4.00516">
        <ele>319</ele>
        <time>2016-04-20T16:21:17Z</time>
      </trkpt>
      <trkpt lat="45.96064" lon="4.00502">
        <ele>321</ele>
        <time>2016-04-20T16:21:26Z</time>
      </trkpt>
      <trkpt lat="45.96062" lon="4.00458">
        <ele>325</ele>
        <time>2016-04-20T16:21:55Z</time>
      </trkpt>
      <trkpt lat="45.96063" lon="4.00452">
        <ele>325</ele>
        <time>2016-04-20T16:21:59Z</time>
      </trkpt>
      <trkpt lat="45.96064" lon="4.00437">
        <ele>325</ele>
        <time>2016-04-20T16:22:09Z</time>
      </trkpt>
      <trkpt lat="45.96067" lon="4.0043">
        <ele>325</ele>
        <time>2016-04-20T16:22:13Z</time>
      </trkpt>
      <trkpt lat="45.9607" lon="4.00425">
        <ele>326</ele>
        <time>2016-04-20T16:22:17Z</time>
      </trkpt>
      <trkpt lat="45.96074" lon="4.00405">
        <ele>325</ele>
        <time>2016-04-20T16:22:32Z</time>
      </trkpt>
      <trkpt lat="45.96076" lon="4.0039">
        <ele>326</ele>
        <time>2016-04-20T16:22:41Z</time>
      </trkpt>
      <trkpt lat="45.96082" lon="4.00353">
        <ele>327</ele>
        <time>2016-04-20T16:23:07Z</time>
      </trkpt>
      <trkpt lat="45.9608" lon="4.00347">
        <ele>327</ele>
        <time>2016-04-20T16:23:12Z</time>
      </trkpt>
      <trkpt lat="45.96075" lon="4.00343">
        <ele>327</ele>
        <time>2016-04-20T16:23:16Z</time>
      </trkpt>
      <trkpt lat="45.96061" lon="4.0034">
        <ele>328</ele>
        <time>2016-04-20T16:23:31Z</time>
      </trkpt>
      <trkpt lat="45.96056" lon="4.00338">
        <ele>329</ele>
        <time>2016-04-20T16:23:37Z</time>
      </trkpt>
      <trkpt lat="45.96051" lon="4.00339">
        <ele>329</ele>
        <time>2016-04-20T16:23:45Z</time>
      </trkpt>
      <trkpt lat="45.96048" lon="4.00342">
        <ele>332</ele>
        <time>2016-04-20T16:23:54Z</time>
      </trkpt>
      <trkpt lat="45.96044" lon="4.00346">
        <ele>332</ele>
        <time>2016-04-20T16:25:11Z</time>
      </trkpt>
      <trkpt lat="45.96027" lon="4.00373">
        <ele>342</ele>
        <time>2016-04-20T16:25:37Z</time>
      </trkpt>
      <trkpt lat="45.96025" lon="4.0038">
        <ele>341</ele>
        <time>2016-04-20T16:25:41Z</time>
      </trkpt>
      <trkpt lat="45.96022" lon="4.00387">
        <ele>341</ele>
        <time>2016-04-20T16:25:45Z</time>
      </trkpt>
      <trkpt lat="45.96019" lon="4.00394">
        <ele>341</ele>
        <time>2016-04-20T16:25:50Z</time>
      </trkpt>
      <trkpt lat="45.96016" lon="4.00399">
        <ele>341</ele>
        <time>2016-04-20T16:25:56Z</time>
      </trkpt>
      <trkpt lat="45.96007" lon="4.00436">
        <ele>348</ele>
        <time>2016-04-20T16:26:30Z</time>
      </trkpt>
      <trkpt lat="45.96" lon="4.00458">
        <ele>351</ele>
        <time>2016-04-20T16:27:02Z</time>
      </trkpt>
      <trkpt lat="45.95995" lon="4.00478">
        <ele>355</ele>
        <time>2016-04-20T16:27:23Z</time>
      </trkpt>
      <trkpt lat="45.95989" lon="4.00484">
        <ele>357</ele>
        <time>2016-04-20T16:27:35Z</time>
      </trkpt>
      <trkpt lat="45.95985" lon="4.00488">
        <ele>357</ele>
        <time>2016-04-20T16:27:42Z</time>
      </trkpt>
      <trkpt lat="45.9596" lon="4.00521">
        <ele>361</ele>
        <time>2016-04-20T16:28:16Z</time>
      </trkpt>
      <trkpt lat="45.95945" lon="4.00541">
        <ele>364</ele>
        <time>2016-04-20T16:28:37Z</time>
      </trkpt>
      <trkpt lat="45.95931" lon="4.00559">
        <ele>364</ele>
        <time>2016-04-20T16:28:57Z</time>
      </trkpt>
      <trkpt lat="45.95922" lon="4.00575">
        <ele>366</ele>
        <time>2016-04-20T16:29:16Z</time>
      </trkpt>
      <trkpt lat="45.95907" lon="4.00614">
        <ele>368</ele>
        <time>2016-04-20T16:29:49Z</time>
      </trkpt>
      <trkpt lat="45.95891" lon="4.0065">
        <ele>369</ele>
        <time>2016-04-20T16:30:17Z</time>
      </trkpt>
      <trkpt lat="45.95889" lon="4.00656">
        <ele>371</ele>
        <time>2016-04-20T16:30:45Z</time>
      </trkpt>
      <trkpt lat="45.95885" lon="4.00659">
        <ele>371</ele>
        <time>2016-04-20T16:30:51Z</time>
      </trkpt>
      <trkpt lat="45.95877" lon="4.00682">
        <ele>371</ele>
        <time>2016-04-20T16:31:26Z</time>
      </trkpt>
      <trkpt lat="45.95875" lon="4.00689">
        <ele>373</ele>
        <time>2016-04-20T16:31:54Z</time>
      </trkpt>
      <trkpt lat="45.9585" lon="4.00724">
        <ele>372</ele>
        <time>2016-04-20T16:32:26Z</time>
      </trkpt>
      <trkpt lat="45.95832" lon="4.00735">
        <ele>371</ele>
        <time>2016-04-20T16:32:46Z</time>
      </trkpt>
      <trkpt lat="45.95804" lon="4.00715">
        <ele>376</ele>
        <time>2016-04-20T16:35:16Z</time>
      </trkpt>
      <trkpt lat="45.95774" lon="4.00682">
        <ele>376</ele>
        <time>2016-04-20T16:36:05Z</time>
      </trkpt>
      <trkpt lat="45.95594" lon="4.00624">
        <ele>388</ele>
        <time>2016-04-20T16:38:40Z</time>
      </trkpt>
      <trkpt lat="45.9559" lon="4.00621">
        <ele>397</ele>
        <time>2016-04-20T16:38:45Z</time>
      </trkpt>
      <trkpt lat="45.95575" lon="4.00616">
        <ele>399</ele>
        <time>2016-04-20T16:38:58Z</time>
      </trkpt>
      <trkpt lat="45.95542" lon="4.00596">
        <ele>402</ele>
        <time>2016-04-20T16:39:31Z</time>
      </trkpt>
      <trkpt lat="45.95509" lon="4.00576">
        <ele>404</ele>
        <time>2016-04-20T16:40:03Z</time>
      </trkpt>
      <trkpt lat="45.95476" lon="4.00553">
        <ele>406</ele>
        <time>2016-04-20T16:40:46Z</time>
      </trkpt>
      <trkpt lat="45.95445" lon="4.00532">
        <ele>408</ele>
        <time>2016-04-20T16:41:17Z</time>
      </trkpt>
      <trkpt lat="45.95441" lon="4.00529">
        <ele>408</ele>
        <time>2016-04-20T16:41:22Z</time>
      </trkpt>
      <trkpt lat="45.95409" lon="4.00507">
        <ele>407</ele>
        <time>2016-04-20T16:41:54Z</time>
      </trkpt>
      <trkpt lat="45.95378" lon="4.00484">
        <ele>407</ele>
        <time>2016-04-20T16:42:25Z</time>
      </trkpt>
      <trkpt lat="45.95346" lon="4.00459">
        <ele>407</ele>
        <time>2016-04-20T16:42:57Z</time>
      </trkpt>
      <trkpt lat="45.95313" lon="4.00439">
        <ele>407</ele>
        <time>2016-04-20T16:43:28Z</time>
      </trkpt>
      <trkpt lat="45.95275" lon="4.00422">
        <ele>407</ele>
        <time>2016-04-20T16:44:03Z</time>
      </trkpt>
      <trkpt lat="45.95266" lon="4.00419">
        <ele>407</ele>
        <time>2016-04-20T16:44:12Z</time>
      </trkpt>
      <trkpt lat="45.95252" lon="4.00415">
        <ele>407</ele>
        <time>2016-04-20T16:44:24Z</time>
      </trkpt>
      <trkpt lat="45.95256" lon="4.00411">
        <ele>407</ele>
        <time>2016-04-20T16:45:14Z</time>
      </trkpt>
      <trkpt lat="45.95259" lon="4.00411">
        <ele>407</ele>
        <time>2016-04-20T16:45:20Z</time>
      </trkpt>
      <trkpt lat="45.95261" lon="4.00409">
        <ele>407</ele>
        <time>2016-04-20T16:45:26Z</time>
      </trkpt>
      <trkpt lat="45.95265" lon="4.00412">
        <ele>407</ele>
        <time>2016-04-20T16:45:30Z</time>
      </trkpt>
      <trkpt lat="45.95283" lon="4.00425">
        <ele>406</ele>
        <time>2016-04-20T16:46:02Z</time>
      </trkpt>
      <trkpt lat="45.95291" lon="4.00427">
        <ele>406</ele>
        <time>2016-04-20T16:46:13Z</time>
      </trkpt>
      <trkpt lat="45.95294" lon="4.00423">
        <ele>407</ele>
        <time>2016-04-20T16:48:03Z</time>
      </trkpt>
      <trkpt lat="45.95302" lon="4.00427">
        <ele>408</ele>
        <time>2016-04-20T16:48:17Z</time>
      </trkpt>
      <trkpt lat="45.953" lon="4.00429">
        <ele>408</ele>
        <time>2016-04-20T16:48:47Z</time>
      </trkpt>
      <trkpt lat="45.95295" lon="4.00428">
        <ele>408</ele>
        <time>2016-04-20T16:48:56Z</time>
      </trkpt>
      <trkpt lat="45.95288" lon="4.0043">
        <ele>408</ele>
        <time>2016-04-20T16:49:00Z</time>
      </trkpt>
      <trkpt lat="45.95279" lon="4.00426">
        <ele>409</ele>
        <time>2016-04-20T16:49:11Z</time>
      </trkpt>
      <trkpt lat="45.95277" lon="4.00421">
        <ele>408</ele>
        <time>2016-04-20T16:49:24Z</time>
      </trkpt>
      <trkpt lat="45.95274" lon="4.00419">
        <ele>408</ele>
        <time>2016-04-20T16:49:30Z</time>
      </trkpt>
      <trkpt lat="45.9527" lon="4.00417">
        <ele>408</ele>
        <time>2016-04-20T16:49:35Z</time>
      </trkpt>
      <trkpt lat="45.95237" lon="4.00409">
        <ele>408</ele>
        <time>2016-04-20T16:50:11Z</time>
      </trkpt>
      <trkpt lat="45.95204" lon="4.00399">
        <ele>408</ele>
        <time>2016-04-20T16:50:44Z</time>
      </trkpt>
      <trkpt lat="45.95178" lon="4.0039">
        <ele>409</ele>
        <time>2016-04-20T16:51:14Z</time>
      </trkpt>
      <trkpt lat="45.95164" lon="4.00393">
        <ele>409</ele>
        <time>2016-04-20T16:51:28Z</time>
      </trkpt>
      <trkpt lat="45.95159" lon="4.0039">
        <ele>409</ele>
        <time>2016-04-20T16:51:32Z</time>
      </trkpt>
      <trkpt lat="45.95133" lon="4.00394">
        <ele>409</ele>
        <time>2016-04-20T16:51:57Z</time>
      </trkpt>
      <trkpt lat="45.95098" lon="4.00392">
        <ele>408</ele>
        <time>2016-04-20T16:52:29Z</time>
      </trkpt>
      <trkpt lat="45.95063" lon="4.0039">
        <ele>408</ele>
        <time>2016-04-20T16:53:00Z</time>
      </trkpt>
      <trkpt lat="45.95029" lon="4.00384">
        <ele>408</ele>
        <time>2016-04-20T16:53:33Z</time>
      </trkpt>
      <trkpt lat="45.94994" lon="4.00377">
        <ele>408</ele>
        <time>2016-04-20T16:54:07Z</time>
      </trkpt>
      <trkpt lat="45.94989" lon="4.00375">
        <ele>408</ele>
        <time>2016-04-20T16:54:12Z</time>
      </trkpt>
      <trkpt lat="45.94984" lon="4.00376">
        <ele>408</ele>
        <time>2016-04-20T16:54:18Z</time>
      </trkpt>
      <trkpt lat="45.94969" lon="4.00376">
        <ele>408</ele>
        <time>2016-04-20T16:54:33Z</time>
      </trkpt>
      <trkpt lat="45.94959" lon="4.00381">
        <ele>409</ele>
        <time>2016-04-20T16:54:42Z</time>
      </trkpt>
      <trkpt lat="45.94925" lon="4.00385">
        <ele>407</ele>
        <time>2016-04-20T16:55:17Z</time>
      </trkpt>
      <trkpt lat="45.94921" lon="4.00385">
        <ele>407</ele>
        <time>2016-04-20T16:55:23Z</time>
      </trkpt>
      <trkpt lat="45.94918" lon="4.00379">
        <ele>407</ele>
        <time>2016-04-20T16:55:40Z</time>
      </trkpt>
      <trkpt lat="45.94911" lon="4.00345">
        <ele>406</ele>
        <time>2016-04-20T16:56:04Z</time>
      </trkpt>
      <trkpt lat="45.94907" lon="4.00342">
        <ele>406</ele>
        <time>2016-04-20T16:56:09Z</time>
      </trkpt>
      <trkpt lat="45.94903" lon="4.00345">
        <ele>406</ele>
        <time>2016-04-20T16:56:14Z</time>
      </trkpt>
      <trkpt lat="45.94899" lon="4.00348">
        <ele>406</ele>
        <time>2016-04-20T16:56:19Z</time>
      </trkpt>
      <trkpt lat="45.94896" lon="4.00348">
        <ele>406</ele>
        <time>2016-04-20T16:56:31Z</time>
      </trkpt>
      <trkpt lat="45.94895" lon="4.00356">
        <ele>406</ele>
        <time>2016-04-20T16:56:55Z</time>
      </trkpt>
      <trkpt lat="45.94894" lon="4.00363">
        <ele>406</ele>
        <time>2016-04-20T16:57:00Z</time>
      </trkpt>
      <trkpt lat="45.94896" lon="4.0037">
        <ele>406</ele>
        <time>2016-04-20T16:57:05Z</time>
      </trkpt>
      <trkpt lat="45.94899" lon="4.00373">
        <ele>405</ele>
        <time>2016-04-20T16:57:13Z</time>
      </trkpt>
      <trkpt lat="45.94901" lon="4.00366">
        <ele>406</ele>
        <time>2016-04-20T16:57:31Z</time>
      </trkpt>
      <trkpt lat="45.94904" lon="4.00359">
        <ele>408</ele>
        <time>2016-04-20T16:58:32Z</time>
      </trkpt>
    </trkseg>
  </trk>
</gpx>